Ship Status Report: callsign 000000

sailwx.info

Track history (hours):
 
Tides and Currents Weather Stations Pressure Air Temp Water Temp Dewpoint Dewpoint Depression Visibility Wind Speed Wind Dir Waves Ship Positions

Callsign 000000 (name unknown)

Last reported at 2014-Oct-31 15:33 UTC. Time now 2014-Oct-31 15:41 UTC.
Position N 23°04' E 113°29'.

Type: Fishing. MMSI: 200007452.

Date/timePositionNaut miles runAvg speedWind from/ knotsBaromVisibWave heightAir tempDewpointWater temp
2014-Oct-31 15:33N 23°04' E 113°29'97670297.6
2014-Oct-31 15:32N 37°50' E 121°27'915122006.8
2014-Oct-31 15:32N 22°37' E 120°09'3682407.6
2014-Oct-31 15:23N 22°10' E 113°32'411806.5
2014-Oct-31 15:21N 22°51' E 113°33'9508264.7
2014-Oct-31 15:15N 36°43' E 122°23'9431375.7
2014-Oct-31 14:33N 23°04' E 113°25'9428.1
2014-Oct-31 14:32N 22°55' E 113°26'45799.1
2014-Oct-31 14:29N 22°10' E 113°32'68327037.7
2014-Oct-31 14:27N 31°58' E 120°03'3584935.8
2014-Oct-31 14:23N 37°49' E 121°31'2428.8
2014-Oct-31 13:32N 37°34' E 121°55'102218300.4
2014-Oct-31 13:29N 22°10' E 113°32'447601.0
2014-Oct-31 13:28N 22°53' E 113°19'9903564002.2
2014-Oct-31 13:28N 37°47' E 121°33'3575861.8
2014-Oct-31 13:25N 31°57' E 120°10'6496071.3
2014-Oct-31 13:18N 22°51' E 113°33'0 0.2
2014-Oct-31 13:05N 22°51' E 113°33'6531236.7
2014-Oct-31 12:33N 31°57' E 120°17'35216469.4
2014-Oct-31 12:32N 37°45' E 121°30'201218.7
2014-Oct-31 12:31N 37°34' E 121°51'10208542.3
2014-Oct-31 12:24N 22°10' E 113°32'42203.9
2014-Oct-31 12:12N 22°52' E 113°33'9841548.4
2014-Oct-31 11:33N 37°45' E 121°31'34966127.0
2014-Oct-31 11:33N 32°00' E 120°24'65919933.3
2014-Oct-31 11:31N 22°55' E 113°27'10356775.0
2014-Oct-31 11:22N 38°43' E 121°31'1203630.9
2014-Oct-31 11:20N 36°49' E 122°20'50971.7
2014-Oct-31 11:17N 37°34' E 121°55'2534.9
2014-Oct-31 10:33N 37°45' E 121°26'34654144.5
2014-Oct-31 10:33N 32°02' E 120°30'340244525.0
2014-Oct-31 10:33N 37°34' E 121°59'73722.0
2014-Oct-31 10:27N 38°42' E 121°28'9541070.4
2014-Oct-31 09:33N 23°21' E 116°40'8973230703.9
2014-Oct-31 09:33N 37°45' E 121°21'34677942.7
2014-Oct-31 09:33N 32°01' E 120°36'3409404.3
2014-Oct-31 09:31N 37°33' E 121°60'99622268.2
2014-Oct-31 09:28N 22°32' E 113°51'3686730.0
2014-Oct-31 09:25N 25°58' E 119°26'3681844.7
2014-Oct-31 09:13N 22°60' E 113°32'177266.4
2014-Oct-31 08:33N 23°21' E 116°43'17918940.3
2014-Oct-31 08:33N 23°04' E 113°30'96458790.6
2014-Oct-31 08:32N 37°42' E 121°09'42238.7
2014-Oct-31 08:21N 37°32' E 122°01'70721209.6
2014-Oct-31 08:19N 25°58' E 119°26'216281.0
2014-Oct-31 07:33N 23°17' E 116°48'89752914.4
2014-Oct-31 07:32N 37°32' E 122°01'70745441.8
2014-Oct-31 07:31N 25°58' E 119°26'37013714.2
2014-Oct-31 07:29N 23°05' E 113°27'9638455.8
2014-Oct-31 07:23N 37°42' E 121°09'4249.8
2014-Oct-31 06:32N 37°32' E 122°00'70747101.1
2014-Oct-31 06:31N 25°58' E 119°26'3686138.0
2014-Oct-31 06:27N 22°32' E 113°51'424995.8
2014-Oct-31 06:27N 23°02' E 113°21'9881105.0
2014-Oct-31 05:33N 39°03' E 117°54'21326462.7
2014-Oct-31 05:33N 37°30' E 121°59'993162471.2
2014-Oct-31 05:32N 22°32' E 113°51'3682972.7
2014-Oct-31 05:25N 25°58' E 119°26'0 0.0
2014-Oct-31 04:31N 25°58' E 119°26'3696237.5
2014-Oct-31 04:27N 22°31' E 113°51'9924205.3
2014-Oct-31 04:13N 37°29' E 121°58'102411814.4
2014-Oct-31 04:08N 22°03' E 113°35'5 8.5
2014-Oct-31 03:33N 22°07' E 113°36'101936319.9
2014-Oct-31 03:31N 37°29' E 121°58'703126514.2
2014-Oct-31 03:31N 25°58' E 119°26'377870.5
2014-Oct-31 03:05N 23°07' E 113°17'55102.1
2014-Oct-31 02:33N 22°15' E 113°36'5146114.8
2014-Oct-31 02:33N 23°06' E 113°25'3711604.8
2014-Oct-31 02:19N 25°58' E 119°26'36812044.6
2014-Oct-31 02:17N 23°03' E 113°30'1114.8
2014-Oct-31 01:33N 23°07' E 113°19'511210.0
2014-Oct-31 01:31N 22°17' E 113°35'389699860.2
2014-Oct-31 01:31N 25°58' E 119°26'3895817.1
2014-Oct-31 01:27N 22°17' E 113°35'10113682.2
2014-Oct-31 01:10N 37°29' E 121°58'97010908.5
2014-Oct-31 01:05N 23°04' E 113°29'9721836.1
2014-Oct-31 00:33N 37°31' E 121°59'97213887.2
2014-Oct-31 00:29N 23°04' E 113°29'47346.1
2014-Oct-31 00:21N 22°17' E 113°35'38911491.1
2014-Oct-31 00:19N 25°58' E 119°26'3914540.2
2014-Oct-31 00:14N 22°14' E 113°35'189260.5
2014-Oct-30 23:30N 23°17' E 116°48'2162394.6
2014-Oct-30 23:25N 25°58' E 119°26'3681119.1
2014-Oct-30 23:05N 23°04' E 113°29'9721830.3
2014-Oct-30 22:33N 37°35' E 121°49'8953222109.4
2014-Oct-30 22:33N 23°18' E 116°47'2155421.4
2014-Oct-30 22:31N 25°58' E 119°26'36812510.2
2014-Oct-30 22:29N 23°04' E 113°29'6152682.7
2014-Oct-30 22:15N 29°43' E 122°12'482691.4
2014-Oct-30 21:33N 23°19' E 116°47'892642305.6
2014-Oct-30 21:33N 37°42' E 121°09'331918.7
2014-Oct-30 21:32N 37°35' E 121°49'97217492.4
2014-Oct-30 21:29N 23°04' E 113°29'3685179.8
2014-Oct-30 21:25N 25°58' E 119°26'215250.7
2014-Oct-30 20:33N 23°19' E 116°47'896645099.5
2014-Oct-30 20:33N 37°36' E 121°47'97258334.7
2014-Oct-30 20:32N 23°04' E 113°29'967217471.3
2014-Oct-30 20:32N 37°43' E 121°15'71236597.6
2014-Oct-30 20:31N 25°58' E 119°26'712745.8
2014-Oct-30 19:33N 37°43' E 121°20'896322647.1
2014-Oct-30 19:33N 23°19' E 116°47'895537028.3
2014-Oct-30 19:33N 37°36' E 121°45'9713615.4
2014-Oct-30 19:17N 23°04' E 113°29'182249.9
2014-Oct-30 18:33N 23°19' E 116°47'895460398.1
2014-Oct-30 18:33N 37°36' E 121°46'183419.5
2014-Oct-30 18:33N 37°43' E 121°26'97012047.5
2014-Oct-30 18:28N 23°04' E 113°29'97610187.0
2014-Oct-30 18:22N 37°50' E 121°25'8 9.6
2014-Oct-30 17:33N 37°44' E 121°31'899539393.3
2014-Oct-30 17:33N 23°19' E 116°47'894536516.8
2014-Oct-30 17:33N 37°35' E 121°46'97026667.9
2014-Oct-30 17:31N 23°04' E 113°29'182189.8
2014-Oct-30 16:33N 23°19' E 116°47'8941072933.1
2014-Oct-30 16:33N 37°34' E 121°47'17154.2
2014-Oct-30 16:27N 37°46' E 121°30'99625253.7
2014-Oct-30 16:24N 22°33' E 113°48'2642292.2
2014-Oct-30 16:17N 23°57' E 118°20'8431149.7
2014-Oct-30 15:33N 37°44' E 121°30'8991618897.1
2014-Oct-30 15:33N 23°19' E 116°47'893128622.0
2014-Oct-30 15:33N 37°34' E 121°43'9694177.7
2014-Oct-30 15:19N 23°04' E 113°29'182239.5
2014-Oct-30 14:33N 23°19' E 116°47'8981078162.5
2014-Oct-30 14:33N 37°44' E 121°25'1913688.3
2014-Oct-30 14:33N 37°35' E 121°46'6913058.2
2014-Oct-30 14:33N 38°43' E 121°30'102512816.7
2014-Oct-30 14:28N 23°04' E 113°29'6385024.1
2014-Oct-30 14:21N 31°58' E 120°02'548698.0
2014-Oct-30 13:33N 23°19' E 116°47'89897992.9
2014-Oct-30 13:33N 37°44' E 121°26'2118835.3
2014-Oct-30 13:33N 37°35' E 121°51'186002.9
2014-Oct-30 13:33N 37°45' E 121°31'97438973.5
2014-Oct-30 13:31N 23°04' E 113°29'6381958.7
2014-Oct-30 13:12N 31°60' E 119°60'548862.4
2014-Oct-30 12:33N 23°19' E 116°47'54853293.6
2014-Oct-30 12:33N 31°58' E 120°04'35347108.6
2014-Oct-30 12:32N 37°44' E 121°31'35324431.6
2014-Oct-30 12:32N 31°57' E 120°13'351316067.7
2014-Oct-30 12:31N 37°38' E 121°51'976175610.0
2014-Oct-30 12:31N 23°04' E 113°29'8 8.0
2014-Oct-30 11:33N 23°02' E 113°21'6461162773.0
2014-Oct-30 11:33N 31°56' E 120°11'71838.4
2014-Oct-30 11:33N 31°59' E 120°19'350139954.3
2014-Oct-30 11:33N 37°44' E 121°27'89940952.0
2014-Oct-30 11:32N 23°19' E 116°47'18221144.0
2014-Oct-30 11:31N 23°04' E 113°29'9761170771.9
2014-Oct-30 11:31N 37°38' E 121°52'899938.2
2014-Oct-30 10:34N 23°19' E 116°47'955491385.3
2014-Oct-30 10:33N 38°43' E 121°30'1025527286.5
2014-Oct-30 10:33N 23°05' E 113°28'973206039.9
2014-Oct-30 10:33N 37°35' E 121°51'2518063.0
2014-Oct-30 10:33N 37°44' E 121°22'350114610.9
2014-Oct-30 10:33N 31°58' E 120°18'72117.4
2014-Oct-30 10:33N 32°02' E 120°26'573.5
2014-Oct-30 10:29N 31°59' E 120°20'6483108.8
2014-Oct-30 10:16N 23°04' E 113°29'651917.9
2014-Oct-30 09:33N 32°02' E 120°24'651213140.1
2014-Oct-30 09:33N 23°04' E 113°29'65246938.4
2014-Oct-30 09:32N 32°01' E 120°26'34634567.5
2014-Oct-30 09:32N 37°45' E 121°16'96869706.5
2014-Oct-30 09:31N 23°04' E 113°29'65678662.7
2014-Oct-30 09:31N 32°02' E 120°32'56017683.7
2014-Oct-30 09:29N 23°19' E 116°47'2151386.7
2014-Oct-30 09:19N 25°58' E 119°26'368480.0
2014-Oct-30 08:33N 23°04' E 113°30'6552359775.6
2014-Oct-30 08:33N 32°04' E 120°28'31096.6
2014-Oct-30 08:33N 32°02' E 120°31'74098.6
2014-Oct-30 08:33N 32°00' E 120°39'56123742.9
2014-Oct-30 08:32N 23°19' E 116°47'21540797.9
2014-Oct-30 08:31N 25°58' E 119°26'7082872.3
2014-Oct-30 08:17N 37°35' E 121°53'338471.2
2014-Oct-30 07:33N 32°03' E 120°33'657262795.9
2014-Oct-30 07:33N 23°04' E 113°30'1826810.0
2014-Oct-30 07:32N 23°19' E 116°47'188169604.9
2014-Oct-30 07:32N 22°13' E 113°35'39167112.6
2014-Oct-30 07:31N 25°58' E 119°26'36847370.5
2014-Oct-30 07:31N 32°01' E 120°36'4053445.5
2014-Oct-30 07:24N 38°44' E 121°28'4502474.5
2014-Oct-30 07:13N 31°14' E 121°30'38127456.0
2014-Oct-30 07:12N 37°34' E 121°53'9731508.9
2014-Oct-30 06:33N 23°04' E 113°30'657295485.7
2014-Oct-30 06:33N 32°01' E 120°36'56165094.1
2014-Oct-30 06:33N 23°19' E 116°47'540149572.1
2014-Oct-30 06:32N 31°15' E 121°32'6898823.1
2014-Oct-30 06:28N 22°14' E 113°35'3919254.1
2014-Oct-30 06:25N 25°58' E 119°26'7083106.4
2014-Oct-30 06:12N 37°34' E 121°52'9056772.8
2014-Oct-30 06:04N 22°34' E 120°03'142281.7
2014-Oct-30 05:33N 24°41' E 118°55'448230513.6
2014-Oct-30 05:33N 32°00' E 120°39'56157659.3
2014-Oct-30 05:33N 23°19' E 116°47'182217853.5
2014-Oct-30 05:33N 23°04' E 113°30'36815404.6
2014-Oct-30 05:31N 25°58' E 119°26'70810362.0
2014-Oct-30 05:27N 37°34' E 121°55'46325664.0
2014-Oct-30 05:26N 29°52' E 122°22'45410540.1
2014-Oct-30 05:23N 22°34' E 120°09'53210244.7
2014-Oct-30 05:20N 31°21' E 121°32'69239570.4
2014-Oct-30 05:19N 22°14' E 113°35'693909.1
2014-Oct-30 04:34N 31°23' E 121°30'422189759.1
2014-Oct-30 04:33N 24°46' E 118°48'309222246.9
2014-Oct-30 04:33N 23°04' E 113°30'18221785.2
2014-Oct-30 04:33N 23°19' E 116°47'21511566.9
2014-Oct-30 04:32N 25°58' E 119°26'369221407.0
2014-Oct-30 04:32N 32°00' E 120°43'33810682.1
2014-Oct-30 04:30N 37°34' E 121°51'8438384.5
2014-Oct-30 04:24N 23°52' E 118°14'2755265.3
2014-Oct-30 04:21N 22°14' E 113°35'5063.5
2014-Oct-30 03:33N 23°04' E 113°30'662794643.9
2014-Oct-30 03:33N 32°01' E 120°47'56467679.9
2014-Oct-30 03:33N 23°19' E 116°47'54821690.2
2014-Oct-30 03:31N 31°26' E 121°28'6953861.3
2014-Oct-30 03:20N 22°14' E 113°35'2782964.9
2014-Oct-30 03:15N 23°55' E 118°16'90128.3
2014-Oct-30 02:33N 23°19' E 116°47'18272637.9
2014-Oct-30 02:33N 23°04' E 113°30'6623111.3
2014-Oct-30 02:20N 31°59' E 120°50'662853.0
2014-Oct-30 01:33N 23°04' E 113°30'18221791.4
2014-Oct-30 01:33N 23°19' E 116°47'8965873.1
2014-Oct-30 01:24N 37°32' E 122°00'83312876.1
2014-Oct-30 01:20N 24°00' E 118°22'4914280.1
2014-Oct-30 01:13N 31°59' E 120°26'650977.6
2014-Oct-30 00:33N 23°04' E 113°29'659215820.7
2014-Oct-30 00:33N 31°39' E 121°14'55334946.1
2014-Oct-30 00:32N 23°19' E 116°47'5631325.7
2014-Oct-30 00:06N 31°59' E 120°50'6621202.3
2014-Oct-29 23:33N 23°04' E 113°29'18224284.4
2014-Oct-29 23:33N 23°19' E 116°47'5548040.1
2014-Oct-29 23:29N 31°40' E 121°11'25577.3
2014-Oct-29 23:26N 31°59' E 120°50'491354.9
2014-Oct-29 23:24N 32°05' E 119°53'977.9
2014-Oct-29 23:17N 31°60' E 120°00'638870.3
2014-Oct-29 22:33N 23°04' E 113°29'18325287.5
2014-Oct-29 22:33N 23°18' E 116°47'55774220.2
2014-Oct-29 22:32N 31°47' E 121°02'162105.1
2014-Oct-29 22:32N 31°59' E 120°50'26415.7
2014-Oct-29 22:28N 31°40' E 121°11'6592977.7
2014-Oct-29 22:15N 23°04' E 113°29'617176340.3
2014-Oct-29 22:10N 49°21' W 123°17'540772636.2
2014-Oct-29 22:06N 31°57' E 120°10'6411186.9
2014-Oct-29 21:33N 23°04' E 113°29'18327394.8
2014-Oct-29 21:33N 23°18' E 116°47'60101664306.7
2014-Oct-29 21:33N 49°19' W 123°11'53811614360.1
2014-Oct-29 21:32N 31°43' E 121°08'4468.9
2014-Oct-29 21:32N 31°40' E 121°11'504016.8
2014-Oct-29 21:31N 31°57' E 120°15'30787.5
2014-Oct-29 21:29N 31°59' E 120°50'66220374.9
2014-Oct-29 21:27N 23°04' E 113°29'6606185.2
2014-Oct-29 21:21N 31°43' E 121°08'660836.9
2014-Oct-29 20:33N 23°04' E 113°29'648466542.2
2014-Oct-29 20:33N 31°60' E 120°20'555117535.9
2014-Oct-29 20:33N 23°18' E 116°47'896161303.5
2014-Oct-29 20:33N 37°44' E 121°15'364655757.1
2014-Oct-29 20:33N 31°39' E 121°13'281856.7
2014-Oct-29 20:32N 31°59' E 120°50'25319.2
2014-Oct-29 20:27N 31°40' E 121°11'6594444.3
2014-Oct-29 20:18N 23°04' E 113°29'183245.8
2014-Oct-29 19:33N 23°18' E 116°47'183164415.7
2014-Oct-29 19:33N 23°04' E 113°29'65265248.8
2014-Oct-29 19:33N 32°03' E 120°25'451008.6
2014-Oct-29 19:30N 31°40' E 121°11'3647270.7
2014-Oct-29 19:27N 37°44' E 121°16'9686415.6
2014-Oct-29 19:18N 23°04' E 113°29'0 0.1
2014-Oct-29 18:33N 23°04' E 113°29'18334613.9
2014-Oct-29 18:33N 23°18' E 116°47'5632028573.3
2014-Oct-29 18:33N 31°59' E 120°50'34610843.9
2014-Oct-29 18:31N 37°45' E 121°13'97779898.4
2014-Oct-29 18:30N 22°55' E 113°27'66814483.3
2014-Oct-29 18:28N 31°40' E 121°11'6594141.8
2014-Oct-29 18:18N 23°04' E 113°29'10201367.7
2014-Oct-29 17:33N 37°49' E 123°19'934258697.7
2014-Oct-29 17:33N 23°18' E 116°47'54958169.4
2014-Oct-29 17:32N 31°27' E 121°29'659182586.1
2014-Oct-29 17:32N 23°04' E 113°29'96735533.5
2014-Oct-29 17:31N 37°43' E 121°17'96794110.8
2014-Oct-29 17:30N 23°04' E 113°29'659131846.9
2014-Oct-29 17:30N 31°40' E 121°11'67715828.6
2014-Oct-29 17:27N 22°27' E 113°52'677756.1
2014-Oct-29 16:33N 31°40' E 121°11'55495032.1
2014-Oct-29 16:33N 23°18' E 116°47'183109610.5
2014-Oct-29 16:33N 23°04' E 113°29'968165986.2
2014-Oct-29 16:33N 37°42' E 121°22'9683300.7
2014-Oct-29 16:15N 23°04' E 113°29'1 0.8
2014-Oct-29 15:33N 23°04' E 113°29'18272952.5
2014-Oct-29 15:33N 23°18' E 116°47'89726471.2
2014-Oct-29 15:31N 37°42' E 121°26'970134246.3
2014-Oct-29 15:31N 23°04' E 113°29'65930040.9
2014-Oct-29 15:29N 31°40' E 121°11'46254.6
2014-Oct-29 15:19N 31°58' E 120°21'653866.3
2014-Oct-29 14:33N 22°56' E 113°30'18382186.1
2014-Oct-29 14:33N 23°18' E 116°47'55453937.1
2014-Oct-29 14:33N 31°40' E 121°11'65953937.0
2014-Oct-29 14:32N 23°04' E 113°29'970291056.1
2014-Oct-29 14:32N 37°41' E 121°30'9704415.5
2014-Oct-29 14:18N 23°04' E 113°29'183242.3
2014-Oct-29 13:33N 23°18' E 116°47'897645946.1
2014-Oct-29 13:33N 37°40' E 121°34'998256667.8
2014-Oct-29 13:33N 22°25' E 113°53'678162781.3
2014-Oct-29 13:33N 31°40' E 121°11'421678.1
2014-Oct-29 13:31N 31°56' E 120°25'64746587.3
2014-Oct-29 13:30N 23°04' E 113°29'183192.0
2014-Oct-29 12:33N 23°18' E 116°47'55468771.9
2014-Oct-29 12:33N 31°58' E 120°23'64844842.9
2014-Oct-29 12:32N 23°04' E 113°29'65646287.2
2014-Oct-29 12:31N 31°22' E 121°29'50861.1
2014-Oct-29 12:28N 31°59' E 120°50'343981.3
2014-Oct-29 12:07N 37°39' E 121°40'972233305.3
2014-Oct-29 12:06N 23°04' E 113°29'0 0.0
2014-Oct-29 11:33N 23°04' E 113°29'183131453.9
2014-Oct-29 11:33N 23°18' E 116°47'54859770.7
2014-Oct-29 11:33N 31°24' E 121°31'23471.5
2014-Oct-29 11:30N 31°40' E 121°11'3595236.1
2014-Oct-29 11:26N 37°39' E 121°37'3422714.1
2014-Oct-29 11:18N 31°59' E 120°51'6635498.3
2014-Oct-29 11:11N 23°04' E 113°29'64012007.1
2014-Oct-29 11:08N 31°55' E 120°12'549960.1
2014-Oct-29 10:33N 23°18' E 116°47'564156182.8
2014-Oct-29 10:33N 31°59' E 120°51'293695.4
2014-Oct-29 10:33N 31°57' E 120°17'706272.9
2014-Oct-29 10:32N 31°21' E 121°27'65424026.3
2014-Oct-29 10:30N 23°04' E 113°29'65974158.1
2014-Oct-29 10:30N 31°40' E 121°11'36118028.7
2014-Oct-29 10:29N 37°41' E 121°33'99911493.5
2014-Oct-29 10:23N 22°19' E 114°08'586512.2
2014-Oct-29 10:23N 23°04' E 113°29'651789.3
2014-Oct-29 09:33N 32°01' E 120°25'5582007420.2
2014-Oct-29 09:33N 23°18' E 116°47'89731642.8
2014-Oct-29 09:32N 37°41' E 121°28'36199944.2
2014-Oct-29 09:31N 31°40' E 121°11'251698.3
2014-Oct-29 09:30N 31°59' E 120°51'6635131.8
2014-Oct-29 09:23N 23°04' E 113°29'0 1.5
2014-Oct-29 09:18N 23°04' E 113°29'183244.2
2014-Oct-29 08:33N 23°18' E 116°47'55435634.2
2014-Oct-29 08:32N 31°40' E 121°11'68012116.4
2014-Oct-29 08:29N 22°28' E 113°46'993111741.8
2014-Oct-29 08:29N 37°42' E 121°15'3423161.2
2014-Oct-29 08:22N 32°01' E 120°35'65650278.6
2014-Oct-29 08:21N 23°04' E 113°29'0 4.5
2014-Oct-29 08:20N 23°04' E 113°29'663103752.0
2014-Oct-29 08:19N 31°59' E 120°51'37155.1
2014-Oct-29 08:05N 31°31' E 121°20'6721278.2
2014-Oct-29 07:33N 22°38' E 113°41'176105529.9
2014-Oct-29 07:33N 23°18' E 116°47'554399007.9
2014-Oct-29 07:33N 31°58' E 120°23'6481166082.0
2014-Oct-29 07:33N 23°04' E 113°29'66328748.9
2014-Oct-29 07:32N 31°59' E 120°51'72087.0
2014-Oct-29 07:32N 32°01' E 120°43'3110226.2
2014-Oct-29 07:31N 31°40' E 121°11'42150502.7
2014-Oct-29 07:31N 38°41' E 121°29'4133199.2
2014-Oct-29 07:23N 31°48' E 121°04'66211286.4
2014-Oct-29 07:20N 23°04' E 113°29'183236.5
2014-Oct-29 06:33N 23°18' E 116°47'183109609.5
2014-Oct-29 06:33N 23°04' E 113°29'64444555.9
2014-Oct-29 06:32N 31°57' E 120°17'64689439.1
2014-Oct-29 06:32N 23°04' E 113°25'66416255.7
2014-Oct-29 06:29N 31°48' E 121°04'10283.0
2014-Oct-29 06:27N 31°40' E 121°11'252045.3
2014-Oct-29 06:27N 31°59' E 120°51'6624.7
2014-Oct-29 06:26N 32°01' E 120°44'3717414.3
2014-Oct-29 06:23N 25°57' E 119°23'7723233.6
2014-Oct-29 06:09N 38°42' E 121°27'43145602.3
2014-Oct-29 06:08N 31°31' E 121°21'550946.2
2014-Oct-29 05:33N 23°18' E 116°47'18382207.3
2014-Oct-29 05:33N 23°04' E 113°29'65918685.6
2014-Oct-29 05:31N 31°40' E 121°11'185851.7
2014-Oct-29 05:31N 31°29' E 121°26'271190.2
2014-Oct-29 05:30N 31°48' E 121°04'151538.2
2014-Oct-29 05:29N 31°59' E 120°51'405161875.4
2014-Oct-29 05:29N 38°42' E 121°29'40324581.3
2014-Oct-29 05:28N 32°01' E 120°44'564621.4
2014-Oct-29 04:33N 23°18' E 116°47'56484595.9
2014-Oct-29 04:33N 31°59' E 120°51'664119475.0
2014-Oct-29 04:33N 23°05' E 113°27'65937044.2
2014-Oct-29 04:32N 31°23' E 121°30'843659.0
2014-Oct-29 04:30N 31°59' E 120°01'66031666.1
2014-Oct-29 04:29N 22°19' E 114°09'67629322.4
2014-Oct-29 04:28N 31°40' E 121°11'1056.3
2014-Oct-29 04:17N 31°48' E 121°04'5065.9
2014-Oct-29 03:32N 31°58' E 120°06'501425.3
2014-Oct-29 03:30N 31°48' E 121°04'10374.2
2014-Oct-29 03:28N 31°40' E 121°11'6651197363.8
2014-Oct-29 03:28N 23°03' E 113°20'10294349.9
2014-Oct-29 03:14N 38°43' E 121°29'53810477.3
2014-Oct-29 03:11N 29°46' E 122°22'172274.7
2014-Oct-29 02:33N 31°57' E 120°12'41126889.9
2014-Oct-29 02:32N 38°43' E 121°29'42344735.8
2014-Oct-29 02:32N 31°40' E 121°11'68023103.4
2014-Oct-29 02:30N 22°27' E 113°46'68351213.9
2014-Oct-29 02:29N 31°48' E 121°04'1341247.1
2014-Oct-29 02:23N 29°52' E 122°21'1571687.9
2014-Oct-29 02:17N 31°60' E 120°35'406555.2
2014-Oct-29 01:33N 38°43' E 121°30'41052654.5
2014-Oct-29 01:33N 31°58' E 120°17'12374.7
2014-Oct-29 01:31N 32°01' E 120°31'401087.6
2014-Oct-29 01:29N 31°40' E 121°11'10112.3
2014-Oct-29 01:24N 31°48' E 121°04'6832511.0
2014-Oct-29 01:07N 22°27' E 113°46'193245.6
2014-Oct-29 01:07N 22°20' E 114°05'6771177.6
2014-Oct-29 00:33N 31°40' E 121°11'456191.0
2014-Oct-29 00:32N 32°00' E 120°23'3626150.8
2014-Oct-29 00:32N 31°48' E 121°04'351532.2
2014-Oct-29 00:31N 32°01' E 120°25'405121612.1
2014-Oct-29 00:30N 38°43' E 121°33'105524501.4
2014-Oct-29 00:28N 22°27' E 113°46'10541161.9
2014-Oct-28 23:33N 38°42' E 121°30'403145061.0
2014-Oct-28 23:33N 32°02' E 120°30'9272.0
2014-Oct-28 23:31N 31°58' E 120°21'461527.0
2014-Oct-28 23:30N 31°40' E 121°11'1086.3
2014-Oct-28 23:23N 31°48' E 121°04'6835599.7
2014-Oct-28 23:15N 22°22' E 113°55'680968.8
2014-Oct-28 22:33N 32°00' E 120°38'157526.8
2014-Oct-28 22:33N 31°58' E 120°21'31629142.3
2014-Oct-28 22:33N 36°54' E 122°35'32146245.6
2014-Oct-28 22:32N 31°40' E 121°11'9272.8
2014-Oct-28 22:30N 31°48' E 121°04'3840.5
2014-Oct-28 21:33N 31°58' E 120°21'1633392.3
2014-Oct-28 21:30N 29°53' E 122°22'13326590.3
2014-Oct-28 21:30N 31°48' E 121°04'91090.7
2014-Oct-28 21:30N 31°40' E 121°11'3641888.0
2014-Oct-28 21:18N 37°44' E 121°12'364488.0
2014-Oct-28 20:33N 31°40' E 121°11'36376820.2
2014-Oct-28 20:33N 37°43' E 121°15'34823618.8
2014-Oct-28 20:32N 31°58' E 120°21'381187.7
2014-Oct-28 20:30N 31°48' E 121°04'355366.4
2014-Oct-28 19:32N 37°43' E 121°21'362118635.5
2014-Oct-28 19:32N 31°40' E 121°11'4633297.3
2014-Oct-28 19:32N 31°58' E 120°21'381563.7
2014-Oct-28 19:30N 31°48' E 121°04'68317429.3
2014-Oct-28 19:28N 22°27' E 113°46'6795104.9
2014-Oct-28 19:20N 31°48' E 120°57'5 6.3
2014-Oct-28 18:33N 31°47' E 121°03'35553189.5
2014-Oct-28 18:33N 37°41' E 121°25'3478275.4
2014-Oct-28 18:30N 31°58' E 120°21'3911830.3
2014-Oct-28 18:30N 31°46' E 121°05'7292.2
2014-Oct-28 18:28N 31°40' E 121°11'680116621.7
2014-Oct-28 18:28N 22°27' E 113°46'679741.8
2014-Oct-28 17:33N 31°47' E 120°59'121364.7
2014-Oct-28 17:33N 31°40' E 121°11'36110843.1
2014-Oct-28 17:31N 37°42' E 121°30'34839132.8
2014-Oct-28 17:30N 31°58' E 120°21'6709651.9
2014-Oct-28 17:26N 22°27' E 113°46'16363.2
2014-Oct-28 17:23N 22°42' E 113°41'67219663.7
2014-Oct-28 17:21N 31°41' E 121°11'367452.9
2014-Oct-28 16:33N 37°48' E 121°32'35411917.6
2014-Oct-28 16:31N 31°58' E 120°21'463783.6
2014-Oct-28 16:30N 31°40' E 121°11'18366.2
2014-Oct-28 16:27N 31°51' E 120°54'68031787.1
2014-Oct-28 16:26N 22°27' E 113°46'68111566.4
2014-Oct-28 16:22N 31°41' E 121°11'6734497.9
2014-Oct-28 16:13N 22°44' E 113°34'225.3
2014-Oct-28 16:08N 22°44' E 113°37'6741156.0
2014-Oct-28 15:33N 31°56' E 120°52'2710665.0
2014-Oct-28 15:33N 31°58' E 120°21'4623888.0
2014-Oct-28 15:33N 31°41' E 121°11'674808348.9
2014-Oct-28 15:33N 22°45' E 113°33'993102158.1
2014-Oct-28 15:33N 37°48' E 121°31'3684372.3
2014-Oct-28 15:28N 31°40' E 121°11'67819673.0
2014-Oct-28 15:25N 22°26' E 113°53'288528.2
2014-Oct-28 15:25N 22°45' E 113°30'31939.8
2014-Oct-28 15:23N 22°14' E 113°36'10191182.2
2014-Oct-28 14:32N 37°48' E 121°27'3689206.0
2014-Oct-28 14:29N 31°40' E 121°11'67818066.8
2014-Oct-28 14:27N 22°45' E 113°24'663596832.9
2014-Oct-28 14:27N 31°57' E 120°18'251056.9
2014-Oct-28 14:25N 32°00' E 120°46'16026105.9
2014-Oct-28 14:25N 29°40' E 122°15'1337581.3
2014-Oct-28 14:24N 31°41' E 121°11'1334134.9
2014-Oct-28 14:22N 29°40' E 122°15'1306.6
2014-Oct-28 14:22N 29°41' E 122°15'0 3.9
2014-Oct-28 14:19N 29°41' E 122°15'6325731.2
2014-Oct-28 14:12N 22°45' E 113°24'6761031.3
2014-Oct-28 13:33N 31°60' E 120°40'35012016.4
2014-Oct-28 13:31N 37°48' E 121°22'99281190.7
2014-Oct-28 13:30N 22°48' E 113°19'67969812.8
2014-Oct-28 13:30N 31°41' E 121°11'120.7
2014-Oct-28 13:27N 31°40' E 121°11'67726496.7
2014-Oct-28 13:26N 22°48' E 113°20'11551.6
2014-Oct-28 13:24N 22°54' E 113°30'42119.8
2014-Oct-28 13:03N 22°12' E 113°35'6971392.8
2014-Oct-28 12:33N 32°01' E 120°34'6972509817.6
2014-Oct-28 12:33N 22°12' E 113°35'101798957.3
2014-Oct-28 12:33N 37°31' E 121°57'3525659.6
2014-Oct-28 12:29N 31°40' E 121°11'501285.0
2014-Oct-28 12:26N 31°57' E 120°15'6662396067.5
2014-Oct-28 12:26N 22°46' E 113°13'677761.0
2014-Oct-28 11:33N 32°02' E 120°28'7364.4
2014-Oct-28 11:32N 31°59' E 120°20'47168364.2
2014-Oct-28 11:32N 31°40' E 121°11'69917982.5
2014-Oct-28 11:30N 22°12' E 113°35'7009846.9
2014-Oct-28 11:25N 31°41' E 121°11'3571763.5
2014-Oct-28 11:13N 25°57' E 119°23'357532.8
2014-Oct-28 10:33N 31°42' E 121°09'4275956.8
2014-Oct-28 10:33N 32°01' E 120°24'41607.0
2014-Oct-28 10:33N 32°04' E 120°27'1713173.5
2014-Oct-28 10:30N 29°40' E 122°15'6482334489.0
2014-Oct-28 10:30N 22°12' E 113°35'40713.6
2014-Oct-28 10:26N 22°51' E 113°34'36819794.8
2014-Oct-28 10:25N 25°57' E 119°23'2703075.4
2014-Oct-28 10:20N 29°41' E 122°14'1549581.5
2014-Oct-28 10:19N 31°58' E 120°50'33151.2
2014-Oct-28 10:06N 31°57' E 120°12'2036.3
2014-Oct-28 09:33N 32°03' E 120°34'699251692.5
2014-Oct-28 09:33N 22°11' E 113°35'68698851.7
2014-Oct-28 09:32N 31°57' E 120°17'474197.9
2014-Oct-28 09:32N 31°42' E 121°08'44513.7
2014-Oct-28 09:27N 31°59' E 120°21'34230816.2
2014-Oct-28 09:26N 37°32' E 121°57'33881124.4
2014-Oct-28 09:26N 31°58' E 120°50'3693457.7
2014-Oct-28 09:19N 25°57' E 119°23'363475.5
2014-Oct-28 08:33N 31°57' E 120°18'7560.9
2014-Oct-28 08:33N 32°01' E 120°24'69337789.5
2014-Oct-28 08:32N 22°11' E 113°36'39058473.1
2014-Oct-28 08:31N 25°57' E 119°23'705133585.4
2014-Oct-28 08:31N 37°30' E 121°57'35111908.6
2014-Oct-28 08:29N 31°42' E 121°08'22196.9
2014-Oct-28 08:22N 31°58' E 120°50'43330.7
2014-Oct-28 08:15N 31°29' E 121°27'5783.1
2014-Oct-28 07:33N 32°02' E 120°32'161774.0
2014-Oct-28 07:33N 31°58' E 120°50'227346.8
2014-Oct-28 07:33N 31°42' E 121°08'3151133960.5
2014-Oct-28 07:33N 36°49' E 122°30'31542035.9
2014-Oct-28 07:32N 31°56' E 120°12'74133961.2
2014-Oct-28 07:32N 31°25' E 121°31'69752296.1
2014-Oct-28 07:31N 22°11' E 113°36'39073857.4
2014-Oct-28 07:31N 25°57' E 119°23'3611116.7
2014-Oct-28 07:12N 31°56' E 120°13'2 3.0
2014-Oct-28 06:33N 31°56' E 120°10'62835.7
2014-Oct-28 06:33N 31°57' E 120°04'39965.5
2014-Oct-28 06:31N 31°58' E 120°50'22434.9
2014-Oct-28 06:28N 31°42' E 121°08'3578388.8
2014-Oct-28 06:25N 25°57' E 119°23'3904091.0
2014-Oct-28 06:19N 22°11' E 113°36'11131455.2
2014-Oct-28 05:34N 39°57' E 119°50'48012710.4
2014-Oct-28 05:31N 31°57' E 120°04'578903.8
2014-Oct-28 05:31N 31°42' E 121°08'69914054.5
2014-Oct-28 05:28N 22°11' E 113°36'531955.2
2014-Oct-28 05:26N 23°02' E 113°21'5359.7
2014-Oct-28 04:33N 22°11' E 113°36'546063.9
2014-Oct-28 04:33N 23°04' E 113°26'497.7
2014-Oct-28 04:30N 23°03' E 113°30'1057475673.9
2014-Oct-28 04:30N 39°50' E 119°47'49346690.5
2014-Oct-28 04:29N 31°42' E 121°08'66532789.6
2014-Oct-28 04:28N 22°53' E 113°34'66816258.6
2014-Oct-28 04:26N 31°58' E 120°51'719.4
2014-Oct-28 04:04N 32°02' E 120°44'37226778.8
2014-Oct-28 04:04N 25°57' E 119°23'390767.9
2014-Oct-28 03:33N 22°11' E 113°36'69938702.5
2014-Oct-28 03:32N 31°42' E 121°08'66321114.2
2014-Oct-28 03:30N 23°03' E 113°24'51218.1
2014-Oct-28 03:16N 22°11' E 113°25'702252743.3
2014-Oct-28 03:16N 31°24' E 121°31'3453259.2
2014-Oct-28 03:10N 25°57' E 119°23'3694367.4
2014-Oct-28 03:04N 31°58' E 120°50'2241.7
2014-Oct-28 02:33N 31°42' E 121°08'321002.7
2014-Oct-28 02:31N 31°60' E 120°36'3687008.4
2014-Oct-28 02:28N 25°57' E 119°23'3665727.8
2014-Oct-28 02:24N 23°04' E 113°29'66279445.5
2014-Oct-28 02:23N 31°58' E 120°50'70313113.9
2014-Oct-28 02:20N 22°11' E 113°36'4325224.4
2014-Oct-28 02:15N 26°45' E 119°43'2911670.3
2014-Oct-28 02:05N 31°21' E 121°27'64122.3
2014-Oct-28 01:33N 32°02' E 120°30'6428598.5
2014-Oct-28 01:33N 31°21' E 121°27'69330797.2
2014-Oct-28 01:32N 22°11' E 113°36'8288.3
2014-Oct-28 01:30N 22°10' E 113°27'1141984.7
2014-Oct-28 01:27N 23°04' E 115°15'6109107.0
2014-Oct-28 01:23N 32°01' E 120°42'37016437.8
2014-Oct-28 01:22N 25°57' E 119°23'3892796.2
2014-Oct-28 01:13N 22°13' E 113°35'6901039.7
2014-Oct-28 00:33N 31°60' E 120°23'6710459.9
2014-Oct-28 00:33N 31°21' E 121°27'36810348.5
2014-Oct-28 00:31N 37°29' E 121°58'97014132.3
2014-Oct-28 00:27N 23°04' E 113°29'66255427.5
2014-Oct-28 00:26N 31°58' E 120°50'70935932.7
2014-Oct-28 00:25N 22°09' E 113°28'10210.9
2014-Oct-28 00:22N 22°16' E 113°36'5102.3
2014-Oct-28 00:19N 22°11' E 113°36'3906153.7
2014-Oct-28 00:15N 25°57' E 119°23'3882077.4
2014-Oct-28 00:04N 22°14' E 113°35'389758.6
2014-Oct-27 23:33N 25°58' E 119°24'389100125.2
2014-Oct-27 23:33N 22°14' E 113°35'684189361.0
2014-Oct-27 23:33N 31°57' E 120°17'282205.1
2014-Oct-27 23:32N 31°58' E 120°50'34053162.1
2014-Oct-27 23:32N 37°34' E 121°55'1019111173.7
2014-Oct-27 23:31N 22°11' E 113°36'69336686.9
2014-Oct-27 23:30N 31°21' E 121°27'69632547.5
2014-Oct-27 23:29N 22°10' E 113°31'541488.9
2014-Oct-27 23:27N 23°04' E 113°29'97785790.3
2014-Oct-27 23:26N 37°51' E 121°25'8 9.3
2014-Oct-27 22:34N 37°44' E 121°19'709850922.0
2014-Oct-27 22:33N 26°01' E 119°30'35843014.2
2014-Oct-27 22:33N 31°57' E 120°17'7012623.7
2014-Oct-27 22:33N 31°21' E 121°27'69331579.3
2014-Oct-27 22:31N 22°11' E 113°36'499.9
2014-Oct-27 22:29N 22°10' E 113°31'99642178.3
2014-Oct-27 22:27N 36°49' E 122°29'95373031.2
2014-Oct-27 22:27N 23°03' E 113°21'501228.1
2014-Oct-27 22:24N 22°14' E 113°36'701360281.2
2014-Oct-27 22:24N 31°58' E 120°50'662103621.2
2014-Oct-27 22:24N 23°04' E 113°29'974159302.9
2014-Oct-27 22:23N 37°34' E 121°56'3514810.8
2014-Oct-27 22:19N 31°46' E 120°56'319420.8
2014-Oct-27 21:34N 36°55' E 122°28'31262499.7
2014-Oct-27 21:33N 32°00' E 120°24'652234606.1
2014-Oct-27 21:33N 23°04' E 113°26'6641194943.2
2014-Oct-27 21:33N 31°58' E 120°50'482153.0
2014-Oct-27 21:32N 31°21' E 121°27'693124733.1
2014-Oct-27 21:31N 22°11' E 113°36'101534466.5
2014-Oct-27 21:30N 37°43' E 121°20'10174799.9
2014-Oct-27 21:17N 22°10' E 113°31'69915162.3
2014-Oct-27 21:14N 31°46' E 120°56'35238375.1
2014-Oct-27 21:14N 37°34' E 121°56'97434712.4
2014-Oct-27 21:12N 23°04' E 113°29'6541014.2
2014-Oct-27 20:33N 31°21' E 121°27'38237149.7
2014-Oct-27 20:33N 37°43' E 121°18'34619449.2
2014-Oct-27 20:31N 31°58' E 120°50'1730211.0
2014-Oct-27 20:31N 32°02' E 120°31'69738604.8
2014-Oct-27 20:30N 22°11' E 113°36'5331915.0
2014-Oct-27 20:30N 23°04' E 113°29'0 5.5
2014-Oct-27 20:27N 23°04' E 113°29'97614161.8
2014-Oct-27 20:23N 37°35' E 121°59'102410717.7
2014-Oct-27 20:17N 22°10' E 113°31'6996035.9
2014-Oct-27 20:10N 31°46' E 120°56'1321.8
2014-Oct-27 19:33N 31°58' E 120°50'662158911.3
2014-Oct-27 19:33N 23°04' E 113°29'96779121.2
2014-Oct-27 19:33N 37°44' E 121°15'1013140283.3
2014-Oct-27 19:32N 22°11' E 113°38'69592675.7
2014-Oct-27 19:32N 31°46' E 120°56'3643346.1
2014-Oct-27 19:32N 31°21' E 121°27'37571006.8
2014-Oct-27 19:31N 37°35' E 122°03'97713176.7
2014-Oct-27 19:27N 23°04' E 113°29'54823.3
2014-Oct-27 19:23N 22°10' E 113°31'10181238.7
2014-Oct-27 18:34N 37°44' E 121°20'382196658.5
2014-Oct-27 18:33N 31°21' E 121°27'6865070.8
2014-Oct-27 18:25N 22°15' E 113°43'50744.5
2014-Oct-27 18:21N 23°04' E 113°29'97730061.3
2014-Oct-27 18:19N 37°35' E 122°02'9774911.5
2014-Oct-27 18:07N 23°04' E 113°30'627107468.4
2014-Oct-27 18:07N 29°49' E 122°24'66318087.6
2014-Oct-27 18:05N 22°10' E 113°31'10211897.6
2014-Oct-27 17:33N 37°44' E 121°25'1007906230.1
2014-Oct-27 17:32N 22°20' E 113°44'68162882.1
2014-Oct-27 17:32N 31°21' E 121°27'65424801.2
2014-Oct-27 17:30N 23°04' E 113°29'97552363.8
2014-Oct-27 17:29N 37°33' E 122°00'3487250.2
2014-Oct-27 17:26N 31°58' E 120°05'6594162.0
2014-Oct-27 17:17N 22°28' E 113°52'4257.4
2014-Oct-27 16:33N 23°04' E 113°29'976585538.0
2014-Oct-27 16:33N 37°34' E 122°02'301705.3
2014-Oct-27 16:32N 37°45' E 121°26'384138219.0
2014-Oct-27 16:32N 31°21' E 121°27'676202942.3
2014-Oct-27 16:32N 22°25' E 113°45'82458.8
2014-Oct-27 16:32N 22°25' E 113°54'4581346.9
2014-Oct-27 16:31N 23°04' E 113°30'64010338.9
2014-Oct-27 16:28N 31°57' E 120°10'34108.0
2014-Oct-27 16:09N 31°58' E 120°51'41526.0
2014-Oct-27 16:04N 31°30' E 121°26'66128.6
2014-Oct-27 15:33N 31°57' E 120°15'7151211.5
2014-Oct-27 15:33N 31°21' E 121°27'6236.0
2014-Oct-27 15:32N 31°28' E 121°28'677187414.6
2014-Oct-27 15:31N 22°44' E 113°26'996143426.0
2014-Oct-27 15:31N 37°35' E 122°02'29431.8
2014-Oct-27 15:27N 37°45' E 121°28'102213782.4
2014-Oct-27 15:23N 22°10' E 113°31'542460.2
2014-Oct-27 15:21N 23°04' E 113°29'1 1.8
2014-Oct-27 15:04N 23°04' E 113°30'6541271.7
2014-Oct-27 14:33N 31°21' E 121°27'6941367.7
2014-Oct-27 14:33N 31°59' E 120°20'64719086.1
2014-Oct-27 14:31N 23°04' E 113°30'659124891.2
2014-Oct-27 14:31N 31°25' E 121°32'3802841.4
2014-Oct-27 14:23N 37°45' E 121°33'4766613.6
2014-Oct-27 14:19N 29°51' E 122°22'6273980.8
2014-Oct-27 14:09N 23°04' E 113°29'9741635.5
2014-Oct-27 13:34N 37°45' E 121°30'384460932.4
2014-Oct-27 13:33N 31°21' E 121°31'69125071.6
2014-Oct-27 13:33N 32°01' E 120°24'65154487.7
2014-Oct-27 13:33N 23°04' E 113°29'65428049.8
2014-Oct-27 13:31N 31°21' E 121°27'6727180.6
2014-Oct-27 13:26N 22°26' E 113°51'676753.0
2014-Oct-27 12:32N 32°02' E 120°30'644602.4
2014-Oct-27 12:31N 31°21' E 121°27'384276281.8
2014-Oct-27 12:31N 37°45' E 121°25'3466015.5
2014-Oct-27 12:27N 32°02' E 120°31'691160.4
2014-Oct-27 12:24N 31°15' E 121°30'95500.6
2014-Oct-27 12:13N 32°05' E 119°55'64012806.6
2014-Oct-27 12:10N 23°04' E 113°29'135.1
2014-Oct-27 12:09N 23°04' E 113°30'6561117.1
2014-Oct-27 11:33N 32°01' E 120°35'5942739.1
2014-Oct-27 11:33N 31°21' E 121°27'67343278.7
2014-Oct-27 11:32N 22°23' E 113°54'679174494.6
2014-Oct-27 11:32N 32°01' E 120°33'3462038.4
2014-Oct-27 11:22N 37°45' E 121°18'970249365.8
2014-Oct-27 11:22N 23°04' E 113°29'9743970.7
2014-Oct-27 11:07N 37°34' E 121°57'373648.7
2014-Oct-27 10:32N 31°21' E 121°27'69611134.4
2014-Oct-27 10:29N 22°10' E 113°32'25528.7
2014-Oct-27 10:26N 22°27' E 113°51'99058426.1
2014-Oct-27 10:25N 37°42' E 121°09'9631111.0
2014-Oct-27 09:33N 23°04' E 113°29'655147326.8
2014-Oct-27 09:33N 31°22' E 121°28'67253777.4
2014-Oct-27 09:32N 22°27' E 113°51'25219.5
2014-Oct-27 09:25N 22°10' E 113°32'10214654.4
2014-Oct-27 09:12N 37°33' E 121°56'9731492.6
2014-Oct-27 08:33N 23°04' E 113°29'662148978.9
2014-Oct-27 08:33N 31°58' E 120°50'491878.0
2014-Oct-27 08:31N 31°22' E 121°28'3314560.3
2014-Oct-27 08:27N 36°49' E 122°27'99514735.3
2014-Oct-27 08:23N 22°10' E 113°31'102026038.1
2014-Oct-27 08:20N 37°31' E 121°57'99833578.8
2014-Oct-27 08:19N 22°28' E 113°46'6777911.3
2014-Oct-27 08:13N 31°46' E 120°56'6557891.3
2014-Oct-27 08:08N 23°04' E 113°30'4 6.2
2014-Oct-27 07:32N 23°04' E 113°25'657337816.5
2014-Oct-27 07:32N 31°22' E 121°28'4934930.8
2014-Oct-27 07:31N 31°58' E 120°50'68443964.1
2014-Oct-27 07:31N 22°28' E 113°46'67710195.7
2014-Oct-27 07:27N 31°46' E 120°56'65512484.7
2014-Oct-27 07:23N 23°04' E 113°30'655777.1
2014-Oct-27 06:33N 31°22' E 121°28'6618436.2
2014-Oct-27 06:28N 23°02' E 113°21'51176.1
2014-Oct-27 06:11N 22°11' E 113°25'26372.2
2014-Oct-27 06:07N 22°28' E 113°46'392025.6
2014-Oct-27 06:05N 23°04' E 113°30'6551226.6
2014-Oct-27 05:33N 31°22' E 121°28'228620.5
2014-Oct-27 05:33N 31°39' E 121°13'3101.1
2014-Oct-27 05:32N 31°40' E 121°11'65917704.7
2014-Oct-27 05:29N 23°04' E 113°30'534550.2
2014-Oct-27 05:29N 22°11' E 113°25'699759.9
2014-Oct-27 04:34N 31°22' E 121°28'24803.8
2014-Oct-27 04:32N 31°40' E 121°11'67615305.9
2014-Oct-27 04:29N 22°18' E 114°09'2018226.6
2014-Oct-27 04:29N 22°30' E 113°51'39904.4
2014-Oct-27 04:26N 23°04' E 113°30'6624737.0
2014-Oct-27 04:18N 31°58' E 120°50'4862.4
2014-Oct-27 03:32N 31°22' E 121°28'66837602.9
2014-Oct-27 03:30N 22°31' E 113°52'674186722.2
2014-Oct-27 03:30N 31°40' E 121°11'65947448.0
2014-Oct-27 03:29N 23°04' E 113°30'65911809.4
2014-Oct-27 03:26N 31°29' E 121°27'6653464.5
2014-Oct-27 03:15N 23°02' E 113°22'4 5.1
2014-Oct-27 02:33N 23°04' E 113°25'657181872.3
2014-Oct-27 02:33N 31°22' E 121°28'483629.5
2014-Oct-27 02:32N 31°58' E 120°50'471995.4
2014-Oct-27 02:31N 31°26' E 121°30'65923725.5
2014-Oct-27 02:29N 23°04' E 113°30'404237.0
2014-Oct-27 02:29N 22°29' E 113°51'67636883.9
2014-Oct-27 02:28N 31°40' E 121°11'2425.8
2014-Oct-27 01:32N 31°22' E 121°28'655392744.1
2014-Oct-27 01:32N 23°04' E 113°30'656295302.0
2014-Oct-27 01:32N 31°22' E 121°30'65611252.0
2014-Oct-27 01:29N 23°04' E 113°29'6603843.9
2014-Oct-27 01:18N 31°23' E 121°35'67722355.0
2014-Oct-27 01:16N 22°27' E 113°51'18107.0
2014-Oct-27 01:06N 22°18' E 114°08'6701192.6
2014-Oct-27 00:33N 31°22' E 121°28'863487.7
2014-Oct-27 00:31N 32°02' E 119°58'882587.1
2014-Oct-27 00:29N 31°22' E 121°30'65613736.3
2014-Oct-27 00:26N 23°04' E 113°29'012.3
2014-Oct-27 00:26N 23°04' E 113°29'66221865.3
2014-Oct-27 00:24N 31°58' E 120°50'33113.3
2014-Oct-27 00:07N 31°57' E 120°12'73129.7
2014-Oct-26 23:33N 31°22' E 121°28'9330.9
2014-Oct-26 23:31N 31°13' E 121°30'441359.8
2014-Oct-26 23:29N 31°46' E 120°56'65676136.5
2014-Oct-26 23:29N 23°04' E 113°29'6384469.3
2014-Oct-26 23:20N 32°00' E 119°59'63814632.7
2014-Oct-26 23:17N 23°04' E 113°29'65344382.1
2014-Oct-26 23:16N 31°16' E 121°33'76583.3
2014-Oct-26 23:09N 31°59' E 120°19'4 6.9
2014-Oct-26 22:33N 32°00' E 120°23'678053.9
2014-Oct-26 22:33N 31°22' E 121°28'65511224.2
2014-Oct-26 22:29N 23°04' E 113°29'015.8
2014-Oct-26 22:29N 23°04' E 113°29'65512683.9
2014-Oct-26 22:25N 31°46' E 120°55'1 1.4
2014-Oct-26 21:33N 31°46' E 120°56'3614493.7
2014-Oct-26 21:33N 31°22' E 121°28'631975.1
2014-Oct-26 21:31N 32°02' E 120°32'65513714.3
2014-Oct-26 21:29N 23°04' E 113°29'0 6.0
2014-Oct-26 21:26N 23°04' E 113°29'655740.1
2014-Oct-26 20:33N 31°22' E 121°28'65510116.3
2014-Oct-26 20:29N 23°04' E 113°29'015.5
2014-Oct-26 20:29N 23°04' E 113°29'655712.3
2014-Oct-26 19:33N 31°22' E 121°28'48938.4
2014-Oct-26 19:30N 31°58' E 120°50'15546613.6
2014-Oct-26 19:30N 29°41' E 122°15'61650371.4
2014-Oct-26 19:29N 23°04' E 113°29'016.4
2014-Oct-26 19:29N 23°04' E 113°29'6531620.0
2014-Oct-26 19:04N 31°16' E 121°33'3160.6
2014-Oct-26 18:34N 31°40' E 121°11'24251.7
2014-Oct-26 18:28N 31°22' E 121°28'107895.0
2014-Oct-26 18:21N 29°46' E 122°24'63976683.9
2014-Oct-26 18:20N 22°26' E 113°48'42940.0
2014-Oct-26 18:17N 23°04' E 113°29'0 3.2
2014-Oct-26 18:14N 23°04' E 113°29'660965.5
2014-Oct-26 17:33N 31°39' E 121°14'66012505.4
2014-Oct-26 17:29N 23°04' E 113°29'441286.6
2014-Oct-26 17:27N 22°22' E 113°44'68427045.9
2014-Oct-26 17:26N 31°24' E 121°31'108887.2
2014-Oct-26 17:18N 29°42' E 122°12'6212903.7
2014-Oct-26 17:06N 22°53' E 113°30'62150815.0
2014-Oct-26 17:05N 29°42' E 122°12'62241493.2
2014-Oct-26 17:04N 22°55' E 113°27'3 6.6
2014-Oct-26 16:33N 22°53' E 113°30'374485.3
2014-Oct-26 16:33N 22°17' E 113°40'693113407.9
2014-Oct-26 16:33N 31°43' E 121°08'66012181.8
2014-Oct-26 16:29N 23°04' E 113°29'6164107.8
2014-Oct-26 16:20N 29°41' E 122°16'11156949.7
2014-Oct-26 16:20N 31°24' E 121°31'65810677.3
2014-Oct-26 16:17N 23°04' E 113°29'1115.7
2014-Oct-26 15:33N 22°53' E 113°30'428900.6
2014-Oct-26 15:33N 22°11' E 113°35'647332814.7
2014-Oct-26 15:33N 29°42' E 122°12'1315487.8
2014-Oct-26 15:32N 31°42' E 121°11'2383971.5
2014-Oct-26 15:32N 31°25' E 121°30'10932591.8
2014-Oct-26 15:31N 29°43' E 122°12'1356.8
2014-Oct-26 15:31N 29°42' E 122°13'14013302.8
2014-Oct-26 15:31N 31°46' E 120°56'14084214.2
2014-Oct-26 15:31N 29°42' E 122°12'61518749.6
2014-Oct-26 15:29N 23°04' E 113°29'0 2.6
2014-Oct-26 15:24N 23°04' E 113°29'66050523.0
2014-Oct-26 15:23N 31°29' E 121°27'114653.9
2014-Oct-26 15:12N 29°42' E 122°12'621948.7
2014-Oct-26 14:33N 22°53' E 113°30'66763214.7
2014-Oct-26 14:32N 31°26' E 121°30'8940151.5
2014-Oct-26 14:32N 32°06' E 119°56'557957.5
2014-Oct-26 14:32N 31°46' E 120°56'696313263.0
2014-Oct-26 14:32N 22°12' E 113°34'52377.0
2014-Oct-26 14:23N 23°04' E 113°29'6532414.1
2014-Oct-26 14:07N 31°16' E 121°33'17624.4
2014-Oct-26 14:06N 31°30' E 121°23'15535.7
2014-Oct-26 14:04N 31°42' E 121°11'147287.1
2014-Oct-26 13:33N 29°31' E 122°27'12363094.5
2014-Oct-26 13:33N 31°24' E 121°31'66623984.1
2014-Oct-26 13:31N 22°53' E 113°30'4216703.9
2014-Oct-26 13:31N 22°12' E 113°34'68168138.6
2014-Oct-26 13:31N 32°01' E 119°58'915488.8
2014-Oct-26 13:30N 31°14' E 121°30'65044148.5
2014-Oct-26 13:29N 23°04' E 113°30'65630258.7
2014-Oct-26 13:28N 31°46' E 120°56'65642161.8
2014-Oct-26 13:27N 23°04' E 113°29'66215785.8
2014-Oct-26 13:24N 31°58' E 120°51'242857.3
2014-Oct-26 13:24N 31°42' E 121°11'6173.2
2014-Oct-26 12:34N 31°58' E 120°02'646775573.4
2014-Oct-26 12:33N 22°53' E 113°30'66450859.0
2014-Oct-26 12:33N 31°19' E 121°34'69516784.9
2014-Oct-26 12:30N 22°12' E 113°34'69930705.1
2014-Oct-26 12:29N 31°39' E 121°14'282132.3
2014-Oct-26 12:28N 31°58' E 120°51'245711.7
2014-Oct-26 12:28N 31°42' E 121°11'66020840.7
2014-Oct-26 12:26N 23°04' E 113°30'115.5
2014-Oct-26 12:24N 23°04' E 113°29'6552950.8
2014-Oct-26 12:10N 31°47' E 120°53'1625.5
2014-Oct-26 11:34N 31°42' E 121°11'668601527.8
2014-Oct-26 11:33N 22°53' E 113°30'64613678.4
2014-Oct-26 11:31N 31°58' E 120°02'5718637.5
2014-Oct-26 11:30N 31°43' E 121°07'356226.6
2014-Oct-26 11:30N 31°14' E 121°29'6509323.8
2014-Oct-26 11:26N 23°04' E 113°30'66261094.8
2014-Oct-26 11:25N 31°58' E 120°50'6623718.5
2014-Oct-26 11:15N 23°04' E 113°29'65520502.0
2014-Oct-26 11:13N 31°47' E 120°53'6969900.0
2014-Oct-26 11:08N 22°12' E 113°34'6961193.8
2014-Oct-26 10:33N 31°47' E 120°53'6631193809.3
2014-Oct-26 10:33N 22°53' E 113°30'64613841.4
2014-Oct-26 10:31N 31°58' E 120°02'57926044.6
2014-Oct-26 10:29N 22°33' E 117°40'23328005.2
2014-Oct-26 10:29N 23°04' E 113°30'115.8
2014-Oct-26 10:27N 23°04' E 113°29'66013659.4
2014-Oct-26 10:24N 31°42' E 121°11'70012358.1
2014-Oct-26 10:20N 22°12' E 113°34'70331650.9
2014-Oct-26 10:19N 31°58' E 120°50'7082833.6
2014-Oct-26 10:04N 22°11' E 113°25'23519638.2
2014-Oct-26 10:03N 22°40' E 117°37'228457.2
2014-Oct-26 09:33N 22°53' E 113°30'64613924.2
2014-Oct-26 09:31N 31°58' E 120°02'601361.1
2014-Oct-26 09:28N 31°42' E 121°11'7005409.9
2014-Oct-26 09:20N 22°12' E 113°34'53923.6
2014-Oct-26 09:17N 23°04' E 113°30'115.1
2014-Oct-26 09:15N 23°04' E 113°29'9541364.9
2014-Oct-26 08:33N 36°55' E 122°29'3219889.0
2014-Oct-26 08:31N 31°58' E 120°02'63720114.1
2014-Oct-26 08:29N 23°04' E 113°30'11140.1
2014-Oct-26 08:24N 22°53' E 113°30'1 8.6
2014-Oct-26 08:18N 22°53' E 113°31'487829.1
2014-Oct-26 08:17N 22°18' E 114°07'68223842.2
2014-Oct-26 08:15N 31°58' E 120°50'70314225.8
2014-Oct-26 08:13N 22°12' E 113°34'4263.4
2014-Oct-26 07:33N 22°53' E 113°30'6718940.7
2014-Oct-26 07:29N 31°58' E 120°50'41567.4
2014-Oct-26 07:24N 31°58' E 120°02'63755946.1
2014-Oct-26 07:24N 23°04' E 113°29'6435703.1
2014-Oct-26 07:17N 31°57' E 120°15'1215.9
2014-Oct-26 06:33N 31°58' E 120°02'3198958.6
2014-Oct-26 06:31N 36°53' E 122°26'96054844.5
2014-Oct-26 06:30N 22°53' E 113°30'11498.3
2014-Oct-26 06:29N 23°04' E 113°30'1 7.4
2014-Oct-26 06:24N 23°04' E 113°29'6624074.6
2014-Oct-26 06:14N 31°58' E 120°50'4972.5
2014-Oct-26 05:34N 31°22' E 121°29'664597317.6
2014-Oct-26 05:33N 22°53' E 113°30'661297600.1
2014-Oct-26 05:33N 32°03' E 120°25'65334095.2
2014-Oct-26 05:32N 23°05' E 113°27'952107107.2
2014-Oct-26 05:32N 36°53' E 122°29'30616175.0
2014-Oct-26 05:31N 31°58' E 120°51'4116494.2
2014-Oct-26 05:30N 31°58' E 120°02'63724923.6
2014-Oct-26 05:29N 23°04' E 113°30'1111.7
2014-Oct-26 04:33N 22°53' E 113°30'66562970.9
2014-Oct-26 04:33N 32°04' E 120°29'254517.5
2014-Oct-26 04:32N 31°58' E 120°00'68015298.5
2014-Oct-26 04:30N 22°12' E 113°34'533103.1
2014-Oct-26 04:29N 23°04' E 113°30'10355.7
2014-Oct-26 04:27N 23°03' E 113°19'66462861.8
2014-Oct-26 04:26N 31°60' E 120°39'1028.5
2014-Oct-26 04:06N 31°58' E 120°51'6711207.0
2014-Oct-26 03:33N 22°53' E 113°30'66428102.4
2014-Oct-26 03:31N 32°01' E 120°32'67616220.6
2014-Oct-26 03:29N 22°18' E 114°07'5751498.7
2014-Oct-26 03:29N 23°04' E 113°30'53284.9
2014-Oct-26 03:18N 22°11' E 113°35'9894858.2
2014-Oct-26 03:05N 36°49' E 122°20'303567.9
2014-Oct-26 02:33N 32°01' E 120°25'69429740.8
2014-Oct-26 02:32N 22°11' E 113°35'44346.0
2014-Oct-26 02:24N 22°55' E 113°26'10653.3
2014-Oct-26 02:24N 23°04' E 113°29'66230955.6
2014-Oct-26 02:22N 31°58' E 120°51'6995976.8
2014-Oct-26 02:15N 22°16' E 113°36'684983.7
2014-Oct-26 01:33N 31°58' E 120°20'6885483.1
2014-Oct-26 01:26N 22°11' E 113°35'69567599.9
2014-Oct-26 01:25N 31°22' E 121°30'65622928.5
2014-Oct-26 01:24N 23°04' E 113°29'641763.0
2014-Oct-26 00:33N 31°56' E 120°13'36952.3
2014-Oct-26 00:31N 31°47' E 120°53'391907.5
2014-Oct-26 00:30N 31°21' E 121°27'641745.6
2014-Oct-26 00:28N 32°00' E 120°27'6944785.0
2014-Oct-26 00:19N 22°11' E 113°35'697921.5
2014-Oct-25 23:33N 32°02' E 120°29'65526184.7
2014-Oct-25 23:32N 23°04' E 113°29'6549131.0
2014-Oct-25 23:28N 31°21' E 121°27'69312174.3
2014-Oct-25 23:24N 22°11' E 113°35'698825.8
2014-Oct-25 22:34N 32°01' E 120°35'601026.1
2014-Oct-25 22:30N 31°21' E 121°27'6545569.2
2014-Oct-25 22:23N 23°04' E 113°29'6489717.9
2014-Oct-25 22:19N 32°16' E 119°52'69260726.2
2014-Oct-25 22:18N 22°11' E 113°35'693927.8
2014-Oct-25 21:33N 31°21' E 121°27'565550.9
2014-Oct-25 21:33N 32°00' E 120°41'50114.5
2014-Oct-25 21:06N 32°19' E 119°46'56102.5
2014-Oct-25 20:33N 32°01' E 120°48'512339.3
2014-Oct-25 20:32N 31°21' E 121°27'3811349.6
2014-Oct-25 20:15N 37°42' E 121°09'96313754.6
2014-Oct-25 20:11N 23°04' E 113°29'53563.3
2014-Oct-25 20:05N 22°11' E 113°35'5395.6
2014-Oct-25 19:32N 23°04' E 113°29'63615270.1
2014-Oct-25 19:29N 32°11' E 119°36'1071134.7
2014-Oct-25 19:24N 31°21' E 121°27'3841408.5
2014-Oct-25 19:07N 37°45' E 121°13'101524512.9
2014-Oct-25 19:05N 22°11' E 113°35'5396.7
2014-Oct-25 18:32N 23°04' E 113°29'65420134.5
2014-Oct-25 18:30N 31°21' E 121°27'69340913.2
2014-Oct-25 18:29N 22°11' E 113°35'68116463.0
2014-Oct-25 18:27N 31°58' E 120°04'47394.3
2014-Oct-25 18:19N 31°47' E 120°58'6 8.4
2014-Oct-25 17:33N 31°45' E 121°06'49689.5
2014-Oct-25 17:29N 31°57' E 120°10'756445.7
2014-Oct-25 17:28N 31°21' E 121°27'4417674.6
2014-Oct-25 17:25N 38°43' E 121°29'541649617.1
2014-Oct-25 17:25N 29°43' E 122°12'48979940.9
2014-Oct-25 17:24N 37°49' E 121°14'101842627.2
2014-Oct-25 17:23N 22°11' E 113°35'53212.1
2014-Oct-25 17:08N 23°04' E 113°29'62859487.5
2014-Oct-25 17:07N 32°12' E 119°16'123215.0
2014-Oct-25 16:33N 31°21' E 121°27'7232274.2
2014-Oct-25 16:33N 31°57' E 120°14'5338304.3
2014-Oct-25 16:33N 31°40' E 121°13'66044003.4
2014-Oct-25 16:32N 23°04' E 113°29'53497.9
2014-Oct-25 16:26N 22°11' E 113°35'1073101690.9
2014-Oct-25 16:25N 38°44' E 121°28'4465.7
2014-Oct-25 16:24N 38°43' E 121°33'118137.7
2014-Oct-25 15:33N 36°53' E 122°28'31421709.6
2014-Oct-25 15:32N 31°58' E 120°18'35519957.0
2014-Oct-25 15:31N 37°50' E 121°18'38811270.8
2014-Oct-25 15:29N 31°21' E 121°27'6548823.2
2014-Oct-25 15:24N 23°04' E 113°29'3644027.4
2014-Oct-25 15:19N 22°36' E 120°02'3468097.0
2014-Oct-25 15:16N 22°33' E 113°47'666930.4
2014-Oct-25 14:33N 31°60' E 120°22'6491167768.2
2014-Oct-25 14:33N 23°04' E 113°29'369664715.7
2014-Oct-25 14:33N 22°37' E 120°08'86617407.0
2014-Oct-25 14:30N 36°54' E 122°25'99631180.1
2014-Oct-25 14:29N 22°11' E 113°35'70331264.4
2014-Oct-25 14:27N 31°58' E 120°51'48294.8
2014-Oct-25 14:17N 31°21' E 121°27'6690.3
2014-Oct-25 13:33N 32°02' E 120°26'565508367.6
2014-Oct-25 13:33N 22°37' E 120°16'56296349.9
2014-Oct-25 13:33N 31°58' E 120°51'70397330.0
2014-Oct-25 13:33N 22°11' E 113°36'69340219.6
2014-Oct-25 13:32N 31°21' E 121°27'33615717.3
2014-Oct-25 13:30N 36°54' E 122°25'9516398.8
2014-Oct-25 13:21N 23°04' E 113°29'0 0.1
2014-Oct-25 12:34N 23°04' E 113°29'655471407.1
2014-Oct-25 12:33N 32°02' E 120°30'69652228.8
2014-Oct-25 12:33N 22°11' E 113°36'703253061.6
2014-Oct-25 12:32N 31°58' E 120°51'484133.7
2014-Oct-25 12:32N 31°21' E 121°27'33613595.5
2014-Oct-25 12:30N 36°54' E 122°25'69177.8
2014-Oct-25 12:07N 37°50' E 121°33'352630.3
2014-Oct-25 11:33N 32°01' E 120°35'35243723.7
2014-Oct-25 11:33N 37°50' E 121°30'38816261.9
2014-Oct-25 11:32N 31°21' E 121°27'34039470.8
2014-Oct-25 11:31N 36°50' E 123°11'32423321.6
2014-Oct-25 11:30N 31°47' E 120°53'6556774.9
2014-Oct-25 11:24N 23°04' E 113°29'53434.6
2014-Oct-25 11:17N 22°11' E 113°36'10221394.2
2014-Oct-25 10:33N 37°49' E 121°26'35148600.1
2014-Oct-25 10:33N 32°00' E 120°40'561388.5
2014-Oct-25 10:30N 31°21' E 121°27'3946458.2
2014-Oct-25 10:30N 31°47' E 120°53'69512836.6
2014-Oct-25 10:27N 22°11' E 113°36'541328.3
2014-Oct-25 10:24N 23°04' E 113°29'96719561.5
2014-Oct-25 10:21N 36°49' E 123°11'6318960.2
2014-Oct-25 10:21N 35°58' E 122°26'122153.3
2014-Oct-25 09:33N 37°47' E 121°20'101987320.8
2014-Oct-25 09:33N 22°11' E 113°36'70320744.8
2014-Oct-25 09:31N 31°58' E 120°51'6626239.8
2014-Oct-25 09:24N 23°04' E 113°29'10263989.7
2014-Oct-25 09:09N 38°44' E 121°30'10261732.9
2014-Oct-25 08:33N 23°04' E 113°29'96361893.1
2014-Oct-25 08:32N 37°42' E 121°09'101018641.3
2014-Oct-25 08:29N 22°11' E 113°36'0 0.0
2014-Oct-25 07:27N 22°11' E 113°36'541148.1
2014-Oct-25 07:24N 23°04' E 113°29'6582705.5
2014-Oct-25 07:10N 31°47' E 120°58'6581082.5
2014-Oct-25 06:33N 23°04' E 113°29'66053998.8
2014-Oct-25 06:33N 31°46' E 121°04'7003214.3
2014-Oct-25 06:20N 22°11' E 113°36'5469.6
2014-Oct-25 05:33N 23°04' E 113°29'66059395.7
2014-Oct-25 05:33N 31°40' E 121°13'69926484.2
2014-Oct-25 05:31N 22°11' E 113°37'6853567.6
2014-Oct-25 05:20N 31°57' E 120°16'2936.1
2014-Oct-25 04:31N 31°58' E 120°51'69858426.4
2014-Oct-25 04:30N 22°16' E 113°39'38687.2
2014-Oct-25 04:27N 22°53' E 113°32'47279.9
2014-Oct-25 04:27N 22°54' E 113°28'10241.2
2014-Oct-25 04:25N 23°04' E 113°29'6553034.2
2014-Oct-25 04:12N 31°47' E 120°53'6551028.2
2014-Oct-25 03:33N 23°04' E 113°29'65049816.5
2014-Oct-25 03:33N 31°14' E 121°29'123429.2
2014-Oct-25 03:32N 31°27' E 121°29'66585455.2
2014-Oct-25 03:32N 23°02' E 113°23'467266.2
2014-Oct-25 03:31N 22°19' E 113°42'6943482.3
2014-Oct-25 03:20N 31°58' E 120°51'4962.4
2014-Oct-25 02:33N 31°22' E 121°29'764577.1
2014-Oct-25 02:32N 31°55' E 120°08'36918.3
2014-Oct-25 02:29N 31°58' E 120°51'66211516.2
2014-Oct-25 02:26N 23°04' E 113°29'0 8.7
2014-Oct-25 02:24N 23°04' E 113°29'6562131.1
2014-Oct-25 02:06N 31°20' E 121°33'50215846.2
2014-Oct-25 02:04N 39°05' E 117°44'3 6.0
2014-Oct-25 01:32N 39°04' E 117°48'49615264.0
2014-Oct-25 01:30N 31°21' E 121°27'3179.8
2014-Oct-25 01:29N 31°21' E 121°31'513219.7
2014-Oct-25 01:28N 31°58' E 120°51'66217924.8
2014-Oct-25 01:26N 23°04' E 113°29'0 8.9
2014-Oct-25 01:24N 23°04' E 113°29'94454800.2
2014-Oct-25 01:23N 36°48' E 122°20'3103157.1
2014-Oct-25 01:17N 31°47' E 120°53'655891.4
2014-Oct-25 00:33N 23°04' E 113°29'9851182217.2
2014-Oct-25 00:33N 39°03' E 117°51'49427801.6
2014-Oct-25 00:32N 31°23' E 121°30'6576304.2
2014-Oct-25 00:26N 23°04' E 113°29'659752.4
2014-Oct-24 23:33N 31°25' E 121°30'41057.4
2014-Oct-24 23:33N 31°21' E 121°27'65490610.8
2014-Oct-24 23:33N 23°04' E 113°29'652234572.1
2014-Oct-24 23:33N 31°15' E 121°31'3364825.8
2014-Oct-24 23:28N 36°48' E 122°28'94713971.4
2014-Oct-24 23:24N 23°04' E 113°29'6622321.0
2014-Oct-24 23:07N 31°58' E 120°51'4986.8
2014-Oct-24 22:34N 31°22' E 121°30'334400655.0
2014-Oct-24 22:33N 36°53' E 122°28'30750256.4
2014-Oct-24 22:33N 31°60' E 120°37'65690857.9
2014-Oct-24 22:33N 23°04' E 113°29'66282195.8
2014-Oct-24 22:32N 31°58' E 120°51'66214355.8
2014-Oct-24 22:29N 23°04' E 113°30'96414465.6
2014-Oct-24 22:25N 37°43' E 121°11'3723101.8
2014-Oct-24 22:18N 31°30' E 121°22'5370.8
2014-Oct-24 21:34N 32°01' E 120°32'34634601.2
2014-Oct-24 21:33N 37°45' E 121°17'969436015.3
2014-Oct-24 21:33N 23°04' E 113°29'1 7.3
2014-Oct-24 21:26N 23°04' E 113°30'9515724.0
2014-Oct-24 21:16N 36°54' E 122°25'3167687.5
2014-Oct-24 21:14N 31°47' E 120°54'37228.8
2014-Oct-24 21:04N 31°57' E 120°12'611.7
2014-Oct-24 20:33N 31°58' E 120°19'35032329.7
2014-Oct-24 20:32N 37°45' E 121°19'35239617.3
2014-Oct-24 20:32N 31°57' E 120°16'3139796.7
2014-Oct-24 20:30N 36°50' E 122°29'3153358.8
2014-Oct-24 20:24N 31°59' E 120°00'63855996.2
2014-Oct-24 20:24N 23°04' E 113°29'64511839.5
2014-Oct-24 20:20N 31°58' E 120°17'442159279.3
2014-Oct-24 20:20N 24°40' E 119°02'3197084.4
2014-Oct-24 20:18N 23°04' E 113°30'653887.5
2014-Oct-24 19:33N 32°02' E 120°27'445106842.7
2014-Oct-24 19:33N 24°43' E 119°03'32139861.4
2014-Oct-24 19:33N 23°04' E 113°29'649779161.9
2014-Oct-24 19:33N 31°60' E 120°23'034.6
2014-Oct-24 19:32N 31°60' E 120°22'24180.9
2014-Oct-24 19:24N 31°58' E 120°51'3493839.4
2014-Oct-24 19:18N 37°46' E 121°14'96956268.7
2014-Oct-24 19:17N 23°04' E 113°30'6409372.3
2014-Oct-24 19:13N 31°57' E 120°10'1724.8
2014-Oct-24 18:33N 32°02' E 120°29'65490605.0
2014-Oct-24 18:33N 23°04' E 113°29'643110304.1
2014-Oct-24 18:32N 31°57' E 120°16'175702.9
2014-Oct-24 18:32N 32°01' E 120°36'5170.3
2014-Oct-24 18:30N 32°02' E 120°31'34638903.7
2014-Oct-24 18:30N 37°46' E 121°18'97016866.7
2014-Oct-24 18:26N 23°04' E 113°30'10266689.6
2014-Oct-24 18:17N 38°44' E 121°29'5980.6
2014-Oct-24 17:33N 37°45' E 121°23'34711239.7
2014-Oct-24 17:32N 32°01' E 120°36'40510571.0
2014-Oct-24 17:29N 38°44' E 121°27'102521456.5
2014-Oct-24 17:26N 23°04' E 113°30'1 8.7
2014-Oct-24 17:21N 23°04' E 113°29'4657.9
2014-Oct-24 16:33N 22°25' E 113°54'1000450074.7
2014-Oct-24 16:33N 37°46' E 121°24'972194402.2
2014-Oct-24 16:33N 23°04' E 113°28'6625345.4
2014-Oct-24 16:25N 31°58' E 120°51'4782585.4
2014-Oct-24 16:14N 24°20' E 118°19'87926152.3
2014-Oct-24 16:12N 38°44' E 121°28'102535836.5
2014-Oct-24 16:10N 23°04' E 113°29'110.3
2014-Oct-24 16:06N 23°04' E 113°30'272503.4
2014-Oct-24 15:33N 24°17' E 118°16'82450305.0
2014-Oct-24 15:32N 37°46' E 121°25'97292130.5
2014-Oct-24 15:32N 23°04' E 113°29'6623306.1
2014-Oct-24 15:19N 31°58' E 120°51'662831.2
2014-Oct-24 14:32N 23°04' E 113°29'95820777.4
2014-Oct-24 14:29N 36°36' E 123°15'78764404.5
2014-Oct-24 14:28N 24°14' E 118°10'82832058.0
2014-Oct-24 14:27N 37°44' E 121°31'601418.9
2014-Oct-24 14:24N 38°44' E 121°35'102835927.6
2014-Oct-24 14:22N 23°04' E 113°29'65911041.8
2014-Oct-24 14:19N 31°40' E 121°11'6642573.5
2014-Oct-24 14:03N 23°02' E 113°24'6641306.9
2014-Oct-24 13:33N 31°44' E 121°06'361108392.0
2014-Oct-24 13:33N 37°45' E 121°28'973291941.5
2014-Oct-24 13:32N 23°05' E 113°27'26378927.3
2014-Oct-24 13:32N 24°12' E 118°04'4895317.7
2014-Oct-24 13:27N 31°58' E 120°51'481939.0
2014-Oct-24 13:25N 31°21' E 121°26'67745139.4
2014-Oct-24 13:24N 22°23' E 113°45'4185.8
2014-Oct-24 13:23N 22°20' E 113°42'464466.8
2014-Oct-24 13:22N 23°04' E 113°29'0 0.7
2014-Oct-24 13:11N 23°04' E 113°29'5181.5
2014-Oct-24 12:33N 22°14' E 113°39'10141825440.2
2014-Oct-24 12:33N 37°45' E 121°24'1000719818.5
2014-Oct-24 12:33N 22°27' E 113°47'68541769.5
2014-Oct-24 12:32N 31°58' E 120°51'66295362.8
2014-Oct-24 12:32N 23°04' E 113°29'028.0
2014-Oct-24 12:31N 23°04' E 113°29'65621476.9
2014-Oct-24 12:30N 31°60' E 120°37'30610805.8
2014-Oct-24 12:28N 36°37' E 123°15'79929651.4
2014-Oct-24 12:26N 24°06' E 117°59'491551.2
2014-Oct-24 11:33N 31°60' E 120°21'53888.5
2014-Oct-24 11:33N 32°02' E 120°27'20600.0
2014-Oct-24 11:31N 31°58' E 120°51'30312832.4
2014-Oct-24 11:29N 36°37' E 123°15'9588647.6
2014-Oct-24 11:23N 23°04' E 113°29'030.3
2014-Oct-24 11:22N 23°04' E 113°29'5247126.7
2014-Oct-24 11:22N 22°12' E 113°34'10189094.7
2014-Oct-24 11:16N 37°45' E 121°26'3592554.6
2014-Oct-24 11:07N 31°47' E 120°55'67111847.1
2014-Oct-24 11:04N 22°33' E 113°48'6701321.3
2014-Oct-24 10:33N 32°02' E 120°27'2110710.2
2014-Oct-24 10:33N 31°58' E 120°51'348250695.7
2014-Oct-24 10:33N 37°45' E 121°29'35116603.5
2014-Oct-24 10:32N 31°59' E 120°21'67110875.7
2014-Oct-24 10:28N 22°27' E 113°46'105555842.6
2014-Oct-24 10:27N 38°44' E 121°29'102613193.7
2014-Oct-24 10:22N 23°04' E 113°29'422429.6
2014-Oct-24 10:21N 22°27' E 113°49'421486.4
2014-Oct-24 10:20N 23°04' E 113°29'522191.5
2014-Oct-24 10:18N 22°12' E 113°34'7044614.7
2014-Oct-24 10:09N 31°59' E 120°49'1424.0
2014-Oct-24 09:33N 32°02' E 120°33'211709.3
2014-Oct-24 09:33N 31°56' E 120°09'63947921.4
2014-Oct-24 09:32N 23°04' E 113°29'022.3
2014-Oct-24 09:31N 23°04' E 113°29'66137186.2
2014-Oct-24 09:30N 32°00' E 120°45'703168602.7
2014-Oct-24 09:30N 22°12' E 113°34'206034.1
2014-Oct-24 09:30N 22°27' E 113°49'100281984.9
2014-Oct-24 09:29N 37°45' E 121°33'10026296.8
2014-Oct-24 09:20N 22°27' E 113°46'100219489.5
2014-Oct-24 09:17N 37°34' E 121°57'3412825.7
2014-Oct-24 09:09N 31°58' E 120°51'348568.6
2014-Oct-24 08:33N 37°44' E 121°31'35467128.6
2014-Oct-24 08:32N 31°57' E 120°04'63843325.2
2014-Oct-24 08:31N 23°04' E 113°29'53958.9
2014-Oct-24 08:28N 22°12' E 113°34'6997073.1
2014-Oct-24 08:22N 31°39' E 121°13'680816180.5
2014-Oct-24 08:22N 22°27' E 113°46'100338816.1
2014-Oct-24 08:21N 37°34' E 122°00'3361380.8
2014-Oct-24 08:06N 32°06' E 120°33'68232297.2
2014-Oct-24 08:05N 22°27' E 113°49'6601265.3
2014-Oct-24 07:33N 31°58' E 120°00'35390848.2
2014-Oct-24 07:33N 37°45' E 121°27'100066648.5
2014-Oct-24 07:32N 22°27' E 113°48'412871.9
2014-Oct-24 07:31N 23°04' E 113°29'953190693.6
2014-Oct-24 07:31N 36°56' E 122°28'452378.1
2014-Oct-24 07:30N 37°34' E 121°59'3553460.5
2014-Oct-24 07:24N 31°42' E 121°09'31906.6
2014-Oct-24 07:22N 31°59' E 120°39'3171288.7
2014-Oct-24 07:07N 26°46' E 119°43'314559.3
2014-Oct-24 06:33N 31°59' E 120°21'349209669.6
2014-Oct-24 06:33N 37°45' E 121°22'99969146.0
2014-Oct-24 06:32N 22°27' E 113°47'1002721319.4
2014-Oct-24 06:32N 37°35' E 121°55'515199.3
2014-Oct-24 06:32N 36°52' E 122°28'31712976.5
2014-Oct-24 06:30N 31°58' E 120°03'681204275.0
2014-Oct-24 06:30N 22°12' E 113°34'19179.8
2014-Oct-24 06:24N 22°27' E 113°46'68062757.3
2014-Oct-24 06:23N 31°43' E 121°06'6593171.0
2014-Oct-24 06:10N 23°04' E 113°29'658395064.7
2014-Oct-24 06:10N 32°00' E 120°40'1625.9
2014-Oct-24 05:33N 31°59' E 120°21'64813879.1
2014-Oct-24 05:31N 23°04' E 113°29'97269966.0
2014-Oct-24 05:30N 37°31' E 121°56'99958012.9
2014-Oct-24 05:29N 22°27' E 113°47'99855272.9
2014-Oct-24 05:28N 37°45' E 121°18'36210098.3
2014-Oct-24 05:26N 31°43' E 121°06'28755.2
2014-Oct-24 05:23N 32°00' E 120°40'34415.3
2014-Oct-24 05:18N 32°01' E 119°59'3111967.2
2014-Oct-24 05:09N 36°49' E 122°20'3023670.7
2014-Oct-24 05:04N 32°00' E 120°34'6971365.2
2014-Oct-24 04:33N 22°12' E 113°34'986147863.8
2014-Oct-24 04:33N 36°45' E 122°20'3026116.3
2014-Oct-24 04:30N 31°59' E 120°21'690828533.1
2014-Oct-24 04:30N 22°10' E 113°36'70422229.7
2014-Oct-24 04:28N 31°58' E 120°51'68413681.8
2014-Oct-24 04:25N 22°27' E 113°46'68124265.1
2014-Oct-24 04:23N 32°00' E 120°40'65826047.6
2014-Oct-24 04:22N 23°04' E 113°29'6594352.0
2014-Oct-24 04:13N 31°43' E 121°06'65917569.5
2014-Oct-24 04:10N 23°04' E 113°29'971184041.8
2014-Oct-24 04:10N 37°45' E 121°25'346564.1
2014-Oct-24 03:33N 32°00' E 120°40'34618067.5
2014-Oct-24 03:32N 37°45' E 121°22'348208687.9
2014-Oct-24 03:32N 31°58' E 120°51'66262729.0
2014-Oct-24 03:31N 23°04' E 113°29'65915011.9
2014-Oct-24 03:29N 31°43' E 121°06'33866.9
2014-Oct-24 03:26N 32°01' E 120°32'675142993.6
2014-Oct-24 03:26N 22°19' E 114°08'32242.7
2014-Oct-24 03:18N 22°12' E 113°34'62304.0
2014-Oct-24 03:18N 22°16' E 113°39'6843825.5
2014-Oct-24 03:07N 31°59' E 120°21'64828089.7
2014-Oct-24 03:06N 23°04' E 113°29'6521198.8
2014-Oct-24 02:33N 32°02' E 120°26'5638.4
2014-Oct-24 02:33N 31°59' E 120°21'161548.2
2014-Oct-24 02:32N 32°00' E 120°40'7002520342.0
2014-Oct-24 02:32N 22°11' E 113°35'533621.1
2014-Oct-24 02:31N 23°04' E 113°29'5319114.9
2014-Oct-24 02:31N 22°12' E 113°35'10157096.8
2014-Oct-24 02:23N 37°44' E 121°17'36120968.8
2014-Oct-24 02:22N 31°43' E 121°06'2075.3
2014-Oct-24 02:06N 31°58' E 120°51'2647.9
2014-Oct-24 01:34N 31°60' E 120°20'30528109.8
2014-Oct-24 01:33N 36°48' E 122°20'98842357.0
2014-Oct-24 01:31N 22°12' E 113°35'5347776.4
2014-Oct-24 01:31N 23°04' E 113°29'96477116.3
2014-Oct-24 01:31N 37°42' E 121°10'3438689.5
2014-Oct-24 01:28N 32°00' E 120°40'341569.1
2014-Oct-24 01:27N 31°60' E 119°60'68111141.6
2014-Oct-24 01:23N 22°12' E 113°34'70320419.9
2014-Oct-24 01:21N 31°58' E 120°51'28156.6
2014-Oct-24 01:10N 31°57' E 120°18'3 5.1
2014-Oct-24 00:33N 31°55' E 120°15'61311.7
2014-Oct-24 00:33N 31°60' E 120°20'151617.9
2014-Oct-24 00:32N 31°58' E 120°03'54861597.9
2014-Oct-24 00:32N 23°17' E 116°53'56165103.2
2014-Oct-24 00:31N 32°00' E 120°40'70017750.0
2014-Oct-24 00:29N 22°12' E 113°35'6982479.5
2014-Oct-24 00:12N 31°60' E 120°36'3437391.6
2014-Oct-24 00:09N 37°42' E 121°09'402461.6
2014-Oct-24 00:08N 37°31' E 121°57'37012103.1
2014-Oct-24 00:06N 31°21' E 121°27'1 1.8
2014-Oct-23 23:33N 31°22' E 121°28'37333607.4
2014-Oct-23 23:33N 37°35' E 121°57'97542271.3
2014-Oct-23 23:31N 23°04' E 113°29'5347739.2
2014-Oct-23 23:31N 22°12' E 113°35'68463164.8
2014-Oct-23 23:31N 31°56' E 120°15'151564.5
2014-Oct-23 23:30N 32°01' E 120°31'8264.4
2014-Oct-23 23:28N 32°00' E 120°40'34219860.0
2014-Oct-23 23:27N 37°42' E 121°09'9633980.3
2014-Oct-23 23:13N 23°04' E 113°29'6407914.4
2014-Oct-23 23:08N 31°57' E 120°08'68719628.9
2014-Oct-23 23:06N 22°11' E 113°25'7021302.1
2014-Oct-23 22:33N 31°24' E 121°31'3912745.3
2014-Oct-23 22:33N 31°47' E 120°54'352117.8
2014-Oct-23 22:32N 31°56' E 120°15'92127.1
2014-Oct-23 22:32N 32°00' E 120°24'121907.6
2014-Oct-23 22:32N 31°57' E 120°11'25632.6
2014-Oct-23 22:29N 32°00' E 120°40'70026814.0
2014-Oct-23 22:28N 22°12' E 113°35'69033571.6
2014-Oct-23 22:26N 31°60' E 120°20'34512307.0
2014-Oct-23 22:25N 37°36' E 121°57'9761756255.2
2014-Oct-23 22:25N 23°04' E 113°29'011.6
2014-Oct-23 22:22N 23°04' E 113°29'12453.4
2014-Oct-23 22:21N 22°53' E 113°34'43172.0
2014-Oct-23 22:06N 22°11' E 113°25'1019193141.2
2014-Oct-23 22:06N 37°45' E 121°17'3259.7
2014-Oct-23 21:33N 37°34' E 121°56'34783388.6
2014-Oct-23 21:33N 31°57' E 120°16'294.0
2014-Oct-23 21:32N 31°57' E 120°18'3953.8
2014-Oct-23 21:32N 31°56' E 120°14'365387.1
2014-Oct-23 21:31N 31°47' E 120°54'35953855.6
2014-Oct-23 21:31N 37°45' E 121°19'37736673.3
2014-Oct-23 21:30N 31°28' E 121°26'69829212.7
2014-Oct-23 21:29N 22°12' E 113°35'70012299.2
2014-Oct-23 21:26N 31°40' E 121°14'501875.9
2014-Oct-23 21:24N 31°60' E 120°20'64824039.1
2014-Oct-23 21:22N 23°04' E 113°29'65957838.1
2014-Oct-23 21:22N 31°60' E 120°41'70530930.6
2014-Oct-23 21:20N 22°12' E 113°24'7044211.7
2014-Oct-23 21:10N 32°00' E 120°40'65976471.5
2014-Oct-23 21:10N 23°04' E 113°29'6481071.8
2014-Oct-23 20:33N 31°59' E 120°21'725561.8
2014-Oct-23 20:33N 31°56' E 120°14'366463.0
2014-Oct-23 20:33N 31°47' E 120°54'323478.2
2014-Oct-23 20:33N 31°60' E 120°20'173381.9
2014-Oct-23 20:32N 32°00' E 120°40'31452.6
2014-Oct-23 20:32N 31°60' E 120°36'348178773.9
2014-Oct-23 20:32N 37°45' E 121°23'101818893.9
2014-Oct-23 20:29N 22°12' E 113°35'7001260715.9
2014-Oct-23 20:29N 31°40' E 121°14'996.4
2014-Oct-23 20:23N 31°33' E 121°20'6589674.3
2014-Oct-23 20:19N 23°04' E 113°29'974103160.9
2014-Oct-23 20:19N 37°34' E 121°57'9746472.3
2014-Oct-23 20:10N 23°04' E 113°29'6551082.9
2014-Oct-23 19:33N 32°01' E 120°32'6578.1
2014-Oct-23 19:33N 32°03' E 120°26'34118309.3
2014-Oct-23 19:32N 37°35' E 122°00'337855.9
2014-Oct-23 19:32N 37°45' E 121°21'971349436.4
2014-Oct-23 19:31N 23°04' E 113°29'5331833.3
2014-Oct-23 19:31N 22°12' E 113°35'696227766.9
2014-Oct-23 19:31N 31°47' E 120°54'3618428.9
2014-Oct-23 19:31N 31°56' E 120°14'6426210.7
2014-Oct-23 19:25N 23°04' E 113°29'10638.0
2014-Oct-23 19:24N 22°57' E 113°38'6606108.9
2014-Oct-23 19:17N 32°00' E 120°40'2330.9
2014-Oct-23 18:33N 31°56' E 120°14'5262545.8
2014-Oct-23 18:33N 31°40' E 121°12'35986072.1
2014-Oct-23 18:33N 37°36' E 122°04'382972.6
2014-Oct-23 18:32N 37°46' E 121°17'34428792.8
2014-Oct-23 18:31N 32°04' E 120°32'6992516971.6
2014-Oct-23 18:31N 22°12' E 113°35'696192713.4
2014-Oct-23 18:31N 31°47' E 120°54'521475.0
2014-Oct-23 18:29N 32°03' E 119°56'68219636.8
2014-Oct-23 18:27N 22°11' E 113°35'531485.8
2014-Oct-23 18:25N 23°04' E 113°29'010.5
2014-Oct-23 18:22N 23°04' E 113°29'102810946.5
2014-Oct-23 18:17N 38°46' E 121°29'414570.7
2014-Oct-23 17:33N 31°56' E 120°14'4943934.1
2014-Oct-23 17:33N 31°42' E 121°09'35664087.8
2014-Oct-23 17:33N 37°35' E 121°59'102241820.5
2014-Oct-23 17:31N 22°12' E 113°35'681204312.5
2014-Oct-23 17:31N 31°60' E 119°60'35218922.0
2014-Oct-23 17:30N 37°46' E 121°22'101891622.6
2014-Oct-23 17:29N 22°11' E 113°35'69018820.4
2014-Oct-23 17:27N 31°60' E 120°20'64816422.9
2014-Oct-23 17:25N 23°04' E 113°29'011.2
2014-Oct-23 17:22N 23°04' E 113°29'65535197.8
2014-Oct-23 17:21N 31°47' E 120°54'18100.0
2014-Oct-23 17:10N 32°00' E 120°40'1727.5
2014-Oct-23 16:33N 31°60' E 120°20'136837.9
2014-Oct-23 16:33N 31°57' E 120°05'460118334.7
2014-Oct-23 16:33N 24°23' E 118°40'8152933503.5
2014-Oct-23 16:33N 37°45' E 121°25'35479674.5
2014-Oct-23 16:33N 31°56' E 120°14'363676.3
2014-Oct-23 16:32N 31°47' E 120°54'13750.3
2014-Oct-23 16:31N 31°42' E 121°08'6594510.3
2014-Oct-23 16:22N 23°04' E 113°29'044.3
2014-Oct-23 16:22N 23°04' E 113°29'66213103.6
2014-Oct-23 16:19N 32°01' E 120°47'637.5
2014-Oct-23 16:09N 32°00' E 120°40'70020660.4
2014-Oct-23 16:07N 22°12' E 113°35'461311.1
2014-Oct-23 16:05N 22°57' E 113°37'6601242.0
2014-Oct-23 15:33N 32°00' E 120°40'172898.9
2014-Oct-23 15:33N 31°60' E 120°20'64826199.7
2014-Oct-23 15:31N 23°04' E 113°29'659148275.9
2014-Oct-23 15:31N 31°42' E 121°08'493017.3
2014-Oct-23 15:30N 31°56' E 120°14'6842463105.4
2014-Oct-23 15:30N 22°11' E 113°35'1018282010.9
2014-Oct-23 15:30N 37°44' E 121°26'101827155.6
2014-Oct-23 15:28N 22°12' E 113°35'531061.2
2014-Oct-23 15:25N 23°04' E 113°29'65511675.1
2014-Oct-23 15:21N 31°47' E 120°54'24132.8
2014-Oct-23 15:11N 32°01' E 120°32'4073802.0
2014-Oct-23 15:04N 38°44' E 121°35'406791.0
2014-Oct-23 14:33N 32°02' E 120°30'263560.0
2014-Oct-23 14:33N 31°47' E 120°54'114759.6
2014-Oct-23 14:33N 31°44' E 121°06'466198.3
2014-Oct-23 14:32N 31°56' E 120°14'35357821.6
2014-Oct-23 14:32N 37°45' E 121°26'97287436.9
2014-Oct-23 14:31N 23°04' E 113°29'64833311.3
2014-Oct-23 14:30N 31°60' E 120°20'3448783.8
2014-Oct-23 14:28N 37°34' E 122°00'102128940.6
2014-Oct-23 14:26N 22°11' E 113°35'7005649.4
2014-Oct-23 14:18N 32°00' E 120°40'700168019.1
2014-Oct-23 14:18N 22°11' E 113°35'53603.2
2014-Oct-23 14:13N 23°04' E 113°29'6624498.4
2014-Oct-23 14:04N 31°60' E 120°48'346681.6
2014-Oct-23 13:34N 37°45' E 121°21'346124487.8
2014-Oct-23 13:33N 32°00' E 120°40'223219.4
2014-Oct-23 13:33N 31°46' E 121°01'371456.2
2014-Oct-23 13:31N 31°60' E 120°20'2383.5
2014-Oct-23 13:31N 31°60' E 120°23'69125398.7
2014-Oct-23 13:29N 22°11' E 113°35'1023111586.0
2014-Oct-23 13:29N 37°35' E 122°03'35318941.3
2014-Oct-23 13:28N 31°47' E 120°54'392481.3
2014-Oct-23 13:27N 31°56' E 120°09'41433906.7
2014-Oct-23 13:26N 38°44' E 121°36'1076184425.3
2014-Oct-23 13:26N 22°11' E 113°35'533407.9
2014-Oct-23 13:25N 23°04' E 113°29'0 4.6
2014-Oct-23 13:19N 23°04' E 113°29'11103.6
2014-Oct-23 13:13N 22°56' E 113°36'66361234.8
2014-Oct-23 13:12N 31°40' E 121°14'66869.6
2014-Oct-23 13:08N 31°60' E 119°60'1425.1
2014-Oct-23 12:33N 31°57' E 120°16'4444.1
2014-Oct-23 12:33N 31°60' E 120°20'162578.4
2014-Oct-23 12:33N 31°59' E 120°02'68147113.3
2014-Oct-23 12:32N 22°11' E 113°35'1017366252.0
2014-Oct-23 12:31N 37°44' E 121°24'351264.2
2014-Oct-23 12:30N 37°35' E 122°06'10259509.5
2014-Oct-23 12:23N 22°11' E 113°35'107619170.9
2014-Oct-23 12:20N 38°44' E 121°35'104066862.6
2014-Oct-23 12:19N 22°49' E 113°36'6685515.7
2014-Oct-23 12:12N 31°40' E 121°12'364570.7
2014-Oct-23 11:33N 37°44' E 121°27'359322758.3
2014-Oct-23 11:33N 31°47' E 120°54'4225207.0
2014-Oct-23 11:33N 31°58' E 120°07'5412888.7
2014-Oct-23 11:33N 31°43' E 121°07'29462.6
2014-Oct-23 11:29N 32°00' E 120°40'4068759.3
2014-Oct-23 11:27N 38°44' E 121°35'54731257.0
2014-Oct-23 11:25N 29°38' E 122°16'61552729.3
2014-Oct-23 11:25N 23°04' E 113°29'615158111.7
2014-Oct-23 11:25N 29°38' E 122°16'64735310.9
2014-Oct-23 11:23N 22°11' E 113°35'0 4.3
2014-Oct-23 11:18N 22°11' E 113°35'6907304.4
2014-Oct-23 11:12N 31°60' E 120°20'3249.1
2014-Oct-23 10:33N 31°47' E 120°54'3722477.9
2014-Oct-23 10:33N 31°57' E 120°12'241553.0
2014-Oct-23 10:32N 32°00' E 120°40'34569022.3
2014-Oct-23 10:32N 37°44' E 121°24'34840404.4
2014-Oct-23 10:31N 31°60' E 120°20'69026141.8
2014-Oct-23 10:30N 22°11' E 113°35'103125409.9
2014-Oct-23 10:27N 37°39' E 122°13'98521887.0
2014-Oct-23 10:25N 23°04' E 113°29'531313.1
2014-Oct-23 10:22N 22°11' E 113°35'11172.4
2014-Oct-23 10:18N 22°14' E 113°23'107610938.2
2014-Oct-23 10:13N 38°44' E 121°31'411628.8
2014-Oct-23 09:33N 31°58' E 120°17'35078689.4
2014-Oct-23 09:33N 37°43' E 121°28'35780333.5
2014-Oct-23 09:33N 31°47' E 120°54'321093.2
2014-Oct-23 09:31N 31°60' E 120°20'40839735.8
2014-Oct-23 09:30N 38°44' E 121°29'1073110403.8
2014-Oct-23 09:30N 22°11' E 113°35'70028311.3
2014-Oct-23 09:28N 32°00' E 120°40'1 9.2
2014-Oct-23 09:24N 31°60' E 120°40'7005392.4
2014-Oct-23 09:16N 22°11' E 113°35'53485.0
2014-Oct-23 09:10N 23°04' E 113°29'6551083.4
2014-Oct-23 08:34N 31°47' E 120°54'323280.0
2014-Oct-23 08:33N 31°60' E 120°20'347416570.5
2014-Oct-23 08:33N 37°42' E 121°29'34588686.5
2014-Oct-23 08:33N 32°00' E 120°35'69723463.5
2014-Oct-23 08:31N 22°11' E 113°35'103361990.2
2014-Oct-23 08:30N 37°40' E 122°17'1033371894.1
2014-Oct-23 08:30N 22°11' E 113°35'53651.1
2014-Oct-23 08:25N 23°04' E 113°29'6583435.7
2014-Oct-23 08:13N 32°00' E 120°40'68155758.7
2014-Oct-23 08:13N 22°27' E 113°46'9991529.4
2014-Oct-23 07:33N 37°41' E 121°32'34394986.0
2014-Oct-23 07:33N 32°02' E 120°30'9194.7
2014-Oct-23 07:30N 31°60' E 120°20'65293861.3
2014-Oct-23 07:30N 23°02' E 113°24'66328736.6
2014-Oct-23 07:29N 32°00' E 120°40'7004293.5
2014-Oct-23 07:19N 22°11' E 113°35'0 5.4
2014-Oct-23 07:15N 22°11' E 113°35'103128336.4
2014-Oct-23 07:12N 37°39' E 122°15'34517514.7
2014-Oct-23 07:11N 32°04' E 120°32'342541.7
2014-Oct-23 06:33N 37°42' E 121°35'344137768.4
2014-Oct-23 06:33N 32°02' E 120°30'34728415.9
2014-Oct-23 06:32N 37°39' E 122°12'103018352.2
2014-Oct-23 06:29N 22°11' E 113°35'70019246.1
2014-Oct-23 06:27N 32°04' E 120°35'66485408.1
2014-Oct-23 06:26N 23°03' E 113°20'531335.6
2014-Oct-23 06:24N 22°11' E 113°35'0 0.5
2014-Oct-23 05:33N 22°11' E 113°36'69062083.4
2014-Oct-23 05:32N 31°60' E 120°20'35036019.2
2014-Oct-23 05:32N 37°44' E 121°36'102231436.1
2014-Oct-23 05:30N 22°11' E 113°35'1027154009.1
2014-Oct-23 05:30N 37°37' E 122°08'34510515.9
2014-Oct-23 05:28N 32°02' E 120°30'66034424.8
2014-Oct-23 05:26N 23°03' E 113°20'653740.6
2014-Oct-23 04:33N 31°60' E 120°20'6959.2
2014-Oct-23 04:33N 32°02' E 120°26'34665605.9
2014-Oct-23 04:33N 37°44' E 121°32'1017130742.2
2014-Oct-23 04:32N 22°13' E 113°40'6929512.1
2014-Oct-23 04:28N 31°47' E 120°54'3561859.4
2014-Oct-23 04:17N 37°37' E 122°09'98628403.8
2014-Oct-23 04:14N 23°03' E 113°20'531240.8
2014-Oct-23 04:12N 22°11' E 113°35'103610449.2
2014-Oct-23 04:06N 39°05' E 117°44'194356.9
2014-Oct-23 03:33N 37°44' E 121°28'349104577.0
2014-Oct-23 03:33N 31°60' E 120°20'1733.8
2014-Oct-23 03:33N 31°58' E 120°20'3118686.6
2014-Oct-23 03:33N 31°47' E 120°54'6962506440.2
2014-Oct-23 03:33N 22°10' E 113°36'1037162313.6
2014-Oct-23 03:33N 39°04' E 117°47'221797125.9
2014-Oct-23 03:33N 37°35' E 122°06'34224648.2
2014-Oct-23 03:32N 32°00' E 120°40'28348.7
2014-Oct-23 03:27N 31°44' E 121°07'66674925.9
2014-Oct-23 03:26N 23°03' E 113°20'6593925.7
2014-Oct-23 03:16N 31°51' E 120°43'2130.0
2014-Oct-23 02:33N 31°60' E 120°20'348313145.5
2014-Oct-23 02:33N 37°44' E 121°23'3223018.8
2014-Oct-23 02:33N 37°34' E 122°01'35235160.8
2014-Oct-23 02:33N 31°47' E 120°54'69847393.9
2014-Oct-23 02:32N 22°11' E 113°32'103727853.8
2014-Oct-23 02:30N 39°03' E 117°52'9889668.2
2014-Oct-23 02:23N 23°03' E 113°20'828.0
2014-Oct-23 02:06N 23°04' E 113°29'432307.5
2014-Oct-23 02:05N 22°24' E 113°44'6751296.7
2014-Oct-23 01:33N 31°60' E 120°20'344176664.9
2014-Oct-23 01:33N 37°33' E 121°60'35174285.0
2014-Oct-23 01:33N 31°47' E 120°54'678152661.6
2014-Oct-23 01:33N 22°26' E 113°45'102050988.7
2014-Oct-23 01:32N 39°04' E 117°50'1778953.1
2014-Oct-23 01:30N 37°42' E 121°10'101229617.6
2014-Oct-23 01:28N 22°11' E 113°32'44558.0
2014-Oct-23 01:24N 22°53' E 113°18'15153.1
2014-Oct-23 01:18N 23°04' E 113°29'97913827.6
2014-Oct-23 01:14N 37°34' E 122°11'353523.6
2014-Oct-23 00:33N 31°47' E 120°54'35123376.3
2014-Oct-23 00:32N 37°31' E 122°15'34042157.9
2014-Oct-23 00:32N 32°00' E 120°40'34067959.3
2014-Oct-23 00:31N 37°34' E 121°56'1002106053.4
2014-Oct-23 00:31N 22°27' E 113°46'341794.8
2014-Oct-23 00:30N 22°55' E 113°25'442010.3
2014-Oct-23 00:28N 22°11' E 113°32'69217919.3
2014-Oct-23 00:26N 31°60' E 120°20'6483449.2
2014-Oct-23 00:15N 23°04' E 113°29'43257.3
2014-Oct-23 00:05N 22°27' E 113°53'6741294.0
2014-Oct-22 23:33N 31°47' E 120°54'663341032.3
2014-Oct-22 23:33N 22°53' E 113°31'65684356.8
2014-Oct-22 23:33N 31°60' E 120°20'64812402.5
2014-Oct-22 23:30N 23°04' E 113°29'6583269.3
2014-Oct-22 23:18N 32°00' E 120°40'6653996.7
2014-Oct-22 23:08N 23°03' E 113°18'66719362.7
2014-Oct-22 23:06N 31°27' E 121°29'3564.5
2014-Oct-22 22:33N 31°47' E 120°54'358128724.9
2014-Oct-22 22:33N 37°44' E 121°14'34518794.2
2014-Oct-22 22:32N 32°00' E 120°40'171110.1
2014-Oct-22 22:31N 31°60' E 120°20'4463319.1
2014-Oct-22 22:23N 24°38' E 119°07'3233919.0
2014-Oct-22 22:18N 23°04' E 113°29'6598568.1
2014-Oct-22 22:13N 31°25' E 121°32'70105.3
2014-Oct-22 21:33N 31°60' E 120°20'35112043.0
2014-Oct-22 21:31N 37°47' E 121°23'592877.3
2014-Oct-22 21:30N 38°46' E 121°27'1027184897.9
2014-Oct-22 21:30N 23°04' E 113°29'97525621.7
2014-Oct-22 21:27N 37°34' E 121°60'35297354.1
2014-Oct-22 21:27N 31°47' E 120°54'1895.4
2014-Oct-22 21:16N 32°00' E 120°40'1723.8
2014-Oct-22 20:33N 31°60' E 120°20'352140604.4
2014-Oct-22 20:33N 37°47' E 121°26'36116675.9
2014-Oct-22 20:31N 31°47' E 120°54'3542369.9
2014-Oct-22 20:23N 37°35' E 122°05'97812621.4
2014-Oct-22 20:18N 23°04' E 113°29'65818093.5
2014-Oct-22 20:16N 32°00' E 120°40'1825.5
2014-Oct-22 19:33N 31°47' E 120°54'36281417.9
2014-Oct-22 19:32N 37°48' E 121°23'372414.5
2014-Oct-22 19:31N 37°37' E 122°08'3447651.4
2014-Oct-22 19:29N 32°00' E 120°40'65820611.0
2014-Oct-22 19:27N 23°04' E 113°29'10254928.9
2014-Oct-22 19:14N 38°43' E 121°31'2 2.4
2014-Oct-22 18:33N 38°43' E 121°29'102517483.3
2014-Oct-22 18:30N 23°04' E 113°29'658592561.2
2014-Oct-22 18:30N 32°00' E 120°40'67189459.1
2014-Oct-22 18:29N 22°42' E 113°40'995111949.9
2014-Oct-22 18:29N 37°36' E 122°07'324659.7
2014-Oct-22 18:28N 37°46' E 121°28'5761.9
2014-Oct-22 17:33N 38°43' E 121°28'562902.8
2014-Oct-22 17:32N 37°46' E 121°28'30903.3
2014-Oct-22 17:30N 37°35' E 122°03'977106553.6
2014-Oct-22 17:30N 23°04' E 113°29'20422.8
2014-Oct-22 17:27N 22°45' E 113°33'6695549.0
2014-Oct-22 17:20N 31°47' E 120°54'362467.4
2014-Oct-22 16:33N 37°47' E 121°25'9931787481.9
2014-Oct-22 16:33N 22°44' E 113°27'99362739.8
2014-Oct-22 16:32N 37°34' E 121°58'97410597.1
2014-Oct-22 16:27N 23°04' E 113°29'102637311.5
2014-Oct-22 16:25N 38°43' E 121°32'41713909.3
2014-Oct-22 16:23N 31°47' E 120°54'18421.2
2014-Oct-22 16:21N 32°00' E 120°40'69110631.3
2014-Oct-22 16:17N 22°11' E 113°54'17123.0
2014-Oct-22 16:08N 22°27' E 113°46'6718192.2
2014-Oct-22 16:04N 31°60' E 120°20'671142051.9
2014-Oct-22 16:03N 22°27' E 113°48'6811336.4
2014-Oct-22 15:33N 32°00' E 120°40'6921246116.9
2014-Oct-22 15:33N 22°13' E 113°49'652234889.7
2014-Oct-22 15:32N 29°47' E 122°30'48792231.4
2014-Oct-22 15:32N 37°51' E 121°27'285612.9
2014-Oct-22 15:32N 37°34' E 121°56'35140780.1
2014-Oct-22 15:31N 31°47' E 120°54'65524563.0
2014-Oct-22 15:30N 23°04' E 113°29'648105984.1
2014-Oct-22 15:29N 31°60' E 120°20'40925839.9
2014-Oct-22 15:28N 38°44' E 121°35'104652314.8
2014-Oct-22 15:27N 22°48' E 113°21'32332.7
2014-Oct-22 15:21N 22°23' E 113°45'10031252.7
2014-Oct-22 14:33N 37°31' E 121°57'100975651.6
2014-Oct-22 14:33N 22°19' E 113°41'61486.2
2014-Oct-22 14:32N 22°20' E 113°48'68537353.3
2014-Oct-22 14:31N 31°60' E 120°38'67360592.0
2014-Oct-22 14:31N 22°51' E 113°18'66634258.4
2014-Oct-22 14:29N 31°13' E 121°30'645481.5
2014-Oct-22 14:29N 32°00' E 120°40'68118035.3
2014-Oct-22 14:26N 22°27' E 113°46'67186308.4
2014-Oct-22 14:26N 31°60' E 120°20'32201.0
2014-Oct-22 14:16N 31°47' E 120°54'1361988.0
2014-Oct-22 14:12N 29°53' E 122°22'62852580.6
2014-Oct-22 14:12N 23°04' E 113°29'6481018.2
2014-Oct-22 13:33N 31°60' E 120°20'111805.9
2014-Oct-22 13:33N 32°04' E 120°32'696139282.6
2014-Oct-22 13:33N 22°13' E 113°38'463041.0
2014-Oct-22 13:32N 22°54' E 113°14'6729227.2
2014-Oct-22 13:27N 31°47' E 120°54'181379.2
2014-Oct-22 13:27N 32°00' E 120°40'3405296.8
2014-Oct-22 13:23N 37°35' E 121°54'721094.2
2014-Oct-22 13:19N 38°44' E 121°32'405533.7
2014-Oct-22 12:33N 32°03' E 120°26'621392.7
2014-Oct-22 12:33N 31°60' E 120°20'17596.8
2014-Oct-22 12:32N 32°00' E 120°40'67533759.7
2014-Oct-22 12:30N 22°54' E 113°13'67437902.7
2014-Oct-22 12:29N 31°20' E 121°32'69512512.1
2014-Oct-22 12:26N 22°12' E 113°34'69654452.2
2014-Oct-22 12:25N 31°47' E 120°54'4372325.9
2014-Oct-22 12:14N 24°41' E 119°05'4253043.1
2014-Oct-22 12:06N 31°26' E 121°29'66122.6
2014-Oct-22 11:33N 31°59' E 120°21'41077598.5
2014-Oct-22 11:33N 38°44' E 121°35'409122750.4
2014-Oct-22 11:33N 31°60' E 120°20'325466.6
2014-Oct-22 11:32N 31°47' E 120°54'31980.8
2014-Oct-22 11:30N 31°30' E 121°26'69923964.7
2014-Oct-22 11:29N 22°12' E 113°34'531430.5
2014-Oct-22 11:26N 23°04' E 113°29'65810676.9
2014-Oct-22 11:23N 32°00' E 120°40'45095279.0
2014-Oct-22 11:22N 24°39' E 119°02'7896777.1
2014-Oct-22 11:15N 37°33' E 121°58'343489.7
2014-Oct-22 10:33N 31°60' E 120°20'51946.5
2014-Oct-22 10:33N 31°56' E 120°15'694594.4
2014-Oct-22 10:32N 31°27' E 121°28'534675.3
2014-Oct-22 10:32N 32°00' E 120°40'4066556.1
2014-Oct-22 10:28N 38°44' E 121°32'41929562.2
2014-Oct-22 10:27N 31°47' E 120°54'65510670.8
2014-Oct-22 10:23N 23°04' E 113°29'53282.0
2014-Oct-22 10:12N 22°12' E 113°34'471197.4
2014-Oct-22 10:10N 22°54' E 113°13'6751111.0
2014-Oct-22 09:33N 31°31' E 121°22'284610.7
2014-Oct-22 09:33N 31°47' E 120°54'4191507095.0
2014-Oct-22 09:33N 38°44' E 121°32'107522754.4
2014-Oct-22 09:30N 22°12' E 113°34'69070979.8
2014-Oct-22 09:30N 31°60' E 120°20'64812337.5
2014-Oct-22 09:26N 23°04' E 113°29'18777.2
2014-Oct-22 09:25N 22°54' E 113°13'19996.0
2014-Oct-22 09:24N 22°55' E 113°33'4085129.4
2014-Oct-22 09:19N 26°46' E 119°43'65818805.5
2014-Oct-22 09:17N 37°34' E 121°59'3589770.2
2014-Oct-22 09:15N 31°38' E 121°15'5174.4
2014-Oct-22 08:33N 31°60' E 120°20'487448.6
2014-Oct-22 08:33N 31°40' E 121°11'660169675.5
2014-Oct-22 08:33N 23°03' E 113°31'97683649.2
2014-Oct-22 08:32N 37°34' E 122°00'991132083.2
2014-Oct-22 08:32N 22°54' E 113°13'1861.7
2014-Oct-22 08:14N 23°04' E 113°29'53292.5
2014-Oct-22 08:04N 22°12' E 113°34'5199.7
2014-Oct-22 07:33N 23°02' E 113°23'664239131.9
2014-Oct-22 07:33N 31°43' E 121°07'35515019.3
2014-Oct-22 07:31N 37°35' E 122°04'98331594.5
2014-Oct-22 07:29N 22°55' E 113°36'663125577.2
2014-Oct-22 07:29N 31°41' E 121°10'42425856.1
2014-Oct-22 07:28N 38°44' E 121°37'4067862.3
2014-Oct-22 07:25N 31°60' E 120°49'412711.5
2014-Oct-22 07:24N 31°59' E 120°01'63879183.1
2014-Oct-22 07:24N 23°04' E 113°29'6523146.3
2014-Oct-22 07:11N 30°25' E 122°27'68727461.2
2014-Oct-22 07:10N 22°12' E 113°34'107553020.8
2014-Oct-22 07:08N 38°44' E 121°34'0 0.4
2014-Oct-22 06:34N 38°44' E 121°34'409163646.6
2014-Oct-22 06:33N 31°60' E 120°20'346103846.5
2014-Oct-22 06:33N 37°35' E 122°07'35343833.0
2014-Oct-22 06:33N 31°45' E 121°03'699419567.3
2014-Oct-22 06:33N 22°12' E 113°34'69644732.6
2014-Oct-22 06:32N 31°47' E 120°54'1141488.0
2014-Oct-22 06:27N 30°25' E 122°27'65265199.1
2014-Oct-22 06:26N 23°04' E 113°29'6596979.0
2014-Oct-22 06:21N 31°45' E 121°04'3681663.0
2014-Oct-22 06:08N 37°51' E 121°46'5495.2
2014-Oct-22 05:33N 38°44' E 121°30'539140.9
2014-Oct-22 05:33N 37°52' E 121°43'363652938.1
2014-Oct-22 05:33N 31°57' E 120°14'34989752.1
2014-Oct-22 05:33N 37°34' E 122°02'9821767512.7
2014-Oct-22 05:33N 22°56' E 113°34'44718.5
2014-Oct-22 05:29N 22°12' E 113°34'2754.0
2014-Oct-22 05:29N 22°14' E 113°35'511282.2
2014-Oct-22 05:26N 23°04' E 113°29'10279653.3
2014-Oct-22 05:20N 38°44' E 121°31'4094353.6
2014-Oct-22 05:14N 31°60' E 120°20'24249.9
2014-Oct-22 05:09N 32°05' E 119°52'1666635.8
2014-Oct-22 05:07N 30°25' E 122°27'13719790.6
2014-Oct-22 05:07N 32°05' E 120°36'0 0.8
2014-Oct-22 04:33N 32°04' E 120°36'668114487.4
2014-Oct-22 04:33N 22°51' E 113°34'656472159.6
2014-Oct-22 04:33N 31°59' E 120°20'68417976.7
2014-Oct-22 04:31N 22°17' E 113°35'471911.2
2014-Oct-22 04:29N 23°04' E 113°29'652391203.1
2014-Oct-22 04:29N 30°25' E 122°27'1621061.0
2014-Oct-22 04:20N 32°03' E 119°55'64112334.8
2014-Oct-22 04:17N 22°57' E 113°37'97511664.1
2014-Oct-22 04:12N 37°32' E 121°57'9811539.4
2014-Oct-22 03:33N 22°54' E 113°28'1035338882.6
2014-Oct-22 03:33N 38°44' E 121°29'4081468985.4
2014-Oct-22 03:33N 31°60' E 120°20'652293565.7
2014-Oct-22 03:33N 23°02' E 113°24'6552358210.0
2014-Oct-22 03:33N 32°01' E 120°23'659263640.4
2014-Oct-22 03:33N 22°51' E 113°34'65843078.9
2014-Oct-22 03:32N 30°25' E 122°27'68636311.2
2014-Oct-22 03:31N 22°11' E 113°36'6882465.3
2014-Oct-22 03:14N 31°14' E 121°29'3806741.3
2014-Oct-22 03:11N 37°34' E 121°56'3514955.8
2014-Oct-22 03:07N 31°45' E 121°03'25499.7
2014-Oct-22 03:04N 31°60' E 120°39'3162.7
2014-Oct-22 02:34N 31°58' E 120°02'204299.6
2014-Oct-22 02:33N 32°03' E 120°26'33953093.0
2014-Oct-22 02:33N 37°34' E 121°54'430193610.7
2014-Oct-22 02:33N 30°25' E 122°27'698224.2
2014-Oct-22 02:32N 31°15' E 121°33'658789368.3
2014-Oct-22 02:32N 22°57' E 113°30'4581370.2
2014-Oct-22 02:32N 22°13' E 113°40'367110121.8
2014-Oct-22 02:32N 22°33' E 120°17'56712076.5
2014-Oct-22 02:29N 31°60' E 120°20'327165.6
2014-Oct-22 02:29N 31°47' E 120°54'4193694.6
2014-Oct-22 02:22N 38°44' E 121°34'4076058.4
2014-Oct-22 02:18N 31°59' E 120°38'4126363.7
2014-Oct-22 02:14N 38°48' E 121°44'4232519.1
2014-Oct-22 02:04N 31°46' E 121°03'66582539.7
2014-Oct-22 02:04N 23°03' E 113°20'6451282.5
2014-Oct-22 01:33N 31°57' E 120°08'674808310.8
2014-Oct-22 01:33N 22°17' E 113°44'680222481.3
2014-Oct-22 01:33N 31°58' E 120°20'3927827.0
2014-Oct-22 01:33N 31°46' E 121°03'65943133.9
2014-Oct-22 01:32N 23°03' E 113°30'6579531.7
2014-Oct-22 01:28N 31°59' E 120°38'66027300.4
2014-Oct-22 01:27N 23°03' E 113°25'979440440.4
2014-Oct-22 01:26N 37°48' E 121°30'38787120.0
2014-Oct-22 01:26N 31°20' E 121°33'729984.1
2014-Oct-22 01:26N 30°25' E 122°27'1142708.2
2014-Oct-22 01:23N 31°47' E 120°54'4426.5
2014-Oct-22 01:23N 31°47' E 120°59'4182241.7
2014-Oct-22 01:12N 38°44' E 121°35'103224608.1
2014-Oct-22 01:09N 22°57' E 113°37'1017.7
2014-Oct-22 00:33N 23°04' E 113°29'655393037.0
2014-Oct-22 00:33N 31°47' E 120°54'3716568.6
2014-Oct-22 00:33N 31°57' E 120°13'2115047.7
2014-Oct-22 00:33N 32°04' E 120°36'13770608.1
2014-Oct-22 00:33N 30°25' E 122°27'44346915.8
2014-Oct-22 00:32N 37°45' E 121°20'100463382.3
2014-Oct-22 00:32N 22°22' E 113°44'4208784.5
2014-Oct-22 00:29N 26°45' E 119°43'29238985.3
2014-Oct-22 00:28N 31°23' E 121°30'66336190.8
2014-Oct-22 00:27N 22°52' E 113°34'13173.7
2014-Oct-22 00:22N 23°04' E 113°29'97212068.9
2014-Oct-22 00:18N 37°32' E 121°56'4715261.4
2014-Oct-22 00:12N 29°42' E 122°12'65312443.4
2014-Oct-22 00:09N 22°09' E 113°28'5592.6
2014-Oct-21 23:33N 23°04' E 113°29'0100.5
2014-Oct-21 23:33N 23°04' E 113°29'645774182.8
2014-Oct-21 23:33N 31°58' E 120°18'161444.0
2014-Oct-21 23:32N 32°04' E 120°36'13711494.4
2014-Oct-21 23:32N 30°25' E 122°27'13311377.0
2014-Oct-21 23:31N 31°60' E 120°38'581935.9
2014-Oct-21 23:29N 31°24' E 121°32'32210439.9
2014-Oct-21 23:27N 36°43' E 122°23'86758883.7
2014-Oct-21 23:26N 23°09' E 116°40'96817003.2
2014-Oct-21 23:23N 38°44' E 121°32'4199914.8
2014-Oct-21 23:21N 31°47' E 120°54'6636981.4
2014-Oct-21 23:15N 22°51' E 113°34'6477535.2
2014-Oct-21 23:10N 31°58' E 120°02'6381057.8
2014-Oct-21 22:34N 23°04' E 113°29'6492337181.7
2014-Oct-21 22:33N 32°00' E 120°22'12681.8
2014-Oct-21 22:32N 32°04' E 120°36'261538.0
2014-Oct-21 22:31N 31°58' E 120°06'15226056.7
2014-Oct-21 22:31N 30°25' E 122°27'126151028.6
2014-Oct-21 22:31N 31°59' E 120°49'66358174.4
2014-Oct-21 22:30N 23°04' E 113°29'949179741.9
2014-Oct-21 22:30N 36°50' E 122°28'95816271.9
2014-Oct-21 22:26N 22°51' E 113°34'62427714.6
2014-Oct-21 22:25N 29°34' E 122°24'15415796.6
2014-Oct-21 22:25N 31°47' E 120°54'483768.0
2014-Oct-21 22:24N 31°59' E 119°60'68363009.5
2014-Oct-21 22:23N 22°10' E 113°32'686829.7
2014-Oct-21 21:34N 31°57' E 120°11'145169.7
2014-Oct-21 21:33N 32°02' E 120°27'6032171671.6
2014-Oct-21 21:33N 23°04' E 115°19'60186564.4
2014-Oct-21 21:33N 31°47' E 120°54'227351.8
2014-Oct-21 21:33N 32°02' E 120°35'308158484.2
2014-Oct-21 21:33N 36°56' E 122°28'880132027.8
2014-Oct-21 21:32N 23°09' E 116°40'535192693.9
2014-Oct-21 21:32N 30°25' E 122°27'65244282.3
2014-Oct-21 21:31N 23°04' E 113°29'662238263.0
2014-Oct-21 21:31N 32°02' E 120°45'641.4
2014-Oct-21 21:22N 31°60' E 120°38'3542539.1
2014-Oct-21 21:22N 32°03' E 119°56'4407687.6
2014-Oct-21 21:19N 24°47' E 118°47'308410.4
2014-Oct-21 20:34N 23°04' E 113°30'645290145.6
2014-Oct-21 20:33N 31°58' E 120°18'645773956.6
2014-Oct-21 20:33N 23°04' E 113°29'656393422.0
2014-Oct-21 20:33N 32°02' E 120°33'13754851.5
2014-Oct-21 20:33N 30°25' E 122°27'137247021.4
2014-Oct-21 20:33N 32°01' E 120°32'2427.9
2014-Oct-21 20:33N 32°00' E 120°35'222094.9
2014-Oct-21 20:32N 31°47' E 120°54'5652911.5
2014-Oct-21 20:20N 23°10' E 116°37'57579601.1
2014-Oct-21 20:20N 32°02' E 120°45'34210814.5
2014-Oct-21 20:18N 37°39' E 121°56'9781313.4
2014-Oct-21 19:33N 23°04' E 113°30'654213976.5
2014-Oct-21 19:33N 32°02' E 120°29'2610549.6
2014-Oct-21 19:33N 31°47' E 120°54'1933922.7
2014-Oct-21 19:33N 32°00' E 120°39'1322644.8
2014-Oct-21 19:33N 32°01' E 120°24'14226895.2
2014-Oct-21 19:33N 30°25' E 122°27'65216300.6
2014-Oct-21 19:30N 23°04' E 113°29'654214131.1
2014-Oct-21 19:30N 32°02' E 120°30'69929950.9
2014-Oct-21 19:29N 22°10' E 113°32'102629783.2
2014-Oct-21 19:27N 37°38' E 121°57'10025820.4
2014-Oct-21 19:16N 22°27' E 113°53'671939.4
2014-Oct-21 18:33N 32°01' E 120°25'6597.2
2014-Oct-21 18:33N 32°02' E 120°31'13855298.8
2014-Oct-21 18:33N 30°25' E 122°27'1393188.4
2014-Oct-21 18:30N 32°02' E 120°30'4059993.1
2014-Oct-21 18:28N 38°44' E 121°27'40414263.2
2014-Oct-21 18:26N 32°02' E 120°45'17504.1
2014-Oct-21 18:24N 31°47' E 120°54'6982176.8
2014-Oct-21 18:05N 22°10' E 113°32'6921317.4
2014-Oct-21 17:33N 31°59' E 120°21'815052.5
2014-Oct-21 17:33N 32°02' E 120°30'406291987.0
2014-Oct-21 17:33N 38°44' E 121°30'1026175961.5
2014-Oct-21 17:33N 23°04' E 113°30'65751451.5
2014-Oct-21 17:32N 32°00' E 120°39'66679931.1
2014-Oct-21 17:31N 22°51' E 113°34'141035.5
2014-Oct-21 17:31N 23°04' E 113°29'65242678.1
2014-Oct-21 17:30N 30°25' E 122°27'68940023.1
2014-Oct-21 17:29N 22°10' E 113°32'10226093.3
2014-Oct-21 17:19N 37°33' E 121°58'347460.9
2014-Oct-21 16:33N 31°57' E 120°15'643105137.2
2014-Oct-21 16:33N 23°04' E 113°30'64330854.0
2014-Oct-21 16:32N 31°56' E 120°16'41333763.4
2014-Oct-21 16:31N 38°44' E 121°33'40625187.8
2014-Oct-21 16:30N 32°02' E 120°30'34247376.6
2014-Oct-21 16:30N 37°36' E 121°59'97629051.6
2014-Oct-21 16:28N 23°04' E 113°29'41580.5
2014-Oct-21 16:23N 22°27' E 113°47'27441.5
2014-Oct-21 16:20N 22°51' E 113°34'67014895.3
2014-Oct-21 16:17N 32°02' E 120°45'6724161.1
2014-Oct-21 16:07N 22°55' E 113°26'451012.4
2014-Oct-21 16:05N 22°10' E 113°32'  
Track history (hours):
 
Tides and Currents Weather Stations Pressure Air Temp Water Temp Dewpoint Dewpoint Depression Visibility Wind Speed Wind Dir Waves Ship Positions

Callsign 000000 (name unknown)

Last reported at 2014-Oct-31 15:33 UTC. Time now 2014-Oct-31 15:41 UTC.
Position N 23°04' E 113°29'.

Type: Fishing. MMSI: 200007452.

Date/timePositionNaut miles runAvg speedWind from/ knotsBaromVisibWave heightAir tempDewpointWater temp
2014-Oct-31 15:33N 23°04' E 113°29'97670297.6
2014-Oct-31 15:32N 37°50' E 121°27'915122006.8
2014-Oct-31 15:32N 22°37' E 120°09'3682407.6
2014-Oct-31 15:23N 22°10' E 113°32'411806.5
2014-Oct-31 15:21N 22°51' E 113°33'9508264.7
2014-Oct-31 15:15N 36°43' E 122°23'9431375.7
2014-Oct-31 14:33N 23°04' E 113°25'9428.1
2014-Oct-31 14:32N 22°55' E 113°26'45799.1
2014-Oct-31 14:29N 22°10' E 113°32'68327037.7
2014-Oct-31 14:27N 31°58' E 120°03'3584935.8
2014-Oct-31 14:23N 37°49' E 121°31'2428.8
2014-Oct-31 13:32N 37°34' E 121°55'102218300.4
2014-Oct-31 13:29N 22°10' E 113°32'447601.0
2014-Oct-31 13:28N 22°53' E 113°19'9903564002.2
2014-Oct-31 13:28N 37°47' E 121°33'3575861.8
2014-Oct-31 13:25N 31°57' E 120°10'6496071.3
2014-Oct-31 13:18N 22°51' E 113°33'0 0.2
2014-Oct-31 13:05N 22°51' E 113°33'6531236.7
2014-Oct-31 12:33N 31°57' E 120°17'35216469.4
2014-Oct-31 12:32N 37°45' E 121°30'201218.7
2014-Oct-31 12:31N 37°34' E 121°51'10208542.3
2014-Oct-31 12:24N 22°10' E 113°32'42203.9
2014-Oct-31 12:12N 22°52' E 113°33'9841548.4
2014-Oct-31 11:33N 37°45' E 121°31'34966127.0
2014-Oct-31 11:33N 32°00' E 120°24'65919933.3
2014-Oct-31 11:31N 22°55' E 113°27'10356775.0
2014-Oct-31 11:22N 38°43' E 121°31'1203630.9
2014-Oct-31 11:20N 36°49' E 122°20'50971.7
2014-Oct-31 11:17N 37°34' E 121°55'2534.9
2014-Oct-31 10:33N 37°45' E 121°26'34654144.5
2014-Oct-31 10:33N 32°02' E 120°30'340244525.0
2014-Oct-31 10:33N 37°34' E 121°59'73722.0
2014-Oct-31 10:27N 38°42' E 121°28'9541070.4
2014-Oct-31 09:33N 23°21' E 116°40'8973230703.9
2014-Oct-31 09:33N 37°45' E 121°21'34677942.7
2014-Oct-31 09:33N 32°01' E 120°36'3409404.3
2014-Oct-31 09:31N 37°33' E 121°60'99622268.2
2014-Oct-31 09:28N 22°32' E 113°51'3686730.0
2014-Oct-31 09:25N 25°58' E 119°26'3681844.7
2014-Oct-31 09:13N 22°60' E 113°32'177266.4
2014-Oct-31 08:33N 23°21' E 116°43'17918940.3
2014-Oct-31 08:33N 23°04' E 113°30'96458790.6
2014-Oct-31 08:32N 37°42' E 121°09'42238.7
2014-Oct-31 08:21N 37°32' E 122°01'70721209.6
2014-Oct-31 08:19N 25°58' E 119°26'216281.0
2014-Oct-31 07:33N 23°17' E 116°48'89752914.4
2014-Oct-31 07:32N 37°32' E 122°01'70745441.8
2014-Oct-31 07:31N 25°58' E 119°26'37013714.2
2014-Oct-31 07:29N 23°05' E 113°27'9638455.8
2014-Oct-31 07:23N 37°42' E 121°09'4249.8
2014-Oct-31 06:32N 37°32' E 122°00'70747101.1
2014-Oct-31 06:31N 25°58' E 119°26'3686138.0
2014-Oct-31 06:27N 22°32' E 113°51'424995.8
2014-Oct-31 06:27N 23°02' E 113°21'9881105.0
2014-Oct-31 05:33N 39°03' E 117°54'21326462.7
2014-Oct-31 05:33N 37°30' E 121°59'993162471.2
2014-Oct-31 05:32N 22°32' E 113°51'3682972.7
2014-Oct-31 05:25N 25°58' E 119°26'0 0.0
2014-Oct-31 04:31N 25°58' E 119°26'3696237.5
2014-Oct-31 04:27N 22°31' E 113°51'9924205.3
2014-Oct-31 04:13N 37°29' E 121°58'102411814.4
2014-Oct-31 04:08N 22°03' E 113°35'5 8.5
2014-Oct-31 03:33N 22°07' E 113°36'101936319.9
2014-Oct-31 03:31N 37°29' E 121°58'703126514.2
2014-Oct-31 03:31N 25°58' E 119°26'377870.5
2014-Oct-31 03:05N 23°07' E 113°17'55102.1
2014-Oct-31 02:33N 22°15' E 113°36'5146114.8
2014-Oct-31 02:33N 23°06' E 113°25'3711604.8
2014-Oct-31 02:19N 25°58' E 119°26'36812044.6
2014-Oct-31 02:17N 23°03' E 113°30'1114.8
2014-Oct-31 01:33N 23°07' E 113°19'511210.0
2014-Oct-31 01:31N 22°17' E 113°35'389699860.2
2014-Oct-31 01:31N 25°58' E 119°26'3895817.1
2014-Oct-31 01:27N 22°17' E 113°35'10113682.2
2014-Oct-31 01:10N 37°29' E 121°58'97010908.5
2014-Oct-31 01:05N 23°04' E 113°29'9721836.1
2014-Oct-31 00:33N 37°31' E 121°59'97213887.2
2014-Oct-31 00:29N 23°04' E 113°29'47346.1
2014-Oct-31 00:21N 22°17' E 113°35'38911491.1
2014-Oct-31 00:19N 25°58' E 119°26'3914540.2
2014-Oct-31 00:14N 22°14' E 113°35'189260.5
2014-Oct-30 23:30N 23°17' E 116°48'2162394.6
2014-Oct-30 23:25N 25°58' E 119°26'3681119.1
2014-Oct-30 23:05N 23°04' E 113°29'9721830.3
2014-Oct-30 22:33N 37°35' E 121°49'8953222109.4
2014-Oct-30 22:33N 23°18' E 116°47'2155421.4
2014-Oct-30 22:31N 25°58' E 119°26'36812510.2
2014-Oct-30 22:29N 23°04' E 113°29'6152682.7
2014-Oct-30 22:15N 29°43' E 122°12'482691.4
2014-Oct-30 21:33N 23°19' E 116°47'892642305.6
2014-Oct-30 21:33N 37°42' E 121°09'331918.7
2014-Oct-30 21:32N 37°35' E 121°49'97217492.4
2014-Oct-30 21:29N 23°04' E 113°29'3685179.8
2014-Oct-30 21:25N 25°58' E 119°26'215250.7
2014-Oct-30 20:33N 23°19' E 116°47'896645099.5
2014-Oct-30 20:33N 37°36' E 121°47'97258334.7
2014-Oct-30 20:32N 23°04' E 113°29'967217471.3
2014-Oct-30 20:32N 37°43' E 121°15'71236597.6
2014-Oct-30 20:31N 25°58' E 119°26'712745.8
2014-Oct-30 19:33N 37°43' E 121°20'896322647.1
2014-Oct-30 19:33N 23°19' E 116°47'895537028.3
2014-Oct-30 19:33N 37°36' E 121°45'9713615.4
2014-Oct-30 19:17N 23°04' E 113°29'182249.9
2014-Oct-30 18:33N 23°19' E 116°47'895460398.1
2014-Oct-30 18:33N 37°36' E 121°46'183419.5
2014-Oct-30 18:33N 37°43' E 121°26'97012047.5
2014-Oct-30 18:28N 23°04' E 113°29'97610187.0
2014-Oct-30 18:22N 37°50' E 121°25'8 9.6
2014-Oct-30 17:33N 37°44' E 121°31'899539393.3
2014-Oct-30 17:33N 23°19' E 116°47'894536516.8
2014-Oct-30 17:33N 37°35' E 121°46'97026667.9
2014-Oct-30 17:31N 23°04' E 113°29'182189.8
2014-Oct-30 16:33N 23°19' E 116°47'8941072933.1
2014-Oct-30 16:33N 37°34' E 121°47'17154.2
2014-Oct-30 16:27N 37°46' E 121°30'99625253.7
2014-Oct-30 16:24N 22°33' E 113°48'2642292.2
2014-Oct-30 16:17N 23°57' E 118°20'8431149.7
2014-Oct-30 15:33N 37°44' E 121°30'8991618897.1
2014-Oct-30 15:33N 23°19' E 116°47'893128622.0
2014-Oct-30 15:33N 37°34' E 121°43'9694177.7
2014-Oct-30 15:19N 23°04' E 113°29'182239.5
2014-Oct-30 14:33N 23°19' E 116°47'8981078162.5
2014-Oct-30 14:33N 37°44' E 121°25'1913688.3
2014-Oct-30 14:33N 37°35' E 121°46'6913058.2
2014-Oct-30 14:33N 38°43' E 121°30'102512816.7
2014-Oct-30 14:28N 23°04' E 113°29'6385024.1
2014-Oct-30 14:21N 31°58' E 120°02'548698.0
2014-Oct-30 13:33N 23°19' E 116°47'89897992.9
2014-Oct-30 13:33N 37°44' E 121°26'2118835.3
2014-Oct-30 13:33N 37°35' E 121°51'186002.9
2014-Oct-30 13:33N 37°45' E 121°31'97438973.5
2014-Oct-30 13:31N 23°04' E 113°29'6381958.7
2014-Oct-30 13:12N 31°60' E 119°60'548862.4
2014-Oct-30 12:33N 23°19' E 116°47'54853293.6
2014-Oct-30 12:33N 31°58' E 120°04'35347108.6
2014-Oct-30 12:32N 37°44' E 121°31'35324431.6
2014-Oct-30 12:32N 31°57' E 120°13'351316067.7
2014-Oct-30 12:31N 37°38' E 121°51'976175610.0
2014-Oct-30 12:31N 23°04' E 113°29'8 8.0
2014-Oct-30 11:33N 23°02' E 113°21'6461162773.0
2014-Oct-30 11:33N 31°56' E 120°11'71838.4
2014-Oct-30 11:33N 31°59' E 120°19'350139954.3
2014-Oct-30 11:33N 37°44' E 121°27'89940952.0
2014-Oct-30 11:32N 23°19' E 116°47'18221144.0
2014-Oct-30 11:31N 23°04' E 113°29'9761170771.9
2014-Oct-30 11:31N 37°38' E 121°52'899938.2
2014-Oct-30 10:34N 23°19' E 116°47'955491385.3
2014-Oct-30 10:33N 38°43' E 121°30'1025527286.5
2014-Oct-30 10:33N 23°05' E 113°28'973206039.9
2014-Oct-30 10:33N 37°35' E 121°51'2518063.0
2014-Oct-30 10:33N 37°44' E 121°22'350114610.9
2014-Oct-30 10:33N 31°58' E 120°18'72117.4
2014-Oct-30 10:33N 32°02' E 120°26'573.5
2014-Oct-30 10:29N 31°59' E 120°20'6483108.8
2014-Oct-30 10:16N 23°04' E 113°29'651917.9
2014-Oct-30 09:33N 32°02' E 120°24'651213140.1
2014-Oct-30 09:33N 23°04' E 113°29'65246938.4
2014-Oct-30 09:32N 32°01' E 120°26'34634567.5
2014-Oct-30 09:32N 37°45' E 121°16'96869706.5
2014-Oct-30 09:31N 23°04' E 113°29'65678662.7
2014-Oct-30 09:31N 32°02' E 120°32'56017683.7
2014-Oct-30 09:29N 23°19' E 116°47'2151386.7
2014-Oct-30 09:19N 25°58' E 119°26'368480.0
2014-Oct-30 08:33N 23°04' E 113°30'6552359775.6
2014-Oct-30 08:33N 32°04' E 120°28'31096.6
2014-Oct-30 08:33N 32°02' E 120°31'74098.6
2014-Oct-30 08:33N 32°00' E 120°39'56123742.9
2014-Oct-30 08:32N 23°19' E 116°47'21540797.9
2014-Oct-30 08:31N 25°58' E 119°26'7082872.3
2014-Oct-30 08:17N 37°35' E 121°53'338471.2
2014-Oct-30 07:33N 32°03' E 120°33'657262795.9
2014-Oct-30 07:33N 23°04' E 113°30'1826810.0
2014-Oct-30 07:32N 23°19' E 116°47'188169604.9
2014-Oct-30 07:32N 22°13' E 113°35'39167112.6
2014-Oct-30 07:31N 25°58' E 119°26'36847370.5
2014-Oct-30 07:31N 32°01' E 120°36'4053445.5
2014-Oct-30 07:24N 38°44' E 121°28'4502474.5
2014-Oct-30 07:13N 31°14' E 121°30'38127456.0
2014-Oct-30 07:12N 37°34' E 121°53'9731508.9
2014-Oct-30 06:33N 23°04' E 113°30'657295485.7
2014-Oct-30 06:33N 32°01' E 120°36'56165094.1
2014-Oct-30 06:33N 23°19' E 116°47'540149572.1
2014-Oct-30 06:32N 31°15' E 121°32'6898823.1
2014-Oct-30 06:28N 22°14' E 113°35'3919254.1
2014-Oct-30 06:25N 25°58' E 119°26'7083106.4
2014-Oct-30 06:12N 37°34' E 121°52'9056772.8
2014-Oct-30 06:04N 22°34' E 120°03'142281.7
2014-Oct-30 05:33N 24°41' E 118°55'448230513.6
2014-Oct-30 05:33N 32°00' E 120°39'56157659.3
2014-Oct-30 05:33N 23°19' E 116°47'182217853.5
2014-Oct-30 05:33N 23°04' E 113°30'36815404.6
2014-Oct-30 05:31N 25°58' E 119°26'70810362.0
2014-Oct-30 05:27N 37°34' E 121°55'46325664.0
2014-Oct-30 05:26N 29°52' E 122°22'45410540.1
2014-Oct-30 05:23N 22°34' E 120°09'53210244.7
2014-Oct-30 05:20N 31°21' E 121°32'69239570.4
2014-Oct-30 05:19N 22°14' E 113°35'693909.1
2014-Oct-30 04:34N 31°23' E 121°30'422189759.1
2014-Oct-30 04:33N 24°46' E 118°48'309222246.9
2014-Oct-30 04:33N 23°04' E 113°30'18221785.2
2014-Oct-30 04:33N 23°19' E 116°47'21511566.9
2014-Oct-30 04:32N 25°58' E 119°26'369221407.0
2014-Oct-30 04:32N 32°00' E 120°43'33810682.1
2014-Oct-30 04:30N 37°34' E 121°51'8438384.5
2014-Oct-30 04:24N 23°52' E 118°14'2755265.3
2014-Oct-30 04:21N 22°14' E 113°35'5063.5
2014-Oct-30 03:33N 23°04' E 113°30'662794643.9
2014-Oct-30 03:33N 32°01' E 120°47'56467679.9
2014-Oct-30 03:33N 23°19' E 116°47'54821690.2
2014-Oct-30 03:31N 31°26' E 121°28'6953861.3
2014-Oct-30 03:20N 22°14' E 113°35'2782964.9
2014-Oct-30 03:15N 23°55' E 118°16'90128.3
2014-Oct-30 02:33N 23°19' E 116°47'18272637.9
2014-Oct-30 02:33N 23°04' E 113°30'6623111.3
2014-Oct-30 02:20N 31°59' E 120°50'662853.0
2014-Oct-30 01:33N 23°04' E 113°30'18221791.4
2014-Oct-30 01:33N 23°19' E 116°47'8965873.1
2014-Oct-30 01:24N 37°32' E 122°00'83312876.1
2014-Oct-30 01:20N 24°00' E 118°22'4914280.1
2014-Oct-30 01:13N 31°59' E 120°26'650977.6
2014-Oct-30 00:33N 23°04' E 113°29'659215820.7
2014-Oct-30 00:33N 31°39' E 121°14'55334946.1
2014-Oct-30 00:32N 23°19' E 116°47'5631325.7
2014-Oct-30 00:06N 31°59' E 120°50'6621202.3
2014-Oct-29 23:33N 23°04' E 113°29'18224284.4
2014-Oct-29 23:33N 23°19' E 116°47'5548040.1
2014-Oct-29 23:29N 31°40' E 121°11'25577.3
2014-Oct-29 23:26N 31°59' E 120°50'491354.9
2014-Oct-29 23:24N 32°05' E 119°53'977.9
2014-Oct-29 23:17N 31°60' E 120°00'638870.3
2014-Oct-29 22:33N 23°04' E 113°29'18325287.5
2014-Oct-29 22:33N 23°18' E 116°47'55774220.2
2014-Oct-29 22:32N 31°47' E 121°02'162105.1
2014-Oct-29 22:32N 31°59' E 120°50'26415.7
2014-Oct-29 22:28N 31°40' E 121°11'6592977.7
2014-Oct-29 22:15N 23°04' E 113°29'617176340.3
2014-Oct-29 22:10N 49°21' W 123°17'540772636.2
2014-Oct-29 22:06N 31°57' E 120°10'6411186.9
2014-Oct-29 21:33N 23°04' E 113°29'18327394.8
2014-Oct-29 21:33N 23°18' E 116°47'60101664306.7
2014-Oct-29 21:33N 49°19' W 123°11'53811614360.1
2014-Oct-29 21:32N 31°43' E 121°08'4468.9
2014-Oct-29 21:32N 31°40' E 121°11'504016.8
2014-Oct-29 21:31N 31°57' E 120°15'30787.5
2014-Oct-29 21:29N 31°59' E 120°50'66220374.9
2014-Oct-29 21:27N 23°04' E 113°29'6606185.2
2014-Oct-29 21:21N 31°43' E 121°08'660836.9
2014-Oct-29 20:33N 23°04' E 113°29'648466542.2
2014-Oct-29 20:33N 31°60' E 120°20'555117535.9
2014-Oct-29 20:33N 23°18' E 116°47'896161303.5
2014-Oct-29 20:33N 37°44' E 121°15'364655757.1
2014-Oct-29 20:33N 31°39' E 121°13'281856.7
2014-Oct-29 20:32N 31°59' E 120°50'25319.2
2014-Oct-29 20:27N 31°40' E 121°11'6594444.3
2014-Oct-29 20:18N 23°04' E 113°29'183245.8
2014-Oct-29 19:33N 23°18' E 116°47'183164415.7
2014-Oct-29 19:33N 23°04' E 113°29'65265248.8
2014-Oct-29 19:33N 32°03' E 120°25'451008.6
2014-Oct-29 19:30N 31°40' E 121°11'3647270.7
2014-Oct-29 19:27N 37°44' E 121°16'9686415.6
2014-Oct-29 19:18N 23°04' E 113°29'0 0.1
2014-Oct-29 18:33N 23°04' E 113°29'18334613.9
2014-Oct-29 18:33N 23°18' E 116°47'5632028573.3
2014-Oct-29 18:33N 31°59' E 120°50'34610843.9
2014-Oct-29 18:31N 37°45' E 121°13'97779898.4
2014-Oct-29 18:30N 22°55' E 113°27'66814483.3
2014-Oct-29 18:28N 31°40' E 121°11'6594141.8
2014-Oct-29 18:18N 23°04' E 113°29'10201367.7
2014-Oct-29 17:33N 37°49' E 123°19'934258697.7
2014-Oct-29 17:33N 23°18' E 116°47'54958169.4
2014-Oct-29 17:32N 31°27' E 121°29'659182586.1
2014-Oct-29 17:32N 23°04' E 113°29'96735533.5
2014-Oct-29 17:31N 37°43' E 121°17'96794110.8
2014-Oct-29 17:30N 23°04' E 113°29'659131846.9
2014-Oct-29 17:30N 31°40' E 121°11'67715828.6
2014-Oct-29 17:27N 22°27' E 113°52'677756.1
2014-Oct-29 16:33N 31°40' E 121°11'55495032.1
2014-Oct-29 16:33N 23°18' E 116°47'183109610.5
2014-Oct-29 16:33N 23°04' E 113°29'968165986.2
2014-Oct-29 16:33N 37°42' E 121°22'9683300.7
2014-Oct-29 16:15N 23°04' E 113°29'1 0.8
2014-Oct-29 15:33N 23°04' E 113°29'18272952.5
2014-Oct-29 15:33N 23°18' E 116°47'89726471.2
2014-Oct-29 15:31N 37°42' E 121°26'970134246.3
2014-Oct-29 15:31N 23°04' E 113°29'65930040.9
2014-Oct-29 15:29N 31°40' E 121°11'46254.6
2014-Oct-29 15:19N 31°58' E 120°21'653866.3
2014-Oct-29 14:33N 22°56' E 113°30'18382186.1
2014-Oct-29 14:33N 23°18' E 116°47'55453937.1
2014-Oct-29 14:33N 31°40' E 121°11'65953937.0
2014-Oct-29 14:32N 23°04' E 113°29'970291056.1
2014-Oct-29 14:32N 37°41' E 121°30'9704415.5
2014-Oct-29 14:18N 23°04' E 113°29'183242.3
2014-Oct-29 13:33N 23°18' E 116°47'897645946.1
2014-Oct-29 13:33N 37°40' E 121°34'998256667.8
2014-Oct-29 13:33N 22°25' E 113°53'678162781.3
2014-Oct-29 13:33N 31°40' E 121°11'421678.1
2014-Oct-29 13:31N 31°56' E 120°25'64746587.3
2014-Oct-29 13:30N 23°04' E 113°29'183192.0
2014-Oct-29 12:33N 23°18' E 116°47'55468771.9
2014-Oct-29 12:33N 31°58' E 120°23'64844842.9
2014-Oct-29 12:32N 23°04' E 113°29'65646287.2
2014-Oct-29 12:31N 31°22' E 121°29'50861.1
2014-Oct-29 12:28N 31°59' E 120°50'343981.3
2014-Oct-29 12:07N 37°39' E 121°40'972233305.3
2014-Oct-29 12:06N 23°04' E 113°29'0 0.0
2014-Oct-29 11:33N 23°04' E 113°29'183131453.9
2014-Oct-29 11:33N 23°18' E 116°47'54859770.7
2014-Oct-29 11:33N 31°24' E 121°31'23471.5
2014-Oct-29 11:30N 31°40' E 121°11'3595236.1
2014-Oct-29 11:26N 37°39' E 121°37'3422714.1
2014-Oct-29 11:18N 31°59' E 120°51'6635498.3
2014-Oct-29 11:11N 23°04' E 113°29'64012007.1
2014-Oct-29 11:08N 31°55' E 120°12'549960.1
2014-Oct-29 10:33N 23°18' E 116°47'564156182.8
2014-Oct-29 10:33N 31°59' E 120°51'293695.4
2014-Oct-29 10:33N 31°57' E 120°17'706272.9
2014-Oct-29 10:32N 31°21' E 121°27'65424026.3
2014-Oct-29 10:30N 23°04' E 113°29'65974158.1
2014-Oct-29 10:30N 31°40' E 121°11'36118028.7
2014-Oct-29 10:29N 37°41' E 121°33'99911493.5
2014-Oct-29 10:23N 22°19' E 114°08'586512.2
2014-Oct-29 10:23N 23°04' E 113°29'651789.3
2014-Oct-29 09:33N 32°01' E 120°25'5582007420.2
2014-Oct-29 09:33N 23°18' E 116°47'89731642.8
2014-Oct-29 09:32N 37°41' E 121°28'36199944.2
2014-Oct-29 09:31N 31°40' E 121°11'251698.3
2014-Oct-29 09:30N 31°59' E 120°51'6635131.8
2014-Oct-29 09:23N 23°04' E 113°29'0 1.5
2014-Oct-29 09:18N 23°04' E 113°29'183244.2
2014-Oct-29 08:33N 23°18' E 116°47'55435634.2
2014-Oct-29 08:32N 31°40' E 121°11'68012116.4
2014-Oct-29 08:29N 22°28' E 113°46'993111741.8
2014-Oct-29 08:29N 37°42' E 121°15'3423161.2
2014-Oct-29 08:22N 32°01' E 120°35'65650278.6
2014-Oct-29 08:21N 23°04' E 113°29'0 4.5
2014-Oct-29 08:20N 23°04' E 113°29'663103752.0
2014-Oct-29 08:19N 31°59' E 120°51'37155.1
2014-Oct-29 08:05N 31°31' E 121°20'6721278.2
2014-Oct-29 07:33N 22°38' E 113°41'176105529.9
2014-Oct-29 07:33N 23°18' E 116°47'554399007.9
2014-Oct-29 07:33N 31°58' E 120°23'6481166082.0
2014-Oct-29 07:33N 23°04' E 113°29'66328748.9
2014-Oct-29 07:32N 31°59' E 120°51'72087.0
2014-Oct-29 07:32N 32°01' E 120°43'3110226.2
2014-Oct-29 07:31N 31°40' E 121°11'42150502.7
2014-Oct-29 07:31N 38°41' E 121°29'4133199.2
2014-Oct-29 07:23N 31°48' E 121°04'66211286.4
2014-Oct-29 07:20N 23°04' E 113°29'183236.5
2014-Oct-29 06:33N 23°18' E 116°47'183109609.5
2014-Oct-29 06:33N 23°04' E 113°29'64444555.9
2014-Oct-29 06:32N 31°57' E 120°17'64689439.1
2014-Oct-29 06:32N 23°04' E 113°25'66416255.7
2014-Oct-29 06:29N 31°48' E 121°04'10283.0
2014-Oct-29 06:27N 31°40' E 121°11'252045.3
2014-Oct-29 06:27N 31°59' E 120°51'6624.7
2014-Oct-29 06:26N 32°01' E 120°44'3717414.3
2014-Oct-29 06:23N 25°57' E 119°23'7723233.6
2014-Oct-29 06:09N 38°42' E 121°27'43145602.3
2014-Oct-29 06:08N 31°31' E 121°21'550946.2
2014-Oct-29 05:33N 23°18' E 116°47'18382207.3
2014-Oct-29 05:33N 23°04' E 113°29'65918685.6
2014-Oct-29 05:31N 31°40' E 121°11'185851.7
2014-Oct-29 05:31N 31°29' E 121°26'271190.2
2014-Oct-29 05:30N 31°48' E 121°04'151538.2
2014-Oct-29 05:29N 31°59' E 120°51'405161875.4
2014-Oct-29 05:29N 38°42' E 121°29'40324581.3
2014-Oct-29 05:28N 32°01' E 120°44'564621.4
2014-Oct-29 04:33N 23°18' E 116°47'56484595.9
2014-Oct-29 04:33N 31°59' E 120°51'664119475.0
2014-Oct-29 04:33N 23°05' E 113°27'65937044.2
2014-Oct-29 04:32N 31°23' E 121°30'843659.0
2014-Oct-29 04:30N 31°59' E 120°01'66031666.1
2014-Oct-29 04:29N 22°19' E 114°09'67629322.4
2014-Oct-29 04:28N 31°40' E 121°11'1056.3
2014-Oct-29 04:17N 31°48' E 121°04'5065.9
2014-Oct-29 03:32N 31°58' E 120°06'501425.3
2014-Oct-29 03:30N 31°48' E 121°04'10374.2
2014-Oct-29 03:28N 31°40' E 121°11'6651197363.8
2014-Oct-29 03:28N 23°03' E 113°20'10294349.9
2014-Oct-29 03:14N 38°43' E 121°29'53810477.3
2014-Oct-29 03:11N 29°46' E 122°22'172274.7
2014-Oct-29 02:33N 31°57' E 120°12'41126889.9
2014-Oct-29 02:32N 38°43' E 121°29'42344735.8
2014-Oct-29 02:32N 31°40' E 121°11'68023103.4
2014-Oct-29 02:30N 22°27' E 113°46'68351213.9
2014-Oct-29 02:29N 31°48' E 121°04'1341247.1
2014-Oct-29 02:23N 29°52' E 122°21'1571687.9
2014-Oct-29 02:17N 31°60' E 120°35'406555.2
2014-Oct-29 01:33N 38°43' E 121°30'41052654.5
2014-Oct-29 01:33N 31°58' E 120°17'12374.7
2014-Oct-29 01:31N 32°01' E 120°31'401087.6
2014-Oct-29 01:29N 31°40' E 121°11'10112.3
2014-Oct-29 01:24N 31°48' E 121°04'6832511.0
2014-Oct-29 01:07N 22°27' E 113°46'193245.6
2014-Oct-29 01:07N 22°20' E 114°05'6771177.6
2014-Oct-29 00:33N 31°40' E 121°11'456191.0
2014-Oct-29 00:32N 32°00' E 120°23'3626150.8
2014-Oct-29 00:32N 31°48' E 121°04'351532.2
2014-Oct-29 00:31N 32°01' E 120°25'405121612.1
2014-Oct-29 00:30N 38°43' E 121°33'105524501.4
2014-Oct-29 00:28N 22°27' E 113°46'10541161.9
2014-Oct-28 23:33N 38°42' E 121°30'403145061.0
2014-Oct-28 23:33N 32°02' E 120°30'9272.0
2014-Oct-28 23:31N 31°58' E 120°21'461527.0
2014-Oct-28 23:30N 31°40' E 121°11'1086.3
2014-Oct-28 23:23N 31°48' E 121°04'6835599.7
2014-Oct-28 23:15N 22°22' E 113°55'680968.8
2014-Oct-28 22:33N 32°00' E 120°38'157526.8
2014-Oct-28 22:33N 31°58' E 120°21'31629142.3
2014-Oct-28 22:33N 36°54' E 122°35'32146245.6
2014-Oct-28 22:32N 31°40' E 121°11'9272.8
2014-Oct-28 22:30N 31°48' E 121°04'3840.5
2014-Oct-28 21:33N 31°58' E 120°21'1633392.3
2014-Oct-28 21:30N 29°53' E 122°22'13326590.3
2014-Oct-28 21:30N 31°48' E 121°04'91090.7
2014-Oct-28 21:30N 31°40' E 121°11'3641888.0
2014-Oct-28 21:18N 37°44' E 121°12'364488.0
2014-Oct-28 20:33N 31°40' E 121°11'36376820.2
2014-Oct-28 20:33N 37°43' E 121°15'34823618.8
2014-Oct-28 20:32N 31°58' E 120°21'381187.7
2014-Oct-28 20:30N 31°48' E 121°04'355366.4
2014-Oct-28 19:32N 37°43' E 121°21'362118635.5
2014-Oct-28 19:32N 31°40' E 121°11'4633297.3
2014-Oct-28 19:32N 31°58' E 120°21'381563.7
2014-Oct-28 19:30N 31°48' E 121°04'68317429.3
2014-Oct-28 19:28N 22°27' E 113°46'6795104.9
2014-Oct-28 19:20N 31°48' E 120°57'5 6.3
2014-Oct-28 18:33N 31°47' E 121°03'35553189.5
2014-Oct-28 18:33N 37°41' E 121°25'3478275.4
2014-Oct-28 18:30N 31°58' E 120°21'3911830.3
2014-Oct-28 18:30N 31°46' E 121°05'7292.2
2014-Oct-28 18:28N 31°40' E 121°11'680116621.7
2014-Oct-28 18:28N 22°27' E 113°46'679741.8
2014-Oct-28 17:33N 31°47' E 120°59'121364.7
2014-Oct-28 17:33N 31°40' E 121°11'36110843.1
2014-Oct-28 17:31N 37°42' E 121°30'34839132.8
2014-Oct-28 17:30N 31°58' E 120°21'6709651.9
2014-Oct-28 17:26N 22°27' E 113°46'16363.2
2014-Oct-28 17:23N 22°42' E 113°41'67219663.7
2014-Oct-28 17:21N 31°41' E 121°11'367452.9
2014-Oct-28 16:33N 37°48' E 121°32'35411917.6
2014-Oct-28 16:31N 31°58' E 120°21'463783.6
2014-Oct-28 16:30N 31°40' E 121°11'18366.2
2014-Oct-28 16:27N 31°51' E 120°54'68031787.1
2014-Oct-28 16:26N 22°27' E 113°46'68111566.4
2014-Oct-28 16:22N 31°41' E 121°11'6734497.9
2014-Oct-28 16:13N 22°44' E 113°34'225.3
2014-Oct-28 16:08N 22°44' E 113°37'6741156.0
2014-Oct-28 15:33N 31°56' E 120°52'2710665.0
2014-Oct-28 15:33N 31°58' E 120°21'4623888.0
2014-Oct-28 15:33N 31°41' E 121°11'674808348.9
2014-Oct-28 15:33N 22°45' E 113°33'993102158.1
2014-Oct-28 15:33N 37°48' E 121°31'3684372.3
2014-Oct-28 15:28N 31°40' E 121°11'67819673.0
2014-Oct-28 15:25N 22°26' E 113°53'288528.2
2014-Oct-28 15:25N 22°45' E 113°30'31939.8
2014-Oct-28 15:23N 22°14' E 113°36'10191182.2
2014-Oct-28 14:32N 37°48' E 121°27'3689206.0
2014-Oct-28 14:29N 31°40' E 121°11'67818066.8
2014-Oct-28 14:27N 22°45' E 113°24'663596832.9
2014-Oct-28 14:27N 31°57' E 120°18'251056.9
2014-Oct-28 14:25N 32°00' E 120°46'16026105.9
2014-Oct-28 14:25N 29°40' E 122°15'1337581.3
2014-Oct-28 14:24N 31°41' E 121°11'1334134.9
2014-Oct-28 14:22N 29°40' E 122°15'1306.6
2014-Oct-28 14:22N 29°41' E 122°15'0 3.9
2014-Oct-28 14:19N 29°41' E 122°15'6325731.2
2014-Oct-28 14:12N 22°45' E 113°24'6761031.3
2014-Oct-28 13:33N 31°60' E 120°40'35012016.4
2014-Oct-28 13:31N 37°48' E 121°22'99281190.7
2014-Oct-28 13:30N 22°48' E 113°19'67969812.8
2014-Oct-28 13:30N 31°41' E 121°11'120.7
2014-Oct-28 13:27N 31°40' E 121°11'67726496.7
2014-Oct-28 13:26N 22°48' E 113°20'11551.6
2014-Oct-28 13:24N 22°54' E 113°30'42119.8
2014-Oct-28 13:03N 22°12' E 113°35'6971392.8
2014-Oct-28 12:33N 32°01' E 120°34'6972509817.6
2014-Oct-28 12:33N 22°12' E 113°35'101798957.3
2014-Oct-28 12:33N 37°31' E 121°57'3525659.6
2014-Oct-28 12:29N 31°40' E 121°11'501285.0
2014-Oct-28 12:26N 31°57' E 120°15'6662396067.5
2014-Oct-28 12:26N 22°46' E 113°13'677761.0
2014-Oct-28 11:33N 32°02' E 120°28'7364.4
2014-Oct-28 11:32N 31°59' E 120°20'47168364.2
2014-Oct-28 11:32N 31°40' E 121°11'69917982.5
2014-Oct-28 11:30N 22°12' E 113°35'7009846.9
2014-Oct-28 11:25N 31°41' E 121°11'3571763.5
2014-Oct-28 11:13N 25°57' E 119°23'357532.8
2014-Oct-28 10:33N 31°42' E 121°09'4275956.8
2014-Oct-28 10:33N 32°01' E 120°24'41607.0
2014-Oct-28 10:33N 32°04' E 120°27'1713173.5
2014-Oct-28 10:30N 29°40' E 122°15'6482334489.0
2014-Oct-28 10:30N 22°12' E 113°35'40713.6
2014-Oct-28 10:26N 22°51' E 113°34'36819794.8
2014-Oct-28 10:25N 25°57' E 119°23'2703075.4
2014-Oct-28 10:20N 29°41' E 122°14'1549581.5
2014-Oct-28 10:19N 31°58' E 120°50'33151.2
2014-Oct-28 10:06N 31°57' E 120°12'2036.3
2014-Oct-28 09:33N 32°03' E 120°34'699251692.5
2014-Oct-28 09:33N 22°11' E 113°35'68698851.7
2014-Oct-28 09:32N 31°57' E 120°17'474197.9
2014-Oct-28 09:32N 31°42' E 121°08'44513.7
2014-Oct-28 09:27N 31°59' E 120°21'34230816.2
2014-Oct-28 09:26N 37°32' E 121°57'33881124.4
2014-Oct-28 09:26N 31°58' E 120°50'3693457.7
2014-Oct-28 09:19N 25°57' E 119°23'363475.5
2014-Oct-28 08:33N 31°57' E 120°18'7560.9
2014-Oct-28 08:33N 32°01' E 120°24'69337789.5
2014-Oct-28 08:32N 22°11' E 113°36'39058473.1
2014-Oct-28 08:31N 25°57' E 119°23'705133585.4
2014-Oct-28 08:31N 37°30' E 121°57'35111908.6
2014-Oct-28 08:29N 31°42' E 121°08'22196.9
2014-Oct-28 08:22N 31°58' E 120°50'43330.7
2014-Oct-28 08:15N 31°29' E 121°27'5783.1
2014-Oct-28 07:33N 32°02' E 120°32'161774.0
2014-Oct-28 07:33N 31°58' E 120°50'227346.8
2014-Oct-28 07:33N 31°42' E 121°08'3151133960.5
2014-Oct-28 07:33N 36°49' E 122°30'31542035.9
2014-Oct-28 07:32N 31°56' E 120°12'74133961.2
2014-Oct-28 07:32N 31°25' E 121°31'69752296.1
2014-Oct-28 07:31N 22°11' E 113°36'39073857.4
2014-Oct-28 07:31N 25°57' E 119°23'3611116.7
2014-Oct-28 07:12N 31°56' E 120°13'2 3.0
2014-Oct-28 06:33N 31°56' E 120°10'62835.7
2014-Oct-28 06:33N 31°57' E 120°04'39965.5
2014-Oct-28 06:31N 31°58' E 120°50'22434.9
2014-Oct-28 06:28N 31°42' E 121°08'3578388.8
2014-Oct-28 06:25N 25°57' E 119°23'3904091.0
2014-Oct-28 06:19N 22°11' E 113°36'11131455.2
2014-Oct-28 05:34N 39°57' E 119°50'48012710.4
2014-Oct-28 05:31N 31°57' E 120°04'578903.8
2014-Oct-28 05:31N 31°42' E 121°08'69914054.5
2014-Oct-28 05:28N 22°11' E 113°36'531955.2
2014-Oct-28 05:26N 23°02' E 113°21'5359.7
2014-Oct-28 04:33N 22°11' E 113°36'546063.9
2014-Oct-28 04:33N 23°04' E 113°26'497.7
2014-Oct-28 04:30N 23°03' E 113°30'1057475673.9
2014-Oct-28 04:30N 39°50' E 119°47'49346690.5
2014-Oct-28 04:29N 31°42' E 121°08'66532789.6
2014-Oct-28 04:28N 22°53' E 113°34'66816258.6
2014-Oct-28 04:26N 31°58' E 120°51'719.4
2014-Oct-28 04:04N 32°02' E 120°44'37226778.8
2014-Oct-28 04:04N 25°57' E 119°23'390767.9
2014-Oct-28 03:33N 22°11' E 113°36'69938702.5
2014-Oct-28 03:32N 31°42' E 121°08'66321114.2
2014-Oct-28 03:30N 23°03' E 113°24'51218.1
2014-Oct-28 03:16N 22°11' E 113°25'702252743.3
2014-Oct-28 03:16N 31°24' E 121°31'3453259.2
2014-Oct-28 03:10N 25°57' E 119°23'3694367.4
2014-Oct-28 03:04N 31°58' E 120°50'2241.7
2014-Oct-28 02:33N 31°42' E 121°08'321002.7
2014-Oct-28 02:31N 31°60' E 120°36'3687008.4
2014-Oct-28 02:28N 25°57' E 119°23'3665727.8
2014-Oct-28 02:24N 23°04' E 113°29'66279445.5
2014-Oct-28 02:23N 31°58' E 120°50'70313113.9
2014-Oct-28 02:20N 22°11' E 113°36'4325224.4
2014-Oct-28 02:15N 26°45' E 119°43'2911670.3
2014-Oct-28 02:05N 31°21' E 121°27'64122.3
2014-Oct-28 01:33N 32°02' E 120°30'6428598.5
2014-Oct-28 01:33N 31°21' E 121°27'69330797.2
2014-Oct-28 01:32N 22°11' E 113°36'8288.3
2014-Oct-28 01:30N 22°10' E 113°27'1141984.7
2014-Oct-28 01:27N 23°04' E 115°15'6109107.0
2014-Oct-28 01:23N 32°01' E 120°42'37016437.8
2014-Oct-28 01:22N 25°57' E 119°23'3892796.2
2014-Oct-28 01:13N 22°13' E 113°35'6901039.7
2014-Oct-28 00:33N 31°60' E 120°23'6710459.9
2014-Oct-28 00:33N 31°21' E 121°27'36810348.5
2014-Oct-28 00:31N 37°29' E 121°58'97014132.3
2014-Oct-28 00:27N 23°04' E 113°29'66255427.5
2014-Oct-28 00:26N 31°58' E 120°50'70935932.7
2014-Oct-28 00:25N 22°09' E 113°28'10210.9
2014-Oct-28 00:22N 22°16' E 113°36'5102.3
2014-Oct-28 00:19N 22°11' E 113°36'3906153.7
2014-Oct-28 00:15N 25°57' E 119°23'3882077.4
2014-Oct-28 00:04N 22°14' E 113°35'389758.6
2014-Oct-27 23:33N 25°58' E 119°24'389100125.2
2014-Oct-27 23:33N 22°14' E 113°35'684189361.0
2014-Oct-27 23:33N 31°57' E 120°17'282205.1
2014-Oct-27 23:32N 31°58' E 120°50'34053162.1
2014-Oct-27 23:32N 37°34' E 121°55'1019111173.7
2014-Oct-27 23:31N 22°11' E 113°36'69336686.9
2014-Oct-27 23:30N 31°21' E 121°27'69632547.5
2014-Oct-27 23:29N 22°10' E 113°31'541488.9
2014-Oct-27 23:27N 23°04' E 113°29'97785790.3
2014-Oct-27 23:26N 37°51' E 121°25'8 9.3
2014-Oct-27 22:34N 37°44' E 121°19'709850922.0
2014-Oct-27 22:33N 26°01' E 119°30'35843014.2
2014-Oct-27 22:33N 31°57' E 120°17'7012623.7
2014-Oct-27 22:33N 31°21' E 121°27'69331579.3
2014-Oct-27 22:31N 22°11' E 113°36'499.9
2014-Oct-27 22:29N 22°10' E 113°31'99642178.3
2014-Oct-27 22:27N 36°49' E 122°29'95373031.2
2014-Oct-27 22:27N 23°03' E 113°21'501228.1
2014-Oct-27 22:24N 22°14' E 113°36'701360281.2
2014-Oct-27 22:24N 31°58' E 120°50'662103621.2
2014-Oct-27 22:24N 23°04' E 113°29'974159302.9
2014-Oct-27 22:23N 37°34' E 121°56'3514810.8
2014-Oct-27 22:19N 31°46' E 120°56'319420.8
2014-Oct-27 21:34N 36°55' E 122°28'31262499.7
2014-Oct-27 21:33N 32°00' E 120°24'652234606.1
2014-Oct-27 21:33N 23°04' E 113°26'6641194943.2
2014-Oct-27 21:33N 31°58' E 120°50'482153.0
2014-Oct-27 21:32N 31°21' E 121°27'693124733.1
2014-Oct-27 21:31N 22°11' E 113°36'101534466.5
2014-Oct-27 21:30N 37°43' E 121°20'10174799.9
2014-Oct-27 21:17N 22°10' E 113°31'69915162.3
2014-Oct-27 21:14N 31°46' E 120°56'35238375.1
2014-Oct-27 21:14N 37°34' E 121°56'97434712.4
2014-Oct-27 21:12N 23°04' E 113°29'6541014.2
2014-Oct-27 20:33N 31°21' E 121°27'38237149.7
2014-Oct-27 20:33N 37°43' E 121°18'34619449.2
2014-Oct-27 20:31N 31°58' E 120°50'1730211.0
2014-Oct-27 20:31N 32°02' E 120°31'69738604.8
2014-Oct-27 20:30N 22°11' E 113°36'5331915.0
2014-Oct-27 20:30N 23°04' E 113°29'0 5.5
2014-Oct-27 20:27N 23°04' E 113°29'97614161.8
2014-Oct-27 20:23N 37°35' E 121°59'102410717.7
2014-Oct-27 20:17N 22°10' E 113°31'6996035.9
2014-Oct-27 20:10N 31°46' E 120°56'1321.8
2014-Oct-27 19:33N 31°58' E 120°50'662158911.3
2014-Oct-27 19:33N 23°04' E 113°29'96779121.2
2014-Oct-27 19:33N 37°44' E 121°15'1013140283.3
2014-Oct-27 19:32N 22°11' E 113°38'69592675.7
2014-Oct-27 19:32N 31°46' E 120°56'3643346.1
2014-Oct-27 19:32N 31°21' E 121°27'37571006.8
2014-Oct-27 19:31N 37°35' E 122°03'97713176.7
2014-Oct-27 19:27N 23°04' E 113°29'54823.3
2014-Oct-27 19:23N 22°10' E 113°31'10181238.7
2014-Oct-27 18:34N 37°44' E 121°20'382196658.5
2014-Oct-27 18:33N 31°21' E 121°27'6865070.8
2014-Oct-27 18:25N 22°15' E 113°43'50744.5
2014-Oct-27 18:21N 23°04' E 113°29'97730061.3
2014-Oct-27 18:19N 37°35' E 122°02'9774911.5
2014-Oct-27 18:07N 23°04' E 113°30'627107468.4
2014-Oct-27 18:07N 29°49' E 122°24'66318087.6
2014-Oct-27 18:05N 22°10' E 113°31'10211897.6
2014-Oct-27 17:33N 37°44' E 121°25'1007906230.1
2014-Oct-27 17:32N 22°20' E 113°44'68162882.1
2014-Oct-27 17:32N 31°21' E 121°27'65424801.2
2014-Oct-27 17:30N 23°04' E 113°29'97552363.8
2014-Oct-27 17:29N 37°33' E 122°00'3487250.2
2014-Oct-27 17:26N 31°58' E 120°05'6594162.0
2014-Oct-27 17:17N 22°28' E 113°52'4257.4
2014-Oct-27 16:33N 23°04' E 113°29'976585538.0
2014-Oct-27 16:33N 37°34' E 122°02'301705.3
2014-Oct-27 16:32N 37°45' E 121°26'384138219.0
2014-Oct-27 16:32N 31°21' E 121°27'676202942.3
2014-Oct-27 16:32N 22°25' E 113°45'82458.8
2014-Oct-27 16:32N 22°25' E 113°54'4581346.9
2014-Oct-27 16:31N 23°04' E 113°30'64010338.9
2014-Oct-27 16:28N 31°57' E 120°10'34108.0
2014-Oct-27 16:09N 31°58' E 120°51'41526.0
2014-Oct-27 16:04N 31°30' E 121°26'66128.6
2014-Oct-27 15:33N 31°57' E 120°15'7151211.5
2014-Oct-27 15:33N 31°21' E 121°27'6236.0
2014-Oct-27 15:32N 31°28' E 121°28'677187414.6
2014-Oct-27 15:31N 22°44' E 113°26'996143426.0
2014-Oct-27 15:31N 37°35' E 122°02'29431.8
2014-Oct-27 15:27N 37°45' E 121°28'102213782.4
2014-Oct-27 15:23N 22°10' E 113°31'542460.2
2014-Oct-27 15:21N 23°04' E 113°29'1 1.8
2014-Oct-27 15:04N 23°04' E 113°30'6541271.7
2014-Oct-27 14:33N 31°21' E 121°27'6941367.7
2014-Oct-27 14:33N 31°59' E 120°20'64719086.1
2014-Oct-27 14:31N 23°04' E 113°30'659124891.2
2014-Oct-27 14:31N 31°25' E 121°32'3802841.4
2014-Oct-27 14:23N 37°45' E 121°33'4766613.6
2014-Oct-27 14:19N 29°51' E 122°22'6273980.8
2014-Oct-27 14:09N 23°04' E 113°29'9741635.5
2014-Oct-27 13:34N 37°45' E 121°30'384460932.4
2014-Oct-27 13:33N 31°21' E 121°31'69125071.6
2014-Oct-27 13:33N 32°01' E 120°24'65154487.7
2014-Oct-27 13:33N 23°04' E 113°29'65428049.8
2014-Oct-27 13:31N 31°21' E 121°27'6727180.6
2014-Oct-27 13:26N 22°26' E 113°51'676753.0
2014-Oct-27 12:32N 32°02' E 120°30'644602.4
2014-Oct-27 12:31N 31°21' E 121°27'384276281.8
2014-Oct-27 12:31N 37°45' E 121°25'3466015.5
2014-Oct-27 12:27N 32°02' E 120°31'691160.4
2014-Oct-27 12:24N 31°15' E 121°30'95500.6
2014-Oct-27 12:13N 32°05' E 119°55'64012806.6
2014-Oct-27 12:10N 23°04' E 113°29'135.1
2014-Oct-27 12:09N 23°04' E 113°30'6561117.1
2014-Oct-27 11:33N 32°01' E 120°35'5942739.1
2014-Oct-27 11:33N 31°21' E 121°27'67343278.7
2014-Oct-27 11:32N 22°23' E 113°54'679174494.6
2014-Oct-27 11:32N 32°01' E 120°33'3462038.4
2014-Oct-27 11:22N 37°45' E 121°18'970249365.8
2014-Oct-27 11:22N 23°04' E 113°29'9743970.7
2014-Oct-27 11:07N 37°34' E 121°57'373648.7
2014-Oct-27 10:32N 31°21' E 121°27'69611134.4
2014-Oct-27 10:29N 22°10' E 113°32'25528.7
2014-Oct-27 10:26N 22°27' E 113°51'99058426.1
2014-Oct-27 10:25N 37°42' E 121°09'9631111.0
2014-Oct-27 09:33N 23°04' E 113°29'655147326.8
2014-Oct-27 09:33N 31°22' E 121°28'67253777.4
2014-Oct-27 09:32N 22°27' E 113°51'25219.5
2014-Oct-27 09:25N 22°10' E 113°32'10214654.4
2014-Oct-27 09:12N 37°33' E 121°56'9731492.6
2014-Oct-27 08:33N 23°04' E 113°29'662148978.9
2014-Oct-27 08:33N 31°58' E 120°50'491878.0
2014-Oct-27 08:31N 31°22' E 121°28'3314560.3
2014-Oct-27 08:27N 36°49' E 122°27'99514735.3
2014-Oct-27 08:23N 22°10' E 113°31'102026038.1
2014-Oct-27 08:20N 37°31' E 121°57'99833578.8
2014-Oct-27 08:19N 22°28' E 113°46'6777911.3
2014-Oct-27 08:13N 31°46' E 120°56'6557891.3
2014-Oct-27 08:08N 23°04' E 113°30'4 6.2
2014-Oct-27 07:32N 23°04' E 113°25'657337816.5
2014-Oct-27 07:32N 31°22' E 121°28'4934930.8
2014-Oct-27 07:31N 31°58' E 120°50'68443964.1
2014-Oct-27 07:31N 22°28' E 113°46'67710195.7
2014-Oct-27 07:27N 31°46' E 120°56'65512484.7
2014-Oct-27 07:23N 23°04' E 113°30'655777.1
2014-Oct-27 06:33N 31°22' E 121°28'6618436.2
2014-Oct-27 06:28N 23°02' E 113°21'51176.1
2014-Oct-27 06:11N 22°11' E 113°25'26372.2
2014-Oct-27 06:07N 22°28' E 113°46'392025.6
2014-Oct-27 06:05N 23°04' E 113°30'6551226.6
2014-Oct-27 05:33N 31°22' E 121°28'228620.5
2014-Oct-27 05:33N 31°39' E 121°13'3101.1
2014-Oct-27 05:32N 31°40' E 121°11'65917704.7
2014-Oct-27 05:29N 23°04' E 113°30'534550.2
2014-Oct-27 05:29N 22°11' E 113°25'699759.9
2014-Oct-27 04:34N 31°22' E 121°28'24803.8
2014-Oct-27 04:32N 31°40' E 121°11'67615305.9
2014-Oct-27 04:29N 22°18' E 114°09'2018226.6
2014-Oct-27 04:29N 22°30' E 113°51'39904.4
2014-Oct-27 04:26N 23°04' E 113°30'6624737.0
2014-Oct-27 04:18N 31°58' E 120°50'4862.4
2014-Oct-27 03:32N 31°22' E 121°28'66837602.9
2014-Oct-27 03:30N 22°31' E 113°52'674186722.2
2014-Oct-27 03:30N 31°40' E 121°11'65947448.0
2014-Oct-27 03:29N 23°04' E 113°30'65911809.4
2014-Oct-27 03:26N 31°29' E 121°27'6653464.5
2014-Oct-27 03:15N 23°02' E 113°22'4 5.1
2014-Oct-27 02:33N 23°04' E 113°25'657181872.3
2014-Oct-27 02:33N 31°22' E 121°28'483629.5
2014-Oct-27 02:32N 31°58' E 120°50'471995.4
2014-Oct-27 02:31N 31°26' E 121°30'65923725.5
2014-Oct-27 02:29N 23°04' E 113°30'404237.0
2014-Oct-27 02:29N 22°29' E 113°51'67636883.9
2014-Oct-27 02:28N 31°40' E 121°11'2425.8
2014-Oct-27 01:32N 31°22' E 121°28'655392744.1
2014-Oct-27 01:32N 23°04' E 113°30'656295302.0
2014-Oct-27 01:32N 31°22' E 121°30'65611252.0
2014-Oct-27 01:29N 23°04' E 113°29'6603843.9
2014-Oct-27 01:18N 31°23' E 121°35'67722355.0
2014-Oct-27 01:16N 22°27' E 113°51'18107.0
2014-Oct-27 01:06N 22°18' E 114°08'6701192.6
2014-Oct-27 00:33N 31°22' E 121°28'863487.7
2014-Oct-27 00:31N 32°02' E 119°58'882587.1
2014-Oct-27 00:29N 31°22' E 121°30'65613736.3
2014-Oct-27 00:26N 23°04' E 113°29'012.3
2014-Oct-27 00:26N 23°04' E 113°29'66221865.3
2014-Oct-27 00:24N 31°58' E 120°50'33113.3
2014-Oct-27 00:07N 31°57' E 120°12'73129.7
2014-Oct-26 23:33N 31°22' E 121°28'9330.9
2014-Oct-26 23:31N 31°13' E 121°30'441359.8
2014-Oct-26 23:29N 31°46' E 120°56'65676136.5
2014-Oct-26 23:29N 23°04' E 113°29'6384469.3
2014-Oct-26 23:20N 32°00' E 119°59'63814632.7
2014-Oct-26 23:17N 23°04' E 113°29'65344382.1
2014-Oct-26 23:16N 31°16' E 121°33'76583.3
2014-Oct-26 23:09N 31°59' E 120°19'4 6.9
2014-Oct-26 22:33N 32°00' E 120°23'678053.9
2014-Oct-26 22:33N 31°22' E 121°28'65511224.2
2014-Oct-26 22:29N 23°04' E 113°29'015.8
2014-Oct-26 22:29N 23°04' E 113°29'65512683.9
2014-Oct-26 22:25N 31°46' E 120°55'1 1.4
2014-Oct-26 21:33N 31°46' E 120°56'3614493.7
2014-Oct-26 21:33N 31°22' E 121°28'631975.1
2014-Oct-26 21:31N 32°02' E 120°32'65513714.3
2014-Oct-26 21:29N 23°04' E 113°29'0 6.0
2014-Oct-26 21:26N 23°04' E 113°29'655740.1
2014-Oct-26 20:33N 31°22' E 121°28'65510116.3
2014-Oct-26 20:29N 23°04' E 113°29'015.5
2014-Oct-26 20:29N 23°04' E 113°29'655712.3
2014-Oct-26 19:33N 31°22' E 121°28'48938.4
2014-Oct-26 19:30N 31°58' E 120°50'15546613.6
2014-Oct-26 19:30N 29°41' E 122°15'61650371.4
2014-Oct-26 19:29N 23°04' E 113°29'016.4
2014-Oct-26 19:29N 23°04' E 113°29'6531620.0
2014-Oct-26 19:04N 31°16' E 121°33'3160.6
2014-Oct-26 18:34N 31°40' E 121°11'24251.7
2014-Oct-26 18:28N 31°22' E 121°28'107895.0
2014-Oct-26 18:21N 29°46' E 122°24'63976683.9
2014-Oct-26 18:20N 22°26' E 113°48'42940.0
2014-Oct-26 18:17N 23°04' E 113°29'0 3.2
2014-Oct-26 18:14N 23°04' E 113°29'660965.5
2014-Oct-26 17:33N 31°39' E 121°14'66012505.4
2014-Oct-26 17:29N 23°04' E 113°29'441286.6
2014-Oct-26 17:27N 22°22' E 113°44'68427045.9
2014-Oct-26 17:26N 31°24' E 121°31'108887.2
2014-Oct-26 17:18N 29°42' E 122°12'6212903.7
2014-Oct-26 17:06N 22°53' E 113°30'62150815.0
2014-Oct-26 17:05N 29°42' E 122°12'62241493.2
2014-Oct-26 17:04N 22°55' E 113°27'3 6.6
2014-Oct-26 16:33N 22°53' E 113°30'374485.3
2014-Oct-26 16:33N 22°17' E 113°40'693113407.9
2014-Oct-26 16:33N 31°43' E 121°08'66012181.8
2014-Oct-26 16:29N 23°04' E 113°29'6164107.8
2014-Oct-26 16:20N 29°41' E 122°16'11156949.7
2014-Oct-26 16:20N 31°24' E 121°31'65810677.3
2014-Oct-26 16:17N 23°04' E 113°29'1115.7
2014-Oct-26 15:33N 22°53' E 113°30'428900.6
2014-Oct-26 15:33N 22°11' E 113°35'647332814.7
2014-Oct-26 15:33N 29°42' E 122°12'1315487.8
2014-Oct-26 15:32N 31°42' E 121°11'2383971.5
2014-Oct-26 15:32N 31°25' E 121°30'10932591.8
2014-Oct-26 15:31N 29°43' E 122°12'1356.8
2014-Oct-26 15:31N 29°42' E 122°13'14013302.8
2014-Oct-26 15:31N 31°46' E 120°56'14084214.2
2014-Oct-26 15:31N 29°42' E 122°12'61518749.6
2014-Oct-26 15:29N 23°04' E 113°29'0 2.6
2014-Oct-26 15:24N 23°04' E 113°29'66050523.0
2014-Oct-26 15:23N 31°29' E 121°27'114653.9
2014-Oct-26 15:12N 29°42' E 122°12'621948.7
2014-Oct-26 14:33N 22°53' E 113°30'66763214.7
2014-Oct-26 14:32N 31°26' E 121°30'8940151.5
2014-Oct-26 14:32N 32°06' E 119°56'557957.5
2014-Oct-26 14:32N 31°46' E 120°56'696313263.0
2014-Oct-26 14:32N 22°12' E 113°34'52377.0
2014-Oct-26 14:23N 23°04' E 113°29'6532414.1
2014-Oct-26 14:07N 31°16' E 121°33'17624.4
2014-Oct-26 14:06N 31°30' E 121°23'15535.7
2014-Oct-26 14:04N 31°42' E 121°11'147287.1
2014-Oct-26 13:33N 29°31' E 122°27'12363094.5
2014-Oct-26 13:33N 31°24' E 121°31'66623984.1
2014-Oct-26 13:31N 22°53' E 113°30'4216703.9
2014-Oct-26 13:31N 22°12' E 113°34'68168138.6
2014-Oct-26 13:31N 32°01' E 119°58'915488.8
2014-Oct-26 13:30N 31°14' E 121°30'65044148.5
2014-Oct-26 13:29N 23°04' E 113°30'65630258.7
2014-Oct-26 13:28N 31°46' E 120°56'65642161.8
2014-Oct-26 13:27N 23°04' E 113°29'66215785.8
2014-Oct-26 13:24N 31°58' E 120°51'242857.3
2014-Oct-26 13:24N 31°42' E 121°11'6173.2
2014-Oct-26 12:34N 31°58' E 120°02'646775573.4
2014-Oct-26 12:33N 22°53' E 113°30'66450859.0
2014-Oct-26 12:33N 31°19' E 121°34'69516784.9
2014-Oct-26 12:30N 22°12' E 113°34'69930705.1
2014-Oct-26 12:29N 31°39' E 121°14'282132.3
2014-Oct-26 12:28N 31°58' E 120°51'245711.7
2014-Oct-26 12:28N 31°42' E 121°11'66020840.7
2014-Oct-26 12:26N 23°04' E 113°30'115.5
2014-Oct-26 12:24N 23°04' E 113°29'6552950.8
2014-Oct-26 12:10N 31°47' E 120°53'1625.5
2014-Oct-26 11:34N 31°42' E 121°11'668601527.8
2014-Oct-26 11:33N 22°53' E 113°30'64613678.4
2014-Oct-26 11:31N 31°58' E 120°02'5718637.5
2014-Oct-26 11:30N 31°43' E 121°07'356226.6
2014-Oct-26 11:30N 31°14' E 121°29'6509323.8
2014-Oct-26 11:26N 23°04' E 113°30'66261094.8
2014-Oct-26 11:25N 31°58' E 120°50'6623718.5
2014-Oct-26 11:15N 23°04' E 113°29'65520502.0
2014-Oct-26 11:13N 31°47' E 120°53'6969900.0
2014-Oct-26 11:08N 22°12' E 113°34'6961193.8
2014-Oct-26 10:33N 31°47' E 120°53'6631193809.3
2014-Oct-26 10:33N 22°53' E 113°30'64613841.4
2014-Oct-26 10:31N 31°58' E 120°02'57926044.6
2014-Oct-26 10:29N 22°33' E 117°40'23328005.2
2014-Oct-26 10:29N 23°04' E 113°30'115.8
2014-Oct-26 10:27N 23°04' E 113°29'66013659.4
2014-Oct-26 10:24N 31°42' E 121°11'70012358.1
2014-Oct-26 10:20N 22°12' E 113°34'70331650.9
2014-Oct-26 10:19N 31°58' E 120°50'7082833.6
2014-Oct-26 10:04N 22°11' E 113°25'23519638.2
2014-Oct-26 10:03N 22°40' E 117°37'228457.2
2014-Oct-26 09:33N 22°53' E 113°30'64613924.2
2014-Oct-26 09:31N 31°58' E 120°02'601361.1
2014-Oct-26 09:28N 31°42' E 121°11'7005409.9
2014-Oct-26 09:20N 22°12' E 113°34'53923.6
2014-Oct-26 09:17N 23°04' E 113°30'115.1
2014-Oct-26 09:15N 23°04' E 113°29'9541364.9
2014-Oct-26 08:33N 36°55' E 122°29'3219889.0
2014-Oct-26 08:31N 31°58' E 120°02'63720114.1
2014-Oct-26 08:29N 23°04' E 113°30'11140.1
2014-Oct-26 08:24N 22°53' E 113°30'1 8.6
2014-Oct-26 08:18N 22°53' E 113°31'487829.1
2014-Oct-26 08:17N 22°18' E 114°07'68223842.2
2014-Oct-26 08:15N 31°58' E 120°50'70314225.8
2014-Oct-26 08:13N 22°12' E 113°34'4263.4
2014-Oct-26 07:33N 22°53' E 113°30'6718940.7
2014-Oct-26 07:29N 31°58' E 120°50'41567.4
2014-Oct-26 07:24N 31°58' E 120°02'63755946.1
2014-Oct-26 07:24N 23°04' E 113°29'6435703.1
2014-Oct-26 07:17N 31°57' E 120°15'1215.9
2014-Oct-26 06:33N 31°58' E 120°02'3198958.6
2014-Oct-26 06:31N 36°53' E 122°26'96054844.5
2014-Oct-26 06:30N 22°53' E 113°30'11498.3
2014-Oct-26 06:29N 23°04' E 113°30'1 7.4
2014-Oct-26 06:24N 23°04' E 113°29'6624074.6
2014-Oct-26 06:14N 31°58' E 120°50'4972.5
2014-Oct-26 05:34N 31°22' E 121°29'664597317.6
2014-Oct-26 05:33N 22°53' E 113°30'661297600.1
2014-Oct-26 05:33N 32°03' E 120°25'65334095.2
2014-Oct-26 05:32N 23°05' E 113°27'952107107.2
2014-Oct-26 05:32N 36°53' E 122°29'30616175.0
2014-Oct-26 05:31N 31°58' E 120°51'4116494.2
2014-Oct-26 05:30N 31°58' E 120°02'63724923.6
2014-Oct-26 05:29N 23°04' E 113°30'1111.7
2014-Oct-26 04:33N 22°53' E 113°30'66562970.9
2014-Oct-26 04:33N 32°04' E 120°29'254517.5
2014-Oct-26 04:32N 31°58' E 120°00'68015298.5
2014-Oct-26 04:30N 22°12' E 113°34'533103.1
2014-Oct-26 04:29N 23°04' E 113°30'10355.7
2014-Oct-26 04:27N 23°03' E 113°19'66462861.8
2014-Oct-26 04:26N 31°60' E 120°39'1028.5
2014-Oct-26 04:06N 31°58' E 120°51'6711207.0
2014-Oct-26 03:33N 22°53' E 113°30'66428102.4
2014-Oct-26 03:31N 32°01' E 120°32'67616220.6
2014-Oct-26 03:29N 22°18' E 114°07'5751498.7
2014-Oct-26 03:29N 23°04' E 113°30'53284.9
2014-Oct-26 03:18N 22°11' E 113°35'9894858.2
2014-Oct-26 03:05N 36°49' E 122°20'303567.9
2014-Oct-26 02:33N 32°01' E 120°25'69429740.8
2014-Oct-26 02:32N 22°11' E 113°35'44346.0
2014-Oct-26 02:24N 22°55' E 113°26'10653.3
2014-Oct-26 02:24N 23°04' E 113°29'66230955.6
2014-Oct-26 02:22N 31°58' E 120°51'6995976.8
2014-Oct-26 02:15N 22°16' E 113°36'684983.7
2014-Oct-26 01:33N 31°58' E 120°20'6885483.1
2014-Oct-26 01:26N 22°11' E 113°35'69567599.9
2014-Oct-26 01:25N 31°22' E 121°30'65622928.5
2014-Oct-26 01:24N 23°04' E 113°29'641763.0
2014-Oct-26 00:33N 31°56' E 120°13'36952.3
2014-Oct-26 00:31N 31°47' E 120°53'391907.5
2014-Oct-26 00:30N 31°21' E 121°27'641745.6
2014-Oct-26 00:28N 32°00' E 120°27'6944785.0
2014-Oct-26 00:19N 22°11' E 113°35'697921.5
2014-Oct-25 23:33N 32°02' E 120°29'65526184.7
2014-Oct-25 23:32N 23°04' E 113°29'6549131.0
2014-Oct-25 23:28N 31°21' E 121°27'69312174.3
2014-Oct-25 23:24N 22°11' E 113°35'698825.8
2014-Oct-25 22:34N 32°01' E 120°35'601026.1
2014-Oct-25 22:30N 31°21' E 121°27'6545569.2
2014-Oct-25 22:23N 23°04' E 113°29'6489717.9
2014-Oct-25 22:19N 32°16' E 119°52'69260726.2
2014-Oct-25 22:18N 22°11' E 113°35'693927.8
2014-Oct-25 21:33N 31°21' E 121°27'565550.9
2014-Oct-25 21:33N 32°00' E 120°41'50114.5
2014-Oct-25 21:06N 32°19' E 119°46'56102.5
2014-Oct-25 20:33N 32°01' E 120°48'512339.3
2014-Oct-25 20:32N 31°21' E 121°27'3811349.6
2014-Oct-25 20:15N 37°42' E 121°09'96313754.6
2014-Oct-25 20:11N 23°04' E 113°29'53563.3
2014-Oct-25 20:05N 22°11' E 113°35'5395.6
2014-Oct-25 19:32N 23°04' E 113°29'63615270.1
2014-Oct-25 19:29N 32°11' E 119°36'1071134.7
2014-Oct-25 19:24N 31°21' E 121°27'3841408.5
2014-Oct-25 19:07N 37°45' E 121°13'101524512.9
2014-Oct-25 19:05N 22°11' E 113°35'5396.7
2014-Oct-25 18:32N 23°04' E 113°29'65420134.5
2014-Oct-25 18:30N 31°21' E 121°27'69340913.2
2014-Oct-25 18:29N 22°11' E 113°35'68116463.0
2014-Oct-25 18:27N 31°58' E 120°04'47394.3
2014-Oct-25 18:19N 31°47' E 120°58'6 8.4
2014-Oct-25 17:33N 31°45' E 121°06'49689.5
2014-Oct-25 17:29N 31°57' E 120°10'756445.7
2014-Oct-25 17:28N 31°21' E 121°27'4417674.6
2014-Oct-25 17:25N 38°43' E 121°29'541649617.1
2014-Oct-25 17:25N 29°43' E 122°12'48979940.9
2014-Oct-25 17:24N 37°49' E 121°14'101842627.2
2014-Oct-25 17:23N 22°11' E 113°35'53212.1
2014-Oct-25 17:08N 23°04' E 113°29'62859487.5
2014-Oct-25 17:07N 32°12' E 119°16'123215.0
2014-Oct-25 16:33N 31°21' E 121°27'7232274.2
2014-Oct-25 16:33N 31°57' E 120°14'5338304.3
2014-Oct-25 16:33N 31°40' E 121°13'66044003.4
2014-Oct-25 16:32N 23°04' E 113°29'53497.9
2014-Oct-25 16:26N 22°11' E 113°35'1073101690.9
2014-Oct-25 16:25N 38°44' E 121°28'4465.7
2014-Oct-25 16:24N 38°43' E 121°33'118137.7
2014-Oct-25 15:33N 36°53' E 122°28'31421709.6
2014-Oct-25 15:32N 31°58' E 120°18'35519957.0
2014-Oct-25 15:31N 37°50' E 121°18'38811270.8
2014-Oct-25 15:29N 31°21' E 121°27'6548823.2
2014-Oct-25 15:24N 23°04' E 113°29'3644027.4
2014-Oct-25 15:19N 22°36' E 120°02'3468097.0
2014-Oct-25 15:16N 22°33' E 113°47'666930.4
2014-Oct-25 14:33N 31°60' E 120°22'6491167768.2
2014-Oct-25 14:33N 23°04' E 113°29'369664715.7
2014-Oct-25 14:33N 22°37' E 120°08'86617407.0
2014-Oct-25 14:30N 36°54' E 122°25'99631180.1
2014-Oct-25 14:29N 22°11' E 113°35'70331264.4
2014-Oct-25 14:27N 31°58' E 120°51'48294.8
2014-Oct-25 14:17N 31°21' E 121°27'6690.3
2014-Oct-25 13:33N 32°02' E 120°26'565508367.6
2014-Oct-25 13:33N 22°37' E 120°16'56296349.9
2014-Oct-25 13:33N 31°58' E 120°51'70397330.0
2014-Oct-25 13:33N 22°11' E 113°36'69340219.6
2014-Oct-25 13:32N 31°21' E 121°27'33615717.3
2014-Oct-25 13:30N 36°54' E 122°25'9516398.8
2014-Oct-25 13:21N 23°04' E 113°29'0 0.1
2014-Oct-25 12:34N 23°04' E 113°29'655471407.1
2014-Oct-25 12:33N 32°02' E 120°30'69652228.8
2014-Oct-25 12:33N 22°11' E 113°36'703253061.6
2014-Oct-25 12:32N 31°58' E 120°51'484133.7
2014-Oct-25 12:32N 31°21' E 121°27'33613595.5
2014-Oct-25 12:30N 36°54' E 122°25'69177.8
2014-Oct-25 12:07N 37°50' E 121°33'352630.3
2014-Oct-25 11:33N 32°01' E 120°35'35243723.7
2014-Oct-25 11:33N 37°50' E 121°30'38816261.9
2014-Oct-25 11:32N 31°21' E 121°27'34039470.8
2014-Oct-25 11:31N 36°50' E 123°11'32423321.6
2014-Oct-25 11:30N 31°47' E 120°53'6556774.9
2014-Oct-25 11:24N 23°04' E 113°29'53434.6
2014-Oct-25 11:17N 22°11' E 113°36'10221394.2
2014-Oct-25 10:33N 37°49' E 121°26'35148600.1
2014-Oct-25 10:33N 32°00' E 120°40'561388.5
2014-Oct-25 10:30N 31°21' E 121°27'3946458.2
2014-Oct-25 10:30N 31°47' E 120°53'69512836.6
2014-Oct-25 10:27N 22°11' E 113°36'541328.3
2014-Oct-25 10:24N 23°04' E 113°29'96719561.5
2014-Oct-25 10:21N 36°49' E 123°11'6318960.2
2014-Oct-25 10:21N 35°58' E 122°26'122153.3
2014-Oct-25 09:33N 37°47' E 121°20'101987320.8
2014-Oct-25 09:33N 22°11' E 113°36'70320744.8
2014-Oct-25 09:31N 31°58' E 120°51'6626239.8
2014-Oct-25 09:24N 23°04' E 113°29'10263989.7
2014-Oct-25 09:09N 38°44' E 121°30'10261732.9
2014-Oct-25 08:33N 23°04' E 113°29'96361893.1
2014-Oct-25 08:32N 37°42' E 121°09'101018641.3
2014-Oct-25 08:29N 22°11' E 113°36'0 0.0
2014-Oct-25 07:27N 22°11' E 113°36'541148.1
2014-Oct-25 07:24N 23°04' E 113°29'6582705.5
2014-Oct-25 07:10N 31°47' E 120°58'6581082.5
2014-Oct-25 06:33N 23°04' E 113°29'66053998.8
2014-Oct-25 06:33N 31°46' E 121°04'7003214.3
2014-Oct-25 06:20N 22°11' E 113°36'5469.6
2014-Oct-25 05:33N 23°04' E 113°29'66059395.7
2014-Oct-25 05:33N 31°40' E 121°13'69926484.2
2014-Oct-25 05:31N 22°11' E 113°37'6853567.6
2014-Oct-25 05:20N 31°57' E 120°16'2936.1
2014-Oct-25 04:31N 31°58' E 120°51'69858426.4
2014-Oct-25 04:30N 22°16' E 113°39'38687.2
2014-Oct-25 04:27N 22°53' E 113°32'47279.9
2014-Oct-25 04:27N 22°54' E 113°28'10241.2
2014-Oct-25 04:25N 23°04' E 113°29'6553034.2
2014-Oct-25 04:12N 31°47' E 120°53'6551028.2
2014-Oct-25 03:33N 23°04' E 113°29'65049816.5
2014-Oct-25 03:33N 31°14' E 121°29'123429.2
2014-Oct-25 03:32N 31°27' E 121°29'66585455.2
2014-Oct-25 03:32N 23°02' E 113°23'467266.2
2014-Oct-25 03:31N 22°19' E 113°42'6943482.3
2014-Oct-25 03:20N 31°58' E 120°51'4962.4
2014-Oct-25 02:33N 31°22' E 121°29'764577.1
2014-Oct-25 02:32N 31°55' E 120°08'36918.3
2014-Oct-25 02:29N 31°58' E 120°51'66211516.2
2014-Oct-25 02:26N 23°04' E 113°29'0 8.7
2014-Oct-25 02:24N 23°04' E 113°29'6562131.1
2014-Oct-25 02:06N 31°20' E 121°33'50215846.2
2014-Oct-25 02:04N 39°05' E 117°44'3 6.0
2014-Oct-25 01:32N 39°04' E 117°48'49615264.0
2014-Oct-25 01:30N 31°21' E 121°27'3179.8
2014-Oct-25 01:29N 31°21' E 121°31'513219.7
2014-Oct-25 01:28N 31°58' E 120°51'66217924.8
2014-Oct-25 01:26N 23°04' E 113°29'0 8.9
2014-Oct-25 01:24N 23°04' E 113°29'94454800.2
2014-Oct-25 01:23N 36°48' E 122°20'3103157.1
2014-Oct-25 01:17N 31°47' E 120°53'655891.4
2014-Oct-25 00:33N 23°04' E 113°29'9851182217.2
2014-Oct-25 00:33N 39°03' E 117°51'49427801.6
2014-Oct-25 00:32N 31°23' E 121°30'6576304.2
2014-Oct-25 00:26N 23°04' E 113°29'659752.4
2014-Oct-24 23:33N 31°25' E 121°30'41057.4
2014-Oct-24 23:33N 31°21' E 121°27'65490610.8
2014-Oct-24 23:33N 23°04' E 113°29'652234572.1
2014-Oct-24 23:33N 31°15' E 121°31'3364825.8
2014-Oct-24 23:28N 36°48' E 122°28'94713971.4
2014-Oct-24 23:24N 23°04' E 113°29'6622321.0
2014-Oct-24 23:07N 31°58' E 120°51'4986.8
2014-Oct-24 22:34N 31°22' E 121°30'334400655.0
2014-Oct-24 22:33N 36°53' E 122°28'30750256.4
2014-Oct-24 22:33N 31°60' E 120°37'65690857.9
2014-Oct-24 22:33N 23°04' E 113°29'66282195.8
2014-Oct-24 22:32N 31°58' E 120°51'66214355.8
2014-Oct-24 22:29N 23°04' E 113°30'96414465.6
2014-Oct-24 22:25N 37°43' E 121°11'3723101.8
2014-Oct-24 22:18N 31°30' E 121°22'5370.8
2014-Oct-24 21:34N 32°01' E 120°32'34634601.2
2014-Oct-24 21:33N 37°45' E 121°17'969436015.3
2014-Oct-24 21:33N 23°04' E 113°29'1 7.3
2014-Oct-24 21:26N 23°04' E 113°30'9515724.0
2014-Oct-24 21:16N 36°54' E 122°25'3167687.5
2014-Oct-24 21:14N 31°47' E 120°54'37228.8
2014-Oct-24 21:04N 31°57' E 120°12'611.7
2014-Oct-24 20:33N 31°58' E 120°19'35032329.7
2014-Oct-24 20:32N 37°45' E 121°19'35239617.3
2014-Oct-24 20:32N 31°57' E 120°16'3139796.7
2014-Oct-24 20:30N 36°50' E 122°29'3153358.8
2014-Oct-24 20:24N 31°59' E 120°00'63855996.2
2014-Oct-24 20:24N 23°04' E 113°29'64511839.5
2014-Oct-24 20:20N 31°58' E 120°17'442159279.3
2014-Oct-24 20:20N 24°40' E 119°02'3197084.4
2014-Oct-24 20:18N 23°04' E 113°30'653887.5
2014-Oct-24 19:33N 32°02' E 120°27'445106842.7
2014-Oct-24 19:33N 24°43' E 119°03'32139861.4
2014-Oct-24 19:33N 23°04' E 113°29'649779161.9
2014-Oct-24 19:33N 31°60' E 120°23'034.6
2014-Oct-24 19:32N 31°60' E 120°22'24180.9
2014-Oct-24 19:24N 31°58' E 120°51'3493839.4
2014-Oct-24 19:18N 37°46' E 121°14'96956268.7
2014-Oct-24 19:17N 23°04' E 113°30'6409372.3
2014-Oct-24 19:13N 31°57' E 120°10'1724.8
2014-Oct-24 18:33N 32°02' E 120°29'65490605.0
2014-Oct-24 18:33N 23°04' E 113°29'643110304.1
2014-Oct-24 18:32N 31°57' E 120°16'175702.9
2014-Oct-24 18:32N 32°01' E 120°36'5170.3
2014-Oct-24 18:30N 32°02' E 120°31'34638903.7
2014-Oct-24 18:30N 37°46' E 121°18'97016866.7
2014-Oct-24 18:26N 23°04' E 113°30'10266689.6
2014-Oct-24 18:17N 38°44' E 121°29'5980.6
2014-Oct-24 17:33N 37°45' E 121°23'34711239.7
2014-Oct-24 17:32N 32°01' E 120°36'40510571.0
2014-Oct-24 17:29N 38°44' E 121°27'102521456.5
2014-Oct-24 17:26N 23°04' E 113°30'1 8.7
2014-Oct-24 17:21N 23°04' E 113°29'4657.9
2014-Oct-24 16:33N 22°25' E 113°54'1000450074.7
2014-Oct-24 16:33N 37°46' E 121°24'972194402.2
2014-Oct-24 16:33N 23°04' E 113°28'6625345.4
2014-Oct-24 16:25N 31°58' E 120°51'4782585.4
2014-Oct-24 16:14N 24°20' E 118°19'87926152.3
2014-Oct-24 16:12N 38°44' E 121°28'102535836.5
2014-Oct-24 16:10N 23°04' E 113°29'110.3
2014-Oct-24 16:06N 23°04' E 113°30'272503.4
2014-Oct-24 15:33N 24°17' E 118°16'82450305.0
2014-Oct-24 15:32N 37°46' E 121°25'97292130.5
2014-Oct-24 15:32N 23°04' E 113°29'6623306.1
2014-Oct-24 15:19N 31°58' E 120°51'662831.2
2014-Oct-24 14:32N 23°04' E 113°29'95820777.4
2014-Oct-24 14:29N 36°36' E 123°15'78764404.5
2014-Oct-24 14:28N 24°14' E 118°10'82832058.0
2014-Oct-24 14:27N 37°44' E 121°31'601418.9
2014-Oct-24 14:24N 38°44' E 121°35'102835927.6
2014-Oct-24 14:22N 23°04' E 113°29'65911041.8
2014-Oct-24 14:19N 31°40' E 121°11'6642573.5
2014-Oct-24 14:03N 23°02' E 113°24'6641306.9
2014-Oct-24 13:33N 31°44' E 121°06'361108392.0
2014-Oct-24 13:33N 37°45' E 121°28'973291941.5
2014-Oct-24 13:32N 23°05' E 113°27'26378927.3
2014-Oct-24 13:32N 24°12' E 118°04'4895317.7
2014-Oct-24 13:27N 31°58' E 120°51'481939.0
2014-Oct-24 13:25N 31°21' E 121°26'67745139.4
2014-Oct-24 13:24N 22°23' E 113°45'4185.8
2014-Oct-24 13:23N 22°20' E 113°42'464466.8
2014-Oct-24 13:22N 23°04' E 113°29'0 0.7
2014-Oct-24 13:11N 23°04' E 113°29'5181.5
2014-Oct-24 12:33N 22°14' E 113°39'10141825440.2
2014-Oct-24 12:33N 37°45' E 121°24'1000719818.5
2014-Oct-24 12:33N 22°27' E 113°47'68541769.5
2014-Oct-24 12:32N 31°58' E 120°51'66295362.8
2014-Oct-24 12:32N 23°04' E 113°29'028.0
2014-Oct-24 12:31N 23°04' E 113°29'65621476.9
2014-Oct-24 12:30N 31°60' E 120°37'30610805.8
2014-Oct-24 12:28N 36°37' E 123°15'79929651.4
2014-Oct-24 12:26N 24°06' E 117°59'491551.2
2014-Oct-24 11:33N 31°60' E 120°21'53888.5
2014-Oct-24 11:33N 32°02' E 120°27'20600.0
2014-Oct-24 11:31N 31°58' E 120°51'30312832.4
2014-Oct-24 11:29N 36°37' E 123°15'9588647.6
2014-Oct-24 11:23N 23°04' E 113°29'030.3
2014-Oct-24 11:22N 23°04' E 113°29'5247126.7
2014-Oct-24 11:22N 22°12' E 113°34'10189094.7
2014-Oct-24 11:16N 37°45' E 121°26'3592554.6
2014-Oct-24 11:07N 31°47' E 120°55'67111847.1
2014-Oct-24 11:04N 22°33' E 113°48'6701321.3
2014-Oct-24 10:33N 32°02' E 120°27'2110710.2
2014-Oct-24 10:33N 31°58' E 120°51'348250695.7
2014-Oct-24 10:33N 37°45' E 121°29'35116603.5
2014-Oct-24 10:32N 31°59' E 120°21'67110875.7
2014-Oct-24 10:28N 22°27' E 113°46'105555842.6
2014-Oct-24 10:27N 38°44' E 121°29'102613193.7
2014-Oct-24 10:22N 23°04' E 113°29'422429.6
2014-Oct-24 10:21N 22°27' E 113°49'421486.4
2014-Oct-24 10:20N 23°04' E 113°29'522191.5
2014-Oct-24 10:18N 22°12' E 113°34'7044614.7
2014-Oct-24 10:09N 31°59' E 120°49'1424.0
2014-Oct-24 09:33N 32°02' E 120°33'211709.3
2014-Oct-24 09:33N 31°56' E 120°09'63947921.4
2014-Oct-24 09:32N 23°04' E 113°29'022.3
2014-Oct-24 09:31N 23°04' E 113°29'66137186.2
2014-Oct-24 09:30N 32°00' E 120°45'703168602.7
2014-Oct-24 09:30N 22°12' E 113°34'206034.1
2014-Oct-24 09:30N 22°27' E 113°49'100281984.9
2014-Oct-24 09:29N 37°45' E 121°33'10026296.8
2014-Oct-24 09:20N 22°27' E 113°46'100219489.5
2014-Oct-24 09:17N 37°34' E 121°57'3412825.7
2014-Oct-24 09:09N 31°58' E 120°51'348568.6
2014-Oct-24 08:33N 37°44' E 121°31'35467128.6
2014-Oct-24 08:32N 31°57' E 120°04'63843325.2
2014-Oct-24 08:31N 23°04' E 113°29'53958.9
2014-Oct-24 08:28N 22°12' E 113°34'6997073.1
2014-Oct-24 08:22N 31°39' E 121°13'680816180.5
2014-Oct-24 08:22N 22°27' E 113°46'100338816.1
2014-Oct-24 08:21N 37°34' E 122°00'3361380.8
2014-Oct-24 08:06N 32°06' E 120°33'68232297.2
2014-Oct-24 08:05N 22°27' E 113°49'6601265.3
2014-Oct-24 07:33N 31°58' E 120°00'35390848.2
2014-Oct-24 07:33N 37°45' E 121°27'100066648.5
2014-Oct-24 07:32N 22°27' E 113°48'412871.9
2014-Oct-24 07:31N 23°04' E 113°29'953190693.6
2014-Oct-24 07:31N 36°56' E 122°28'452378.1
2014-Oct-24 07:30N 37°34' E 121°59'3553460.5
2014-Oct-24 07:24N 31°42' E 121°09'31906.6
2014-Oct-24 07:22N 31°59' E 120°39'3171288.7
2014-Oct-24 07:07N 26°46' E 119°43'314559.3
2014-Oct-24 06:33N 31°59' E 120°21'349209669.6
2014-Oct-24 06:33N 37°45' E 121°22'99969146.0
2014-Oct-24 06:32N 22°27' E 113°47'1002721319.4
2014-Oct-24 06:32N 37°35' E 121°55'515199.3
2014-Oct-24 06:32N 36°52' E 122°28'31712976.5
2014-Oct-24 06:30N 31°58' E 120°03'681204275.0
2014-Oct-24 06:30N 22°12' E 113°34'19179.8
2014-Oct-24 06:24N 22°27' E 113°46'68062757.3
2014-Oct-24 06:23N 31°43' E 121°06'6593171.0
2014-Oct-24 06:10N 23°04' E 113°29'658395064.7
2014-Oct-24 06:10N 32°00' E 120°40'1625.9
2014-Oct-24 05:33N 31°59' E 120°21'64813879.1
2014-Oct-24 05:31N 23°04' E 113°29'97269966.0
2014-Oct-24 05:30N 37°31' E 121°56'99958012.9
2014-Oct-24 05:29N 22°27' E 113°47'99855272.9
2014-Oct-24 05:28N 37°45' E 121°18'36210098.3
2014-Oct-24 05:26N 31°43' E 121°06'28755.2
2014-Oct-24 05:23N 32°00' E 120°40'34415.3
2014-Oct-24 05:18N 32°01' E 119°59'3111967.2
2014-Oct-24 05:09N 36°49' E 122°20'3023670.7
2014-Oct-24 05:04N 32°00' E 120°34'6971365.2
2014-Oct-24 04:33N 22°12' E 113°34'986147863.8
2014-Oct-24 04:33N 36°45' E 122°20'3026116.3
2014-Oct-24 04:30N 31°59' E 120°21'690828533.1
2014-Oct-24 04:30N 22°10' E 113°36'70422229.7
2014-Oct-24 04:28N 31°58' E 120°51'68413681.8
2014-Oct-24 04:25N 22°27' E 113°46'68124265.1
2014-Oct-24 04:23N 32°00' E 120°40'65826047.6
2014-Oct-24 04:22N 23°04' E 113°29'6594352.0
2014-Oct-24 04:13N 31°43' E 121°06'65917569.5
2014-Oct-24 04:10N 23°04' E 113°29'971184041.8
2014-Oct-24 04:10N 37°45' E 121°25'346564.1
2014-Oct-24 03:33N 32°00' E 120°40'34618067.5
2014-Oct-24 03:32N 37°45' E 121°22'348208687.9
2014-Oct-24 03:32N 31°58' E 120°51'66262729.0
2014-Oct-24 03:31N 23°04' E 113°29'65915011.9
2014-Oct-24 03:29N 31°43' E 121°06'33866.9
2014-Oct-24 03:26N 32°01' E 120°32'675142993.6
2014-Oct-24 03:26N 22°19' E 114°08'32242.7
2014-Oct-24 03:18N 22°12' E 113°34'62304.0
2014-Oct-24 03:18N 22°16' E 113°39'6843825.5
2014-Oct-24 03:07N 31°59' E 120°21'64828089.7
2014-Oct-24 03:06N 23°04' E 113°29'6521198.8
2014-Oct-24 02:33N 32°02' E 120°26'5638.4
2014-Oct-24 02:33N 31°59' E 120°21'161548.2
2014-Oct-24 02:32N 32°00' E 120°40'7002520342.0
2014-Oct-24 02:32N 22°11' E 113°35'533621.1
2014-Oct-24 02:31N 23°04' E 113°29'5319114.9
2014-Oct-24 02:31N 22°12' E 113°35'10157096.8
2014-Oct-24 02:23N 37°44' E 121°17'36120968.8
2014-Oct-24 02:22N 31°43' E 121°06'2075.3
2014-Oct-24 02:06N 31°58' E 120°51'2647.9
2014-Oct-24 01:34N 31°60' E 120°20'30528109.8
2014-Oct-24 01:33N 36°48' E 122°20'98842357.0
2014-Oct-24 01:31N 22°12' E 113°35'5347776.4
2014-Oct-24 01:31N 23°04' E 113°29'96477116.3
2014-Oct-24 01:31N 37°42' E 121°10'3438689.5
2014-Oct-24 01:28N 32°00' E 120°40'341569.1
2014-Oct-24 01:27N 31°60' E 119°60'68111141.6
2014-Oct-24 01:23N 22°12' E 113°34'70320419.9
2014-Oct-24 01:21N 31°58' E 120°51'28156.6
2014-Oct-24 01:10N 31°57' E 120°18'3 5.1
2014-Oct-24 00:33N 31°55' E 120°15'61311.7
2014-Oct-24 00:33N 31°60' E 120°20'151617.9
2014-Oct-24 00:32N 31°58' E 120°03'54861597.9
2014-Oct-24 00:32N 23°17' E 116°53'56165103.2
2014-Oct-24 00:31N 32°00' E 120°40'70017750.0
2014-Oct-24 00:29N 22°12' E 113°35'6982479.5
2014-Oct-24 00:12N 31°60' E 120°36'3437391.6
2014-Oct-24 00:09N 37°42' E 121°09'402461.6
2014-Oct-24 00:08N 37°31' E 121°57'37012103.1
2014-Oct-24 00:06N 31°21' E 121°27'1 1.8
2014-Oct-23 23:33N 31°22' E 121°28'37333607.4
2014-Oct-23 23:33N 37°35' E 121°57'97542271.3
2014-Oct-23 23:31N 23°04' E 113°29'5347739.2
2014-Oct-23 23:31N 22°12' E 113°35'68463164.8
2014-Oct-23 23:31N 31°56' E 120°15'151564.5
2014-Oct-23 23:30N 32°01' E 120°31'8264.4
2014-Oct-23 23:28N 32°00' E 120°40'34219860.0
2014-Oct-23 23:27N 37°42' E 121°09'9633980.3
2014-Oct-23 23:13N 23°04' E 113°29'6407914.4
2014-Oct-23 23:08N 31°57' E 120°08'68719628.9
2014-Oct-23 23:06N 22°11' E 113°25'7021302.1
2014-Oct-23 22:33N 31°24' E 121°31'3912745.3
2014-Oct-23 22:33N 31°47' E 120°54'352117.8
2014-Oct-23 22:32N 31°56' E 120°15'92127.1
2014-Oct-23 22:32N 32°00' E 120°24'121907.6
2014-Oct-23 22:32N 31°57' E 120°11'25632.6
2014-Oct-23 22:29N 32°00' E 120°40'70026814.0
2014-Oct-23 22:28N 22°12' E 113°35'69033571.6
2014-Oct-23 22:26N 31°60' E 120°20'34512307.0
2014-Oct-23 22:25N 37°36' E 121°57'9761756255.2
2014-Oct-23 22:25N 23°04' E 113°29'011.6
2014-Oct-23 22:22N 23°04' E 113°29'12453.4
2014-Oct-23 22:21N 22°53' E 113°34'43172.0
2014-Oct-23 22:06N 22°11' E 113°25'1019193141.2
2014-Oct-23 22:06N 37°45' E 121°17'3259.7
2014-Oct-23 21:33N 37°34' E 121°56'34783388.6
2014-Oct-23 21:33N 31°57' E 120°16'294.0
2014-Oct-23 21:32N 31°57' E 120°18'3953.8
2014-Oct-23 21:32N 31°56' E 120°14'365387.1
2014-Oct-23 21:31N 31°47' E 120°54'35953855.6
2014-Oct-23 21:31N 37°45' E 121°19'37736673.3
2014-Oct-23 21:30N 31°28' E 121°26'69829212.7
2014-Oct-23 21:29N 22°12' E 113°35'70012299.2
2014-Oct-23 21:26N 31°40' E 121°14'501875.9
2014-Oct-23 21:24N 31°60' E 120°20'64824039.1
2014-Oct-23 21:22N 23°04' E 113°29'65957838.1
2014-Oct-23 21:22N 31°60' E 120°41'70530930.6
2014-Oct-23 21:20N 22°12' E 113°24'7044211.7
2014-Oct-23 21:10N 32°00' E 120°40'65976471.5
2014-Oct-23 21:10N 23°04' E 113°29'6481071.8
2014-Oct-23 20:33N 31°59' E 120°21'725561.8
2014-Oct-23 20:33N 31°56' E 120°14'366463.0
2014-Oct-23 20:33N 31°47' E 120°54'323478.2
2014-Oct-23 20:33N 31°60' E 120°20'173381.9
2014-Oct-23 20:32N 32°00' E 120°40'31452.6
2014-Oct-23 20:32N 31°60' E 120°36'348178773.9
2014-Oct-23 20:32N 37°45' E 121°23'101818893.9
2014-Oct-23 20:29N 22°12' E 113°35'7001260715.9
2014-Oct-23 20:29N 31°40' E 121°14'996.4
2014-Oct-23 20:23N 31°33' E 121°20'6589674.3
2014-Oct-23 20:19N 23°04' E 113°29'974103160.9
2014-Oct-23 20:19N 37°34' E 121°57'9746472.3
2014-Oct-23 20:10N 23°04' E 113°29'6551082.9
2014-Oct-23 19:33N 32°01' E 120°32'6578.1
2014-Oct-23 19:33N 32°03' E 120°26'34118309.3
2014-Oct-23 19:32N 37°35' E 122°00'337855.9
2014-Oct-23 19:32N 37°45' E 121°21'971349436.4
2014-Oct-23 19:31N 23°04' E 113°29'5331833.3
2014-Oct-23 19:31N 22°12' E 113°35'696227766.9
2014-Oct-23 19:31N 31°47' E 120°54'3618428.9
2014-Oct-23 19:31N 31°56' E 120°14'6426210.7
2014-Oct-23 19:25N 23°04' E 113°29'10638.0
2014-Oct-23 19:24N 22°57' E 113°38'6606108.9
2014-Oct-23 19:17N 32°00' E 120°40'2330.9
2014-Oct-23 18:33N 31°56' E 120°14'5262545.8
2014-Oct-23 18:33N 31°40' E 121°12'35986072.1
2014-Oct-23 18:33N 37°36' E 122°04'382972.6
2014-Oct-23 18:32N 37°46' E 121°17'34428792.8
2014-Oct-23 18:31N 32°04' E 120°32'6992516971.6
2014-Oct-23 18:31N 22°12' E 113°35'696192713.4
2014-Oct-23 18:31N 31°47' E 120°54'521475.0
2014-Oct-23 18:29N 32°03' E 119°56'68219636.8
2014-Oct-23 18:27N 22°11' E 113°35'531485.8
2014-Oct-23 18:25N 23°04' E 113°29'010.5
2014-Oct-23 18:22N 23°04' E 113°29'102810946.5
2014-Oct-23 18:17N 38°46' E 121°29'414570.7
2014-Oct-23 17:33N 31°56' E 120°14'4943934.1
2014-Oct-23 17:33N 31°42' E 121°09'35664087.8
2014-Oct-23 17:33N 37°35' E 121°59'102241820.5
2014-Oct-23 17:31N 22°12' E 113°35'681204312.5
2014-Oct-23 17:31N 31°60' E 119°60'35218922.0
2014-Oct-23 17:30N 37°46' E 121°22'101891622.6
2014-Oct-23 17:29N 22°11' E 113°35'69018820.4
2014-Oct-23 17:27N 31°60' E 120°20'64816422.9
2014-Oct-23 17:25N 23°04' E 113°29'011.2
2014-Oct-23 17:22N 23°04' E 113°29'65535197.8
2014-Oct-23 17:21N 31°47' E 120°54'18100.0
2014-Oct-23 17:10N 32°00' E 120°40'1727.5
2014-Oct-23 16:33N 31°60' E 120°20'136837.9
2014-Oct-23 16:33N 31°57' E 120°05'460118334.7
2014-Oct-23 16:33N 24°23' E 118°40'8152933503.5
2014-Oct-23 16:33N 37°45' E 121°25'35479674.5
2014-Oct-23 16:33N 31°56' E 120°14'363676.3
2014-Oct-23 16:32N 31°47' E 120°54'13750.3
2014-Oct-23 16:31N 31°42' E 121°08'6594510.3
2014-Oct-23 16:22N 23°04' E 113°29'044.3
2014-Oct-23 16:22N 23°04' E 113°29'66213103.6
2014-Oct-23 16:19N 32°01' E 120°47'637.5
2014-Oct-23 16:09N 32°00' E 120°40'70020660.4
2014-Oct-23 16:07N 22°12' E 113°35'461311.1
2014-Oct-23 16:05N 22°57' E 113°37'6601242.0
2014-Oct-23 15:33N 32°00' E 120°40'172898.9
2014-Oct-23 15:33N 31°60' E 120°20'64826199.7
2014-Oct-23 15:31N 23°04' E 113°29'659148275.9
2014-Oct-23 15:31N 31°42' E 121°08'493017.3
2014-Oct-23 15:30N 31°56' E 120°14'6842463105.4
2014-Oct-23 15:30N 22°11' E 113°35'1018282010.9
2014-Oct-23 15:30N 37°44' E 121°26'101827155.6
2014-Oct-23 15:28N 22°12' E 113°35'531061.2
2014-Oct-23 15:25N 23°04' E 113°29'65511675.1
2014-Oct-23 15:21N 31°47' E 120°54'24132.8
2014-Oct-23 15:11N 32°01' E 120°32'4073802.0
2014-Oct-23 15:04N 38°44' E 121°35'406791.0
2014-Oct-23 14:33N 32°02' E 120°30'263560.0
2014-Oct-23 14:33N 31°47' E 120°54'114759.6
2014-Oct-23 14:33N 31°44' E 121°06'466198.3
2014-Oct-23 14:32N 31°56' E 120°14'35357821.6
2014-Oct-23 14:32N 37°45' E 121°26'97287436.9
2014-Oct-23 14:31N 23°04' E 113°29'64833311.3
2014-Oct-23 14:30N 31°60' E 120°20'3448783.8
2014-Oct-23 14:28N 37°34' E 122°00'102128940.6
2014-Oct-23 14:26N 22°11' E 113°35'7005649.4
2014-Oct-23 14:18N 32°00' E 120°40'700168019.1
2014-Oct-23 14:18N 22°11' E 113°35'53603.2
2014-Oct-23 14:13N 23°04' E 113°29'6624498.4
2014-Oct-23 14:04N 31°60' E 120°48'346681.6
2014-Oct-23 13:34N 37°45' E 121°21'346124487.8
2014-Oct-23 13:33N 32°00' E 120°40'223219.4
2014-Oct-23 13:33N 31°46' E 121°01'371456.2
2014-Oct-23 13:31N 31°60' E 120°20'2383.5
2014-Oct-23 13:31N 31°60' E 120°23'69125398.7
2014-Oct-23 13:29N 22°11' E 113°35'1023111586.0
2014-Oct-23 13:29N 37°35' E 122°03'35318941.3
2014-Oct-23 13:28N 31°47' E 120°54'392481.3
2014-Oct-23 13:27N 31°56' E 120°09'41433906.7
2014-Oct-23 13:26N 38°44' E 121°36'1076184425.3
2014-Oct-23 13:26N 22°11' E 113°35'533407.9
2014-Oct-23 13:25N 23°04' E 113°29'0 4.6
2014-Oct-23 13:19N 23°04' E 113°29'11103.6
2014-Oct-23 13:13N 22°56' E 113°36'66361234.8
2014-Oct-23 13:12N 31°40' E 121°14'66869.6
2014-Oct-23 13:08N 31°60' E 119°60'1425.1
2014-Oct-23 12:33N 31°57' E 120°16'4444.1
2014-Oct-23 12:33N 31°60' E 120°20'162578.4
2014-Oct-23 12:33N 31°59' E 120°02'68147113.3
2014-Oct-23 12:32N 22°11' E 113°35'1017366252.0
2014-Oct-23 12:31N 37°44' E 121°24'351264.2
2014-Oct-23 12:30N 37°35' E 122°06'10259509.5
2014-Oct-23 12:23N 22°11' E 113°35'107619170.9
2014-Oct-23 12:20N 38°44' E 121°35'104066862.6
2014-Oct-23 12:19N 22°49' E 113°36'6685515.7
2014-Oct-23 12:12N 31°40' E 121°12'364570.7
2014-Oct-23 11:33N 37°44' E 121°27'359322758.3
2014-Oct-23 11:33N 31°47' E 120°54'4225207.0
2014-Oct-23 11:33N 31°58' E 120°07'5412888.7
2014-Oct-23 11:33N 31°43' E 121°07'29462.6
2014-Oct-23 11:29N 32°00' E 120°40'4068759.3
2014-Oct-23 11:27N 38°44' E 121°35'54731257.0
2014-Oct-23 11:25N 29°38' E 122°16'61552729.3
2014-Oct-23 11:25N 23°04' E 113°29'615158111.7
2014-Oct-23 11:25N 29°38' E 122°16'64735310.9
2014-Oct-23 11:23N 22°11' E 113°35'0 4.3
2014-Oct-23 11:18N 22°11' E 113°35'6907304.4
2014-Oct-23 11:12N 31°60' E 120°20'3249.1
2014-Oct-23 10:33N 31°47' E 120°54'3722477.9
2014-Oct-23 10:33N 31°57' E 120°12'241553.0
2014-Oct-23 10:32N 32°00' E 120°40'34569022.3
2014-Oct-23 10:32N 37°44' E 121°24'34840404.4
2014-Oct-23 10:31N 31°60' E 120°20'69026141.8
2014-Oct-23 10:30N 22°11' E 113°35'103125409.9
2014-Oct-23 10:27N 37°39' E 122°13'98521887.0
2014-Oct-23 10:25N 23°04' E 113°29'531313.1
2014-Oct-23 10:22N 22°11' E 113°35'11172.4
2014-Oct-23 10:18N 22°14' E 113°23'107610938.2
2014-Oct-23 10:13N 38°44' E 121°31'411628.8
2014-Oct-23 09:33N 31°58' E 120°17'35078689.4
2014-Oct-23 09:33N 37°43' E 121°28'35780333.5
2014-Oct-23 09:33N 31°47' E 120°54'321093.2
2014-Oct-23 09:31N 31°60' E 120°20'40839735.8
2014-Oct-23 09:30N 38°44' E 121°29'1073110403.8
2014-Oct-23 09:30N 22°11' E 113°35'70028311.3
2014-Oct-23 09:28N 32°00' E 120°40'1 9.2
2014-Oct-23 09:24N 31°60' E 120°40'7005392.4
2014-Oct-23 09:16N 22°11' E 113°35'53485.0
2014-Oct-23 09:10N 23°04' E 113°29'6551083.4
2014-Oct-23 08:34N 31°47' E 120°54'323280.0
2014-Oct-23 08:33N 31°60' E 120°20'347416570.5
2014-Oct-23 08:33N 37°42' E 121°29'34588686.5
2014-Oct-23 08:33N 32°00' E 120°35'69723463.5
2014-Oct-23 08:31N 22°11' E 113°35'103361990.2
2014-Oct-23 08:30N 37°40' E 122°17'1033371894.1
2014-Oct-23 08:30N 22°11' E 113°35'53651.1
2014-Oct-23 08:25N 23°04' E 113°29'6583435.7
2014-Oct-23 08:13N 32°00' E 120°40'68155758.7
2014-Oct-23 08:13N 22°27' E 113°46'9991529.4
2014-Oct-23 07:33N 37°41' E 121°32'34394986.0
2014-Oct-23 07:33N 32°02' E 120°30'9194.7
2014-Oct-23 07:30N 31°60' E 120°20'65293861.3
2014-Oct-23 07:30N 23°02' E 113°24'66328736.6
2014-Oct-23 07:29N 32°00' E 120°40'7004293.5
2014-Oct-23 07:19N 22°11' E 113°35'0 5.4
2014-Oct-23 07:15N 22°11' E 113°35'103128336.4
2014-Oct-23 07:12N 37°39' E 122°15'34517514.7
2014-Oct-23 07:11N 32°04' E 120°32'342541.7
2014-Oct-23 06:33N 37°42' E 121°35'344137768.4
2014-Oct-23 06:33N 32°02' E 120°30'34728415.9
2014-Oct-23 06:32N 37°39' E 122°12'103018352.2
2014-Oct-23 06:29N 22°11' E 113°35'70019246.1
2014-Oct-23 06:27N 32°04' E 120°35'66485408.1
2014-Oct-23 06:26N 23°03' E 113°20'531335.6
2014-Oct-23 06:24N 22°11' E 113°35'0 0.5
2014-Oct-23 05:33N 22°11' E 113°36'69062083.4
2014-Oct-23 05:32N 31°60' E 120°20'35036019.2
2014-Oct-23 05:32N 37°44' E 121°36'102231436.1
2014-Oct-23 05:30N 22°11' E 113°35'1027154009.1
2014-Oct-23 05:30N 37°37' E 122°08'34510515.9
2014-Oct-23 05:28N 32°02' E 120°30'66034424.8
2014-Oct-23 05:26N 23°03' E 113°20'653740.6
2014-Oct-23 04:33N 31°60' E 120°20'6959.2
2014-Oct-23 04:33N 32°02' E 120°26'34665605.9
2014-Oct-23 04:33N 37°44' E 121°32'1017130742.2
2014-Oct-23 04:32N 22°13' E 113°40'6929512.1
2014-Oct-23 04:28N 31°47' E 120°54'3561859.4
2014-Oct-23 04:17N 37°37' E 122°09'98628403.8
2014-Oct-23 04:14N 23°03' E 113°20'531240.8
2014-Oct-23 04:12N 22°11' E 113°35'103610449.2
2014-Oct-23 04:06N 39°05' E 117°44'194356.9
2014-Oct-23 03:33N 37°44' E 121°28'349104577.0
2014-Oct-23 03:33N 31°60' E 120°20'1733.8
2014-Oct-23 03:33N 31°58' E 120°20'3118686.6
2014-Oct-23 03:33N 31°47' E 120°54'6962506440.2
2014-Oct-23 03:33N 22°10' E 113°36'1037162313.6
2014-Oct-23 03:33N 39°04' E 117°47'221797125.9
2014-Oct-23 03:33N 37°35' E 122°06'34224648.2
2014-Oct-23 03:32N 32°00' E 120°40'28348.7
2014-Oct-23 03:27N 31°44' E 121°07'66674925.9
2014-Oct-23 03:26N 23°03' E 113°20'6593925.7
2014-Oct-23 03:16N 31°51' E 120°43'2130.0
2014-Oct-23 02:33N 31°60' E 120°20'348313145.5
2014-Oct-23 02:33N 37°44' E 121°23'3223018.8
2014-Oct-23 02:33N 37°34' E 122°01'35235160.8
2014-Oct-23 02:33N 31°47' E 120°54'69847393.9
2014-Oct-23 02:32N 22°11' E 113°32'103727853.8
2014-Oct-23 02:30N 39°03' E 117°52'9889668.2
2014-Oct-23 02:23N 23°03' E 113°20'828.0
2014-Oct-23 02:06N 23°04' E 113°29'432307.5
2014-Oct-23 02:05N 22°24' E 113°44'6751296.7
2014-Oct-23 01:33N 31°60' E 120°20'344176664.9
2014-Oct-23 01:33N 37°33' E 121°60'35174285.0
2014-Oct-23 01:33N 31°47' E 120°54'678152661.6
2014-Oct-23 01:33N 22°26' E 113°45'102050988.7
2014-Oct-23 01:32N 39°04' E 117°50'1778953.1
2014-Oct-23 01:30N 37°42' E 121°10'101229617.6
2014-Oct-23 01:28N 22°11' E 113°32'44558.0
2014-Oct-23 01:24N 22°53' E 113°18'15153.1
2014-Oct-23 01:18N 23°04' E 113°29'97913827.6
2014-Oct-23 01:14N 37°34' E 122°11'353523.6
2014-Oct-23 00:33N 31°47' E 120°54'35123376.3
2014-Oct-23 00:32N 37°31' E 122°15'34042157.9
2014-Oct-23 00:32N 32°00' E 120°40'34067959.3
2014-Oct-23 00:31N 37°34' E 121°56'1002106053.4
2014-Oct-23 00:31N 22°27' E 113°46'341794.8
2014-Oct-23 00:30N 22°55' E 113°25'442010.3
2014-Oct-23 00:28N 22°11' E 113°32'69217919.3
2014-Oct-23 00:26N 31°60' E 120°20'6483449.2
2014-Oct-23 00:15N 23°04' E 113°29'43257.3
2014-Oct-23 00:05N 22°27' E 113°53'6741294.0
2014-Oct-22 23:33N 31°47' E 120°54'663341032.3
2014-Oct-22 23:33N 22°53' E 113°31'65684356.8
2014-Oct-22 23:33N 31°60' E 120°20'64812402.5
2014-Oct-22 23:30N 23°04' E 113°29'6583269.3
2014-Oct-22 23:18N 32°00' E 120°40'6653996.7
2014-Oct-22 23:08N 23°03' E 113°18'66719362.7
2014-Oct-22 23:06N 31°27' E 121°29'3564.5
2014-Oct-22 22:33N 31°47' E 120°54'358128724.9
2014-Oct-22 22:33N 37°44' E 121°14'34518794.2
2014-Oct-22 22:32N 32°00' E 120°40'171110.1
2014-Oct-22 22:31N 31°60' E 120°20'4463319.1
2014-Oct-22 22:23N 24°38' E 119°07'3233919.0
2014-Oct-22 22:18N 23°04' E 113°29'6598568.1
2014-Oct-22 22:13N 31°25' E 121°32'70105.3
2014-Oct-22 21:33N 31°60' E 120°20'35112043.0
2014-Oct-22 21:31N 37°47' E 121°23'592877.3
2014-Oct-22 21:30N 38°46' E 121°27'1027184897.9
2014-Oct-22 21:30N 23°04' E 113°29'97525621.7
2014-Oct-22 21:27N 37°34' E 121°60'35297354.1
2014-Oct-22 21:27N 31°47' E 120°54'1895.4
2014-Oct-22 21:16N 32°00' E 120°40'1723.8
2014-Oct-22 20:33N 31°60' E 120°20'352140604.4
2014-Oct-22 20:33N 37°47' E 121°26'36116675.9
2014-Oct-22 20:31N 31°47' E 120°54'3542369.9
2014-Oct-22 20:23N 37°35' E 122°05'97812621.4
2014-Oct-22 20:18N 23°04' E 113°29'65818093.5
2014-Oct-22 20:16N 32°00' E 120°40'1825.5
2014-Oct-22 19:33N 31°47' E 120°54'36281417.9
2014-Oct-22 19:32N 37°48' E 121°23'372414.5
2014-Oct-22 19:31N 37°37' E 122°08'3447651.4
2014-Oct-22 19:29N 32°00' E 120°40'65820611.0
2014-Oct-22 19:27N 23°04' E 113°29'10254928.9
2014-Oct-22 19:14N 38°43' E 121°31'2 2.4
2014-Oct-22 18:33N 38°43' E 121°29'102517483.3
2014-Oct-22 18:30N 23°04' E 113°29'658592561.2
2014-Oct-22 18:30N 32°00' E 120°40'67189459.1
2014-Oct-22 18:29N 22°42' E 113°40'995111949.9
2014-Oct-22 18:29N 37°36' E 122°07'324659.7
2014-Oct-22 18:28N 37°46' E 121°28'5761.9
2014-Oct-22 17:33N 38°43' E 121°28'562902.8
2014-Oct-22 17:32N 37°46' E 121°28'30903.3
2014-Oct-22 17:30N 37°35' E 122°03'977106553.6
2014-Oct-22 17:30N 23°04' E 113°29'20422.8
2014-Oct-22 17:27N 22°45' E 113°33'6695549.0
2014-Oct-22 17:20N 31°47' E 120°54'362467.4
2014-Oct-22 16:33N 37°47' E 121°25'9931787481.9
2014-Oct-22 16:33N 22°44' E 113°27'99362739.8
2014-Oct-22 16:32N 37°34' E 121°58'97410597.1
2014-Oct-22 16:27N 23°04' E 113°29'102637311.5
2014-Oct-22 16:25N 38°43' E 121°32'41713909.3
2014-Oct-22 16:23N 31°47' E 120°54'18421.2
2014-Oct-22 16:21N 32°00' E 120°40'69110631.3
2014-Oct-22 16:17N 22°11' E 113°54'17123.0
2014-Oct-22 16:08N 22°27' E 113°46'6718192.2
2014-Oct-22 16:04N 31°60' E 120°20'671142051.9
2014-Oct-22 16:03N 22°27' E 113°48'6811336.4
2014-Oct-22 15:33N 32°00' E 120°40'6921246116.9
2014-Oct-22 15:33N 22°13' E 113°49'652234889.7
2014-Oct-22 15:32N 29°47' E 122°30'48792231.4
2014-Oct-22 15:32N 37°51' E 121°27'285612.9
2014-Oct-22 15:32N 37°34' E 121°56'35140780.1
2014-Oct-22 15:31N 31°47' E 120°54'65524563.0
2014-Oct-22 15:30N 23°04' E 113°29'648105984.1
2014-Oct-22 15:29N 31°60' E 120°20'40925839.9
2014-Oct-22 15:28N 38°44' E 121°35'104652314.8
2014-Oct-22 15:27N 22°48' E 113°21'32332.7
2014-Oct-22 15:21N 22°23' E 113°45'10031252.7
2014-Oct-22 14:33N 37°31' E 121°57'100975651.6
2014-Oct-22 14:33N 22°19' E 113°41'61486.2
2014-Oct-22 14:32N 22°20' E 113°48'68537353.3
2014-Oct-22 14:31N 31°60' E 120°38'67360592.0
2014-Oct-22 14:31N 22°51' E 113°18'66634258.4
2014-Oct-22 14:29N 31°13' E 121°30'645481.5
2014-Oct-22 14:29N 32°00' E 120°40'68118035.3
2014-Oct-22 14:26N 22°27' E 113°46'67186308.4
2014-Oct-22 14:26N 31°60' E 120°20'32201.0
2014-Oct-22 14:16N 31°47' E 120°54'1361988.0
2014-Oct-22 14:12N 29°53' E 122°22'62852580.6
2014-Oct-22 14:12N 23°04' E 113°29'6481018.2
2014-Oct-22 13:33N 31°60' E 120°20'111805.9
2014-Oct-22 13:33N 32°04' E 120°32'696139282.6
2014-Oct-22 13:33N 22°13' E 113°38'463041.0
2014-Oct-22 13:32N 22°54' E 113°14'6729227.2
2014-Oct-22 13:27N 31°47' E 120°54'181379.2
2014-Oct-22 13:27N 32°00' E 120°40'3405296.8
2014-Oct-22 13:23N 37°35' E 121°54'721094.2
2014-Oct-22 13:19N 38°44' E 121°32'405533.7
2014-Oct-22 12:33N 32°03' E 120°26'621392.7
2014-Oct-22 12:33N 31°60' E 120°20'17596.8
2014-Oct-22 12:32N 32°00' E 120°40'67533759.7
2014-Oct-22 12:30N 22°54' E 113°13'67437902.7
2014-Oct-22 12:29N 31°20' E 121°32'69512512.1
2014-Oct-22 12:26N 22°12' E 113°34'69654452.2
2014-Oct-22 12:25N 31°47' E 120°54'4372325.9
2014-Oct-22 12:14N 24°41' E 119°05'4253043.1
2014-Oct-22 12:06N 31°26' E 121°29'66122.6
2014-Oct-22 11:33N 31°59' E 120°21'41077598.5
2014-Oct-22 11:33N 38°44' E 121°35'409122750.4
2014-Oct-22 11:33N 31°60' E 120°20'325466.6
2014-Oct-22 11:32N 31°47' E 120°54'31980.8
2014-Oct-22 11:30N 31°30' E 121°26'69923964.7
2014-Oct-22 11:29N 22°12' E 113°34'531430.5
2014-Oct-22 11:26N 23°04' E 113°29'65810676.9
2014-Oct-22 11:23N 32°00' E 120°40'45095279.0
2014-Oct-22 11:22N 24°39' E 119°02'7896777.1
2014-Oct-22 11:15N 37°33' E 121°58'343489.7
2014-Oct-22 10:33N 31°60' E 120°20'51946.5
2014-Oct-22 10:33N 31°56' E 120°15'694594.4
2014-Oct-22 10:32N 31°27' E 121°28'534675.3
2014-Oct-22 10:32N 32°00' E 120°40'4066556.1
2014-Oct-22 10:28N 38°44' E 121°32'41929562.2
2014-Oct-22 10:27N 31°47' E 120°54'65510670.8
2014-Oct-22 10:23N 23°04' E 113°29'53282.0
2014-Oct-22 10:12N 22°12' E 113°34'471197.4
2014-Oct-22 10:10N 22°54' E 113°13'6751111.0
2014-Oct-22 09:33N 31°31' E 121°22'284610.7
2014-Oct-22 09:33N 31°47' E 120°54'4191507095.0
2014-Oct-22 09:33N 38°44' E 121°32'107522754.4
2014-Oct-22 09:30N 22°12' E 113°34'69070979.8
2014-Oct-22 09:30N 31°60' E 120°20'64812337.5
2014-Oct-22 09:26N 23°04' E 113°29'18777.2
2014-Oct-22 09:25N 22°54' E 113°13'19996.0
2014-Oct-22 09:24N 22°55' E 113°33'4085129.4
2014-Oct-22 09:19N 26°46' E 119°43'65818805.5
2014-Oct-22 09:17N 37°34' E 121°59'3589770.2
2014-Oct-22 09:15N 31°38' E 121°15'5174.4
2014-Oct-22 08:33N 31°60' E 120°20'487448.6
2014-Oct-22 08:33N 31°40' E 121°11'660169675.5
2014-Oct-22 08:33N 23°03' E 113°31'97683649.2
2014-Oct-22 08:32N 37°34' E 122°00'991132083.2
2014-Oct-22 08:32N 22°54' E 113°13'1861.7
2014-Oct-22 08:14N 23°04' E 113°29'53292.5
2014-Oct-22 08:04N 22°12' E 113°34'5199.7
2014-Oct-22 07:33N 23°02' E 113°23'664239131.9
2014-Oct-22 07:33N 31°43' E 121°07'35515019.3
2014-Oct-22 07:31N 37°35' E 122°04'98331594.5
2014-Oct-22 07:29N 22°55' E 113°36'663125577.2
2014-Oct-22 07:29N 31°41' E 121°10'42425856.1
2014-Oct-22 07:28N 38°44' E 121°37'4067862.3
2014-Oct-22 07:25N 31°60' E 120°49'412711.5
2014-Oct-22 07:24N 31°59' E 120°01'63879183.1
2014-Oct-22 07:24N 23°04' E 113°29'6523146.3
2014-Oct-22 07:11N 30°25' E 122°27'68727461.2
2014-Oct-22 07:10N 22°12' E 113°34'107553020.8
2014-Oct-22 07:08N 38°44' E 121°34'0 0.4
2014-Oct-22 06:34N 38°44' E 121°34'409163646.6
2014-Oct-22 06:33N 31°60' E 120°20'346103846.5
2014-Oct-22 06:33N 37°35' E 122°07'35343833.0
2014-Oct-22 06:33N 31°45' E 121°03'699419567.3
2014-Oct-22 06:33N 22°12' E 113°34'69644732.6
2014-Oct-22 06:32N 31°47' E 120°54'1141488.0
2014-Oct-22 06:27N 30°25' E 122°27'65265199.1
2014-Oct-22 06:26N 23°04' E 113°29'6596979.0
2014-Oct-22 06:21N 31°45' E 121°04'3681663.0
2014-Oct-22 06:08N 37°51' E 121°46'5495.2
2014-Oct-22 05:33N 38°44' E 121°30'539140.9
2014-Oct-22 05:33N 37°52' E 121°43'363652938.1
2014-Oct-22 05:33N 31°57' E 120°14'34989752.1
2014-Oct-22 05:33N 37°34' E 122°02'9821767512.7
2014-Oct-22 05:33N 22°56' E 113°34'44718.5
2014-Oct-22 05:29N 22°12' E 113°34'2754.0
2014-Oct-22 05:29N 22°14' E 113°35'511282.2
2014-Oct-22 05:26N 23°04' E 113°29'10279653.3
2014-Oct-22 05:20N 38°44' E 121°31'4094353.6
2014-Oct-22 05:14N 31°60' E 120°20'24249.9
2014-Oct-22 05:09N 32°05' E 119°52'1666635.8
2014-Oct-22 05:07N 30°25' E 122°27'13719790.6
2014-Oct-22 05:07N 32°05' E 120°36'0 0.8
2014-Oct-22 04:33N 32°04' E 120°36'668114487.4
2014-Oct-22 04:33N 22°51' E 113°34'656472159.6
2014-Oct-22 04:33N 31°59' E 120°20'68417976.7
2014-Oct-22 04:31N 22°17' E 113°35'471911.2
2014-Oct-22 04:29N 23°04' E 113°29'652391203.1
2014-Oct-22 04:29N 30°25' E 122°27'1621061.0
2014-Oct-22 04:20N 32°03' E 119°55'64112334.8
2014-Oct-22 04:17N 22°57' E 113°37'97511664.1
2014-Oct-22 04:12N 37°32' E 121°57'9811539.4
2014-Oct-22 03:33N 22°54' E 113°28'1035338882.6
2014-Oct-22 03:33N 38°44' E 121°29'4081468985.4
2014-Oct-22 03:33N 31°60' E 120°20'652293565.7
2014-Oct-22 03:33N 23°02' E 113°24'6552358210.0
2014-Oct-22 03:33N 32°01' E 120°23'659263640.4
2014-Oct-22 03:33N 22°51' E 113°34'65843078.9
2014-Oct-22 03:32N 30°25' E 122°27'68636311.2
2014-Oct-22 03:31N 22°11' E 113°36'6882465.3
2014-Oct-22 03:14N 31°14' E 121°29'3806741.3
2014-Oct-22 03:11N 37°34' E 121°56'3514955.8
2014-Oct-22 03:07N 31°45' E 121°03'25499.7
2014-Oct-22 03:04N 31°60' E 120°39'3162.7
2014-Oct-22 02:34N 31°58' E 120°02'204299.6
2014-Oct-22 02:33N 32°03' E 120°26'33953093.0
2014-Oct-22 02:33N 37°34' E 121°54'430193610.7
2014-Oct-22 02:33N 30°25' E 122°27'698224.2
2014-Oct-22 02:32N 31°15' E 121°33'658789368.3
2014-Oct-22 02:32N 22°57' E 113°30'4581370.2
2014-Oct-22 02:32N 22°13' E 113°40'367110121.8
2014-Oct-22 02:32N 22°33' E 120°17'56712076.5
2014-Oct-22 02:29N 31°60' E 120°20'327165.6
2014-Oct-22 02:29N 31°47' E 120°54'4193694.6
2014-Oct-22 02:22N 38°44' E 121°34'4076058.4
2014-Oct-22 02:18N 31°59' E 120°38'4126363.7
2014-Oct-22 02:14N 38°48' E 121°44'4232519.1
2014-Oct-22 02:04N 31°46' E 121°03'66582539.7
2014-Oct-22 02:04N 23°03' E 113°20'6451282.5
2014-Oct-22 01:33N 31°57' E 120°08'674808310.8
2014-Oct-22 01:33N 22°17' E 113°44'680222481.3
2014-Oct-22 01:33N 31°58' E 120°20'3927827.0
2014-Oct-22 01:33N 31°46' E 121°03'65943133.9
2014-Oct-22 01:32N 23°03' E 113°30'6579531.7
2014-Oct-22 01:28N 31°59' E 120°38'66027300.4
2014-Oct-22 01:27N 23°03' E 113°25'979440440.4
2014-Oct-22 01:26N 37°48' E 121°30'38787120.0
2014-Oct-22 01:26N 31°20' E 121°33'729984.1
2014-Oct-22 01:26N 30°25' E 122°27'1142708.2
2014-Oct-22 01:23N 31°47' E 120°54'4426.5
2014-Oct-22 01:23N 31°47' E 120°59'4182241.7
2014-Oct-22 01:12N 38°44' E 121°35'103224608.1
2014-Oct-22 01:09N 22°57' E 113°37'1017.7
2014-Oct-22 00:33N 23°04' E 113°29'655393037.0
2014-Oct-22 00:33N 31°47' E 120°54'3716568.6
2014-Oct-22 00:33N 31°57' E 120°13'2115047.7
2014-Oct-22 00:33N 32°04' E 120°36'13770608.1
2014-Oct-22 00:33N 30°25' E 122°27'44346915.8
2014-Oct-22 00:32N 37°45' E 121°20'100463382.3
2014-Oct-22 00:32N 22°22' E 113°44'4208784.5
2014-Oct-22 00:29N 26°45' E 119°43'29238985.3
2014-Oct-22 00:28N 31°23' E 121°30'66336190.8
2014-Oct-22 00:27N 22°52' E 113°34'13173.7
2014-Oct-22 00:22N 23°04' E 113°29'97212068.9
2014-Oct-22 00:18N 37°32' E 121°56'4715261.4
2014-Oct-22 00:12N 29°42' E 122°12'65312443.4
2014-Oct-22 00:09N 22°09' E 113°28'5592.6
2014-Oct-21 23:33N 23°04' E 113°29'0100.5
2014-Oct-21 23:33N 23°04' E 113°29'645774182.8
2014-Oct-21 23:33N 31°58' E 120°18'161444.0
2014-Oct-21 23:32N 32°04' E 120°36'13711494.4
2014-Oct-21 23:32N 30°25' E 122°27'13311377.0
2014-Oct-21 23:31N 31°60' E 120°38'581935.9
2014-Oct-21 23:29N 31°24' E 121°32'32210439.9
2014-Oct-21 23:27N 36°43' E 122°23'86758883.7
2014-Oct-21 23:26N 23°09' E 116°40'96817003.2
2014-Oct-21 23:23N 38°44' E 121°32'4199914.8
2014-Oct-21 23:21N 31°47' E 120°54'6636981.4
2014-Oct-21 23:15N 22°51' E 113°34'6477535.2
2014-Oct-21 23:10N 31°58' E 120°02'6381057.8
2014-Oct-21 22:34N 23°04' E 113°29'6492337181.7
2014-Oct-21 22:33N 32°00' E 120°22'12681.8
2014-Oct-21 22:32N 32°04' E 120°36'261538.0
2014-Oct-21 22:31N 31°58' E 120°06'15226056.7
2014-Oct-21 22:31N 30°25' E 122°27'126151028.6
2014-Oct-21 22:31N 31°59' E 120°49'66358174.4
2014-Oct-21 22:30N 23°04' E 113°29'949179741.9
2014-Oct-21 22:30N 36°50' E 122°28'95816271.9
2014-Oct-21 22:26N 22°51' E 113°34'62427714.6
2014-Oct-21 22:25N 29°34' E 122°24'15415796.6
2014-Oct-21 22:25N 31°47' E 120°54'483768.0
2014-Oct-21 22:24N 31°59' E 119°60'68363009.5
2014-Oct-21 22:23N 22°10' E 113°32'686829.7
2014-Oct-21 21:34N 31°57' E 120°11'145169.7
2014-Oct-21 21:33N 32°02' E 120°27'6032171671.6
2014-Oct-21 21:33N 23°04' E 115°19'60186564.4
2014-Oct-21 21:33N 31°47' E 120°54'227351.8
2014-Oct-21 21:33N 32°02' E 120°35'308158484.2
2014-Oct-21 21:33N 36°56' E 122°28'880132027.8
2014-Oct-21 21:32N 23°09' E 116°40'535192693.9
2014-Oct-21 21:32N 30°25' E 122°27'65244282.3
2014-Oct-21 21:31N 23°04' E 113°29'662238263.0
2014-Oct-21 21:31N 32°02' E 120°45'641.4
2014-Oct-21 21:22N 31°60' E 120°38'3542539.1
2014-Oct-21 21:22N 32°03' E 119°56'4407687.6
2014-Oct-21 21:19N 24°47' E 118°47'308410.4
2014-Oct-21 20:34N 23°04' E 113°30'645290145.6
2014-Oct-21 20:33N 31°58' E 120°18'645773956.6
2014-Oct-21 20:33N 23°04' E 113°29'656393422.0
2014-Oct-21 20:33N 32°02' E 120°33'13754851.5
2014-Oct-21 20:33N 30°25' E 122°27'137247021.4
2014-Oct-21 20:33N 32°01' E 120°32'2427.9
2014-Oct-21 20:33N 32°00' E 120°35'222094.9
2014-Oct-21 20:32N 31°47' E 120°54'5652911.5
2014-Oct-21 20:20N 23°10' E 116°37'57579601.1
2014-Oct-21 20:20N 32°02' E 120°45'34210814.5
2014-Oct-21 20:18N 37°39' E 121°56'9781313.4
2014-Oct-21 19:33N 23°04' E 113°30'654213976.5
2014-Oct-21 19:33N 32°02' E 120°29'2610549.6
2014-Oct-21 19:33N 31°47' E 120°54'1933922.7
2014-Oct-21 19:33N 32°00' E 120°39'1322644.8
2014-Oct-21 19:33N 32°01' E 120°24'14226895.2
2014-Oct-21 19:33N 30°25' E 122°27'65216300.6
2014-Oct-21 19:30N 23°04' E 113°29'654214131.1
2014-Oct-21 19:30N 32°02' E 120°30'69929950.9
2014-Oct-21 19:29N 22°10' E 113°32'102629783.2
2014-Oct-21 19:27N 37°38' E 121°57'10025820.4
2014-Oct-21 19:16N 22°27' E 113°53'671939.4
2014-Oct-21 18:33N 32°01' E 120°25'6597.2
2014-Oct-21 18:33N 32°02' E 120°31'13855298.8
2014-Oct-21 18:33N 30°25' E 122°27'1393188.4
2014-Oct-21 18:30N 32°02' E 120°30'4059993.1
2014-Oct-21 18:28N 38°44' E 121°27'40414263.2
2014-Oct-21 18:26N 32°02' E 120°45'17504.1
2014-Oct-21 18:24N 31°47' E 120°54'6982176.8
2014-Oct-21 18:05N 22°10' E 113°32'6921317.4
2014-Oct-21 17:33N 31°59' E 120°21'815052.5
2014-Oct-21 17:33N 32°02' E 120°30'406291987.0
2014-Oct-21 17:33N 38°44' E 121°30'1026175961.5
2014-Oct-21 17:33N 23°04' E 113°30'65751451.5
2014-Oct-21 17:32N 32°00' E 120°39'66679931.1
2014-Oct-21 17:31N 22°51' E 113°34'141035.5
2014-Oct-21 17:31N 23°04' E 113°29'65242678.1
2014-Oct-21 17:30N 30°25' E 122°27'68940023.1
2014-Oct-21 17:29N 22°10' E 113°32'10226093.3
2014-Oct-21 17:19N 37°33' E 121°58'347460.9
2014-Oct-21 16:33N 31°57' E 120°15'643105137.2
2014-Oct-21 16:33N 23°04' E 113°30'64330854.0
2014-Oct-21 16:32N 31°56' E 120°16'41333763.4
2014-Oct-21 16:31N 38°44' E 121°33'40625187.8
2014-Oct-21 16:30N 32°02' E 120°30'34247376.6
2014-Oct-21 16:30N 37°36' E 121°59'97629051.6
2014-Oct-21 16:28N 23°04' E 113°29'41580.5
2014-Oct-21 16:23N 22°27' E 113°47'27441.5
2014-Oct-21 16:20N 22°51' E 113°34'67014895.3
2014-Oct-21 16:17N 32°02' E 120°45'6724161.1
2014-Oct-21 16:07N 22°55' E 113°26'451012.4
2014-Oct-21 16:05N 22°10' E 113°32'  

Dump ship's entire track history